PWSweather.com
Personal Weather Stations
Station Observations

Enon Chester, VA 23836

Lat: 37.3609267, Lon: -77.31545840000001

Elevation: 89

Station Type: Acurite

http://www.wunderground.com/personal-weather-station/dashboard?ID=KVACHEST67

High Low Average
Temperature 47.8°F8.8°C 12.7°F-10.7°C 29.4°F-1.4°C
Dew Point 34.9°F1.6°C -0.2°F-17.9°C 17.9°F-7.8°C
Winds 16.6 mph 26.7 kmh Calm Calm 2.0 mph SW3.2 kmh SW
Wind Gusts 16.6 mph26.7 kmh -- 4.0 mph6.4 kmh
Humidity 95% 39% 64%
Pressure 30.49 in1032.5 mb 30.17 in1021.7 mb -
Precipitation 0.10 in2.5 mm - -
Hour Temp Dew Point Humidity Winds Wind Gusts Pressure Precip Precip Rate Daily Precip Total
12:00 AM 16.2°F-8.8°C 0.0°F-17.8°C 48% 1.7 mph ESE2.7 kmh ESE 4.2 mph6.8 kmh 30.49 in1032.5 mb 0.00 in0.0 mm 0.00 in0.0 mm 0.00 in0.0 mm
12:01 AM 16.2°F-8.8°C 0.0°F-17.8°C 48% 1.7 mph S2.7 kmh S 4.2 mph6.8 kmh 30.49 in1032.5 mb 0.00 in0.0 mm 0.00 in0.0 mm 0.00 in0.0 mm
12:02 AM 16.2°F-8.8°C 0.0°F-17.8°C 48% Calm Calm 2.7 mph4.3 kmh 30.49 in1032.5 mb 0.00 in0.0 mm 0.00 in0.0 mm 0.00 in0.0 mm
12:03 AM 16.2°F-8.8°C 0.0°F-17.8°C 48% 1.1 mph W1.8 kmh W 2.7 mph4.3 kmh 30.49 in1032.5 mb 0.00 in0.0 mm 0.00 in0.0 mm 0.00 in0.0 mm
12:04 AM 16.0°F-8.9°C -0.2°F-17.9°C 48% 2.7 mph ESE4.3 kmh ESE 2.7 mph4.3 kmh 30.49 in1032.5 mb 0.00 in0.0 mm 0.00 in0.0 mm 0.00 in0.0 mm
12:05 AM 16.0°F-8.9°C -0.2°F-17.9°C 48% 1.1 mph N1.8 kmh N 3.2 mph5.1 kmh 30.48 in1032.2 mb 0.00 in0.0 mm 0.00 in0.0 mm 0.00 in0.0 mm
12:06 AM 16.0°F-8.9°C -0.2°F-17.9°C 48% 2.2 mph NE3.5 kmh NE 3.2 mph5.1 kmh 30.48 in1032.2 mb 0.00 in0.0 mm 0.00 in0.0 mm 0.00 in0.0 mm
12:07 AM 16.2°F-8.8°C 0.0°F-17.8°C 48% 1.1 mph ENE1.8 kmh ENE 3.2 mph5.1 kmh 30.48 in1032.2 mb 0.00 in0.0 mm 0.00 in0.0 mm 0.00 in0.0 mm
12:08 AM 16.2°F-8.8°C 0.0°F-17.8°C 48% 1.7 mph E2.7 kmh E 3.2 mph5.1 kmh 30.48 in1032.2 mb 0.00 in0.0 mm 0.00 in0.0 mm 0.00 in0.0 mm
12:09 AM 16.2°F-8.8°C 0.0°F-17.8°C 48% 1.7 mph WNW2.7 kmh WNW 3.2 mph5.1 kmh 30.48 in1032.2 mb 0.00 in0.0 mm 0.00 in0.0 mm 0.00 in0.0 mm
12:10 AM 16.0°F-8.9°C -0.2°F-17.9°C 48% 1.7 mph NNE2.7 kmh NNE 3.2 mph5.1 kmh 30.48 in1032.2 mb 0.00 in0.0 mm 0.00 in0.0 mm 0.00 in0.0 mm
12:11 AM 16.0°F-8.9°C -0.2°F-17.9°C 48% 1.1 mph S1.8 kmh S 3.2 mph5.1 kmh 30.48 in1032.2 mb 0.00 in0.0 mm 0.00 in0.0 mm 0.00 in0.0 mm
12:12 AM 16.0°F-8.9°C -0.2°F-17.9°C 48% 1.1 mph ESE1.8 kmh ESE 3.2 mph5.1 kmh 30.48 in1032.2 mb 0.00 in0.0 mm 0.00 in0.0 mm 0.00 in0.0 mm
12:13 AM 16.0°F-8.9°C -0.2°F-17.9°C 48% 1.7 mph NE2.7 kmh NE 3.2 mph5.1 kmh 30.48 in1032.2 mb 0.00 in0.0 mm 0.00 in0.0 mm 0.00 in0.0 mm
12:14 AM 16.0°F-8.9°C -0.2°F-17.9°C 48% Calm Calm 3.2 mph5.1 kmh 30.48 in1032.2 mb 0.00 in0.0 mm 0.00 in0.0 mm 0.00 in0.0 mm
12:15 AM 16.0°F-8.9°C -0.2°F-17.9°C 48% 1.1 mph NNW1.8 kmh NNW 3.2 mph5.1 kmh 30.48 in1032.2 mb 0.00 in0.0 mm 0.00 in0.0 mm 0.00 in0.0 mm
12:16 AM 16.0°F-8.9°C -0.2°F-17.9°C 48% 1.1 mph ESE1.8 kmh ESE 3.2 mph5.1 kmh 30.48 in1032.2 mb 0.00 in0.0 mm 0.00 in0.0 mm 0.00 in0.0 mm
12:17 AM 16.0°F-8.9°C 0.3°F-17.6°C 49% Calm Calm 3.2 mph5.1 kmh 30.48 in1032.2 mb 0.00 in0.0 mm 0.00 in0.0 mm 0.00 in0.0 mm
12:18 AM 15.8°F-9.0°C 0.1°F-17.7°C 49% 1.7 mph W2.7 kmh W 3.2 mph5.1 kmh 30.48 in1032.2 mb 0.00 in0.0 mm 0.00 in0.0 mm 0.00 in0.0 mm
12:19 AM 15.8°F-9.0°C 0.1°F-17.7°C 49% 2.2 mph S3.5 kmh S 3.2 mph5.1 kmh 30.48 in1032.2 mb 0.00 in0.0 mm 0.00 in0.0 mm 0.00 in0.0 mm
12:20 AM 15.8°F-9.0°C 0.1°F-17.7°C 49% 1.1 mph NE1.8 kmh NE 3.2 mph5.1 kmh 30.48 in1032.2 mb 0.00 in0.0 mm 0.00 in0.0 mm 0.00 in0.0 mm
12:21 AM 15.8°F-9.0°C 0.1°F-17.7°C 49% 1.7 mph NNW2.7 kmh NNW 3.2 mph5.1 kmh 30.48 in1032.2 mb 0.00 in0.0 mm 0.00 in0.0 mm 0.00 in0.0 mm
12:22 AM 15.8°F-9.0°C 0.1°F-17.7°C 49% 2.2 mph ESE3.5 kmh ESE 3.2 mph5.1 kmh 30.48 in1032.2 mb 0.00 in0.0 mm 0.00 in0.0 mm 0.00 in0.0 mm
12:23 AM 16.0°F-8.9°C 0.3°F-17.6°C 49% 1.7 mph NE2.7 kmh NE 3.2 mph5.1 kmh 30.48 in1032.2 mb 0.00 in0.0 mm 0.00 in0.0 mm 0.00 in0.0 mm
12:24 AM 16.0°F-8.9°C 0.3°F-17.6°C 49% Calm Calm 3.2 mph5.1 kmh 30.48 in1032.2 mb 0.00 in0.0 mm 0.00 in0.0 mm 0.00 in0.0 mm
12:25 AM 16.0°F-8.9°C 0.3°F-17.6°C 49% 1.1 mph NW1.8 kmh NW 3.2 mph5.1 kmh 30.48 in1032.2 mb 0.00 in0.0 mm 0.00 in0.0 mm 0.00 in0.0 mm
12:26 AM 15.8°F-9.0°C 0.1°F-17.7°C 49% 2.2 mph NW3.5 kmh NW 3.2 mph5.1 kmh 30.48 in1032.2 mb 0.00 in0.0 mm 0.00 in0.0 mm 0.00 in0.0 mm
12:27 AM 15.8°F-9.0°C 0.1°F-17.7°C 49% 1.7 mph NNE2.7 kmh NNE 3.2 mph5.1 kmh 30.48 in1032.2 mb 0.00 in0.0 mm 0.00 in0.0 mm 0.00 in0.0 mm
12:28 AM 15.8°F-9.0°C 0.1°F-17.7°C 49% 1.7 mph S2.7 kmh S 3.2 mph5.1 kmh 30.48 in1032.2 mb 0.00 in0.0 mm 0.00 in0.0 mm 0.00 in0.0 mm
12:29 AM 15.8°F-9.0°C 0.1°F-17.7°C 49% 2.2 mph SSE3.5 kmh SSE 3.7 mph6.0 kmh 30.48 in1032.2 mb 0.00 in0.0 mm 0.00 in0.0 mm 0.00 in0.0 mm
12:30 AM 15.8°F-9.0°C 0.1°F-17.7°C 49% 1.7 mph NW2.7 kmh NW 3.7 mph6.0 kmh 30.48 in1032.2 mb 0.00 in0.0 mm 0.00 in0.0 mm 0.00 in0.0 mm
12:31 AM 15.8°F-9.0°C 0.1°F-17.7°C 49% 1.1 mph ESE1.8 kmh ESE 3.7 mph6.0 kmh 30.48 in1032.2 mb 0.00 in0.0 mm 0.00 in0.0 mm 0.00 in0.0 mm
12:32 AM 15.8°F-9.0°C 0.1°F-17.7°C 49% 2.2 mph SSE3.5 kmh SSE 3.7 mph6.0 kmh 30.48 in1032.2 mb 0.00 in0.0 mm 0.00 in0.0 mm 0.00 in0.0 mm
12:33 AM 15.8°F-9.0°C 0.1°F-17.7°C 49% 1.7 mph ESE2.7 kmh ESE 3.7 mph6.0 kmh 30.48 in1032.2 mb 0.00 in0.0 mm 0.00 in0.0 mm 0.00 in0.0 mm
12:34 AM 15.8°F-9.0°C 0.1°F-17.7°C 49% 1.7 mph ESE2.7 kmh ESE 3.7 mph6.0 kmh 30.48 in1032.2 mb 0.00 in0.0 mm 0.00 in0.0 mm 0.00 in0.0 mm
12:35 AM 15.8°F-9.0°C 0.1°F-17.7°C 49% 2.7 mph W4.3 kmh W 3.7 mph6.0 kmh 30.48 in1032.2 mb 0.00 in0.0 mm 0.00 in0.0 mm 0.00 in0.0 mm
12:36 AM 15.8°F-9.0°C 0.1°F-17.7°C 49% 2.2 mph NNW3.5 kmh NNW 3.7 mph6.0 kmh 30.48 in1032.2 mb 0.00 in0.0 mm 0.00 in0.0 mm 0.00 in0.0 mm
12:37 AM 15.8°F-9.0°C 0.1°F-17.7°C 49% 1.7 mph WNW2.7 kmh WNW 3.7 mph6.0 kmh 30.48 in1032.2 mb 0.00 in0.0 mm 0.00 in0.0 mm 0.00 in0.0 mm
12:38 AM 16.0°F-8.9°C 0.3°F-17.6°C 49% 1.7 mph NNE2.7 kmh NNE 3.7 mph6.0 kmh 30.48 in1032.2 mb 0.00 in0.0 mm 0.00 in0.0 mm 0.00 in0.0 mm
12:39 AM 16.2°F-8.8°C 0.4°F-17.6°C 49% 1.7 mph W2.7 kmh W 2.7 mph4.3 kmh 30.48 in1032.2 mb 0.00 in0.0 mm 0.00 in0.0 mm 0.00 in0.0 mm
12:40 AM 16.2°F-8.8°C 0.4°F-17.6°C 49% Calm Calm 2.7 mph4.3 kmh 30.48 in1032.2 mb 0.00 in0.0 mm 0.00 in0.0 mm 0.00 in0.0 mm
12:41 AM 16.0°F-8.9°C 0.3°F-17.6°C 49% 2.2 mph ESE3.5 kmh ESE 2.7 mph4.3 kmh 30.47 in1031.8 mb 0.00 in0.0 mm 0.00 in0.0 mm 0.00 in0.0 mm
12:42 AM 16.0°F-8.9°C 0.3°F-17.6°C 49% 2.7 mph W4.3 kmh W 2.7 mph4.3 kmh 30.47 in1031.8 mb 0.00 in0.0 mm 0.00 in0.0 mm 0.00 in0.0 mm
12:43 AM 16.0°F-8.9°C 0.3°F-17.6°C 49% 1.7 mph E2.7 kmh E 3.7 mph6.0 kmh 30.47 in1031.8 mb 0.00 in0.0 mm 0.00 in0.0 mm 0.00 in0.0 mm
12:44 AM 16.2°F-8.8°C 0.4°F-17.6°C 49% 1.7 mph W2.7 kmh W 3.7 mph6.0 kmh 30.47 in1031.8 mb 0.00 in0.0 mm 0.00 in0.0 mm 0.00 in0.0 mm
12:45 AM 16.3°F-8.7°C 0.5°F-17.5°C 49% Calm Calm 3.7 mph6.0 kmh 30.47 in1031.8 mb 0.00 in0.0 mm 0.00 in0.0 mm 0.00 in0.0 mm
12:46 AM 16.2°F-8.8°C 0.4°F-17.6°C 49% Calm Calm 3.7 mph6.0 kmh 30.47 in1031.8 mb 0.00 in0.0 mm 0.00 in0.0 mm 0.00 in0.0 mm
12:47 AM 16.0°F-8.9°C 0.3°F-17.6°C 49% 1.7 mph WNW2.7 kmh WNW 3.7 mph6.0 kmh 30.47 in1031.8 mb 0.00 in0.0 mm 0.00 in0.0 mm 0.00 in0.0 mm
12:48 AM 16.0°F-8.9°C 0.3°F-17.6°C 49% 1.1 mph ESE1.8 kmh ESE 3.7 mph6.0 kmh 30.47 in1031.8 mb 0.00 in0.0 mm 0.00 in0.0 mm 0.00 in0.0 mm
12:49 AM 16.0°F-8.9°C 0.3°F-17.6°C 49% 1.1 mph ESE1.8 kmh ESE 3.7 mph6.0 kmh 30.47 in1031.8 mb 0.00 in0.0 mm 0.00 in0.0 mm 0.00 in0.0 mm
12:50 AM 16.0°F-8.9°C 0.7°F-17.4°C 50% 1.1 mph ESE1.8 kmh ESE 3.7 mph6.0 kmh 30.47 in1031.8 mb 0.00 in0.0 mm 0.00 in0.0 mm 0.00 in0.0 mm
12:51 AM 16.0°F-8.9°C 0.7°F-17.4°C 50% 1.1 mph S1.8 kmh S 3.7 mph6.0 kmh 30.47 in1031.8 mb 0.00 in0.0 mm 0.00 in0.0 mm 0.00 in0.0 mm
12:52 AM 16.0°F-8.9°C 0.7°F-17.4°C 50% 1.7 mph W2.7 kmh W 3.7 mph6.0 kmh 30.47 in1031.8 mb 0.00 in0.0 mm 0.00 in0.0 mm 0.00 in0.0 mm
12:53 AM 16.0°F-8.9°C 0.7°F-17.4°C 50% 3.2 mph W5.1 kmh W 3.2 mph5.1 kmh 30.46 in1031.5 mb 0.00 in0.0 mm 0.00 in0.0 mm 0.00 in0.0 mm
12:54 AM 16.2°F-8.8°C 0.9°F-17.3°C 50% 1.7 mph NW2.7 kmh NW 3.2 mph5.1 kmh 30.46 in1031.5 mb 0.00 in0.0 mm 0.00 in0.0 mm 0.00 in0.0 mm
12:55 AM 16.2°F-8.8°C 0.9°F-17.3°C 50% 1.7 mph ESE2.7 kmh ESE 3.2 mph5.1 kmh 30.46 in1031.5 mb 0.00 in0.0 mm 0.00 in0.0 mm 0.00 in0.0 mm
12:56 AM 16.0°F-8.9°C 0.7°F-17.4°C 50% 1.1 mph ESE1.8 kmh ESE 3.2 mph5.1 kmh 30.46 in1031.5 mb 0.00 in0.0 mm 0.00 in0.0 mm 0.00 in0.0 mm
12:57 AM 16.0°F-8.9°C 0.7°F-17.4°C 50% 1.7 mph NNW2.7 kmh NNW 3.2 mph5.1 kmh 30.46 in1031.5 mb 0.00 in0.0 mm 0.00 in0.0 mm 0.00 in0.0 mm
12:58 AM 16.0°F-8.9°C 0.7°F-17.4°C 50% Calm Calm 3.2 mph5.1 kmh 30.46 in1031.5 mb 0.00 in0.0 mm 0.00 in0.0 mm 0.00 in0.0 mm
12:59 AM 15.8°F-9.0°C 0.5°F-17.5°C 50% Calm Calm 3.2 mph5.1 kmh 30.46 in1031.5 mb 0.00 in0.0 mm 0.00 in0.0 mm 0.00 in0.0 mm
01:00 AM 15.8°F-9.0°C 0.5°F-17.5°C 50% 1.7 mph ESE2.7 kmh ESE 3.2 mph5.1 kmh 30.46 in1031.5 mb 0.00 in0.0 mm 0.00 in0.0 mm 0.00 in0.0 mm
01:01 AM 15.8°F-9.0°C 0.5°F-17.5°C 50% 1.7 mph SSE2.7 kmh SSE 3.2 mph5.1 kmh 30.46 in1031.5 mb 0.00 in0.0 mm 0.00 in0.0 mm 0.00 in0.0 mm
01:02 AM 15.8°F-9.0°C 0.5°F-17.5°C 50% 1.1 mph S1.8 kmh S 3.2 mph5.1 kmh 30.46 in1031.5 mb 0.00 in0.0 mm 0.00 in0.0 mm 0.00 in0.0 mm
01:03 AM 15.8°F-9.0°C 0.5°F-17.5°C 50% Calm Calm 3.2 mph5.1 kmh 30.46 in1031.5 mb 0.00 in0.0 mm 0.00 in0.0 mm 0.00 in0.0 mm
01:04 AM 15.8°F-9.0°C 0.5°F-17.5°C 50% 1.1 mph ESE1.8 kmh ESE 2.2 mph3.5 kmh 30.46 in1031.5 mb 0.00 in0.0 mm 0.00 in0.0 mm 0.00 in0.0 mm
01:05 AM 15.6°F-9.1°C 0.3°F-17.6°C 50% Calm Calm 2.2 mph3.5 kmh 30.45 in1031.2 mb 0.00 in0.0 mm 0.00 in0.0 mm 0.00 in0.0 mm
01:06 AM 15.6°F-9.1°C 0.7°F-17.4°C 51% 1.1 mph ESE1.8 kmh ESE 2.2 mph3.5 kmh 30.45 in1031.2 mb 0.00 in0.0 mm 0.00 in0.0 mm 0.00 in0.0 mm
01:07 AM 15.6°F-9.1°C 0.7°F-17.4°C 51% 1.1 mph ESE1.8 kmh ESE 2.2 mph3.5 kmh 30.45 in1031.2 mb 0.00 in0.0 mm 0.00 in0.0 mm 0.00 in0.0 mm
01:08 AM 15.6°F-9.1°C 0.7°F-17.4°C 51% 2.2 mph ESE3.5 kmh ESE 2.2 mph3.5 kmh 30.45 in1031.2 mb 0.00 in0.0 mm 0.00 in0.0 mm 0.00 in0.0 mm
01:09 AM 15.6°F-9.1°C 0.7°F-17.4°C 51% 1.7 mph NW2.7 kmh NW 2.2 mph3.5 kmh 30.45 in1031.2 mb 0.00 in0.0 mm 0.00 in0.0 mm 0.00 in0.0 mm
01:10 AM 15.6°F-9.1°C 0.7°F-17.4°C 51% 1.1 mph SSW1.8 kmh SSW 2.2 mph3.5 kmh 30.45 in1031.2 mb 0.00 in0.0 mm 0.00 in0.0 mm 0.00 in0.0 mm
01:11 AM 15.4°F-9.2°C 0.5°F-17.5°C 51% 1.7 mph ENE2.7 kmh ENE 2.2 mph3.5 kmh 30.45 in1031.2 mb 0.00 in0.0 mm 0.00 in0.0 mm 0.00 in0.0 mm
01:12 AM 15.4°F-9.2°C 0.5°F-17.5°C 51% Calm Calm 2.2 mph3.5 kmh 30.45 in1031.2 mb 0.00 in0.0 mm 0.00 in0.0 mm 0.00 in0.0 mm
01:13 AM 15.4°F-9.2°C 0.5°F-17.5°C 51% 1.1 mph NNE1.8 kmh NNE 2.2 mph3.5 kmh 30.45 in1031.2 mb 0.00 in0.0 mm 0.00 in0.0 mm 0.00 in0.0 mm
01:14 AM 15.4°F-9.2°C 0.5°F-17.5°C 51% 1.1 mph SSE1.8 kmh SSE 2.2 mph3.5 kmh 30.45 in1031.2 mb 0.00 in0.0 mm 0.00 in0.0 mm 0.00 in0.0 mm
01:15 AM 15.4°F-9.2°C 0.5°F-17.5°C 51% 1.1 mph SSW1.8 kmh SSW 2.2 mph3.5 kmh 30.45 in1031.2 mb 0.00 in0.0 mm 0.00 in0.0 mm 0.00 in0.0 mm
01:16 AM 15.4°F-9.2°C 0.5°F-17.5°C 51% 1.1 mph S1.8 kmh S 2.2 mph3.5 kmh 30.45 in1031.2 mb 0.00 in0.0 mm 0.00 in0.0 mm 0.00 in0.0 mm
01:17 AM 15.4°F-9.2°C 0.5°F-17.5°C 51% Calm Calm 2.2 mph3.5 kmh 30.45 in1031.2 mb 0.00 in0.0 mm 0.00 in0.0 mm 0.00 in0.0 mm
01:18 AM 15.4°F-9.2°C 0.5°F-17.5°C 51% 1.1 mph SE1.8 kmh SE 2.2 mph3.5 kmh 30.45 in1031.2 mb 0.00 in0.0 mm 0.00 in0.0 mm 0.00 in0.0 mm
01:19 AM 15.4°F-9.2°C 0.5°F-17.5°C 51% 1.1 mph ESE1.8 kmh ESE 2.2 mph3.5 kmh 30.45 in1031.2 mb 0.00 in0.0 mm 0.00 in0.0 mm 0.00 in0.0 mm
01:20 AM 15.4°F-9.2°C 0.5°F-17.5°C 51% Calm Calm 2.2 mph3.5 kmh 30.45 in1031.2 mb 0.00 in0.0 mm 0.00 in0.0 mm 0.00 in0.0 mm
01:21 AM 15.4°F-9.2°C 0.5°F-17.5°C 51% Calm Calm 2.2 mph3.5 kmh 30.45 in1031.2 mb 0.00 in0.0 mm 0.00 in0.0 mm 0.00 in0.0 mm
01:22 AM 15.4°F-9.2°C 0.5°F-17.5°C 51% Calm Calm 2.2 mph3.5 kmh 30.45 in1031.2 mb 0.00 in0.0 mm 0.00 in0.0 mm 0.00 in0.0 mm
01:23 AM 15.4°F-9.2°C 0.5°F-17.5°C 51% 1.7 mph E2.7 kmh E 2.2 mph3.5 kmh 30.45 in1031.2 mb 0.00 in0.0 mm 0.00 in0.0 mm 0.00 in0.0 mm
01:24 AM 15.4°F-9.2°C 0.5°F-17.5°C 51% 2.2 mph ESE3.5 kmh ESE 2.2 mph3.5 kmh 30.45 in1031.2 mb 0.00 in0.0 mm 0.00 in0.0 mm 0.00 in0.0 mm
01:25 AM 15.4°F-9.2°C 0.5°F-17.5°C 51% 1.7 mph SSE2.7 kmh SSE 2.2 mph3.5 kmh 30.45 in1031.2 mb 0.00 in0.0 mm 0.00 in0.0 mm 0.00 in0.0 mm
01:26 AM 15.4°F-9.2°C 0.5°F-17.5°C 51% 1.1 mph WSW1.8 kmh WSW 2.2 mph3.5 kmh 30.45 in1031.2 mb 0.00 in0.0 mm 0.00 in0.0 mm 0.00 in0.0 mm
01:27 AM 15.6°F-9.1°C 0.7°F-17.4°C 51% Calm Calm 2.2 mph3.5 kmh 30.45 in1031.2 mb 0.00 in0.0 mm 0.00 in0.0 mm 0.00 in0.0 mm
01:28 AM 15.6°F-9.1°C 0.7°F-17.4°C 51% 2.2 mph SSE3.5 kmh SSE 2.2 mph3.5 kmh 30.44 in1030.8 mb 0.00 in0.0 mm 0.00 in0.0 mm 0.00 in0.0 mm
01:29 AM 15.6°F-9.1°C 0.7°F-17.4°C 51% 2.7 mph W4.3 kmh W 2.7 mph4.3 kmh 30.44 in1030.8 mb 0.00 in0.0 mm 0.00 in0.0 mm 0.00 in0.0 mm
01:30 AM 15.6°F-9.1°C 0.7°F-17.4°C 51% Calm Calm 2.7 mph4.3 kmh 30.44 in1030.8 mb 0.00 in0.0 mm 0.00 in0.0 mm 0.00 in0.0 mm
01:31 AM 15.4°F-9.2°C 0.5°F-17.5°C 51% 1.1 mph NE1.8 kmh NE 2.7 mph4.3 kmh 30.44 in1030.8 mb 0.00 in0.0 mm 0.00 in0.0 mm 0.00 in0.0 mm
01:32 AM 15.4°F-9.2°C 0.5°F-17.5°C 51% 1.7 mph ESE2.7 kmh ESE 2.7 mph4.3 kmh 30.44 in1030.8 mb 0.00 in0.0 mm 0.00 in0.0 mm 0.00 in0.0 mm
01:33 AM 15.4°F-9.2°C 1.0°F-17.2°C 52% 2.2 mph E3.5 kmh E 2.7 mph4.3 kmh 30.44 in1030.8 mb 0.00 in0.0 mm 0.00 in0.0 mm 0.00 in0.0 mm
01:34 AM 15.4°F-9.2°C 1.0°F-17.2°C 52% 1.1 mph NNW1.8 kmh NNW 2.7 mph4.3 kmh 30.44 in1030.8 mb 0.00 in0.0 mm 0.00 in0.0 mm 0.00 in0.0 mm
01:35 AM 15.4°F-9.2°C 1.0°F-17.2°C 52% Calm Calm 2.7 mph4.3 kmh 30.44 in1030.8 mb 0.00 in0.0 mm 0.00 in0.0 mm 0.00 in0.0 mm
01:36 AM 15.4°F-9.2°C 1.0°F-17.2°C 52% 1.7 mph N2.7 kmh N 2.7 mph4.3 kmh 30.44 in1030.8 mb 0.00 in0.0 mm 0.00 in0.0 mm 0.00 in0.0 mm
01:37 AM 15.4°F-9.2°C 1.0°F-17.2°C 52% 1.7 mph NNW2.7 kmh NNW 2.7 mph4.3 kmh 30.44 in1030.8 mb 0.00 in0.0 mm 0.00 in0.0 mm 0.00 in0.0 mm
01:38 AM 15.4°F-9.2°C 1.0°F-17.2°C 52% 1.1 mph SSW1.8 kmh SSW 2.7 mph4.3 kmh 30.44 in1030.8 mb 0.00 in0.0 mm 0.00 in0.0 mm 0.00 in0.0 mm
01:39 AM 15.4°F-9.2°C 1.0°F-17.2°C 52% 1.7 mph W2.7 kmh W 2.2 mph3.5 kmh 30.44 in1030.8 mb 0.00 in0.0 mm 0.00 in0.0 mm 0.00 in0.0 mm
01:40 AM 15.4°F-9.2°C 1.0°F-17.2°C 52% 1.1 mph SE1.8 kmh SE 2.2 mph3.5 kmh 30.44 in1030.8 mb 0.00 in0.0 mm 0.00 in0.0 mm 0.00 in0.0 mm
01:41 AM 15.3°F-9.3°C 0.9°F-17.3°C 52% 1.7 mph S2.7 kmh S 2.2 mph3.5 kmh 30.44 in1030.8 mb 0.00 in0.0 mm 0.00 in0.0 mm 0.00 in0.0 mm
01:42 AM 15.3°F-9.3°C 0.9°F-17.3°C 52% 1.1 mph ESE1.8 kmh ESE 2.2 mph3.5 kmh 30.44 in1030.8 mb 0.00 in0.0 mm 0.00 in0.0 mm 0.00 in0.0 mm
01:43 AM 15.3°F-9.3°C 0.9°F-17.3°C 52% Calm Calm 2.2 mph3.5 kmh 30.44 in1030.8 mb 0.00 in0.0 mm 0.00 in0.0 mm 0.00 in0.0 mm
01:44 AM 15.3°F-9.3°C 1.3°F-17.1°C 53% 1.1 mph SSW1.8 kmh SSW 1.7 mph2.7 kmh 30.44 in1030.8 mb 0.00 in0.0 mm 0.00 in0.0 mm 0.00 in0.0 mm
01:45 AM 15.3°F-9.3°C 1.3°F-17.1°C 53% Calm Calm 1.7 mph2.7 kmh 30.44 in1030.8 mb 0.00 in0.0 mm 0.00 in0.0 mm 0.00 in0.0 mm
01:46 AM 15.3°F-9.3°C 1.3°F-17.1°C 53% 1.1 mph SE1.8 kmh SE 1.7 mph2.7 kmh 30.44 in1030.8 mb 0.00 in0.0 mm 0.00 in0.0 mm 0.00 in0.0 mm
01:47 AM 15.3°F-9.3°C 1.3°F-17.1°C 53% 2.2 mph SSE3.5 kmh SSE 2.2 mph3.5 kmh 30.44 in1030.8 mb 0.00 in0.0 mm 0.00 in0.0 mm 0.00 in0.0 mm
01:48 AM 15.3°F-9.3°C 1.3°F-17.1°C 53% 1.1 mph SE1.8 kmh SE 2.2 mph3.5 kmh 30.44 in1030.8 mb 0.00 in0.0 mm 0.00 in0.0 mm 0.00 in0.0 mm
01:49 AM 15.3°F-9.3°C 1.3°F-17.1°C 53% 2.2 mph SSE3.5 kmh SSE 2.2 mph3.5 kmh 30.44 in1030.8 mb 0.00 in0.0 mm 0.00 in0.0 mm 0.00 in0.0 mm
01:50 AM 15.3°F-9.3°C 1.3°F-17.1°C 53% 1.1 mph SSE1.8 kmh SSE 2.2 mph3.5 kmh 30.44 in1030.8 mb 0.00 in0.0 mm 0.00 in0.0 mm 0.00 in0.0 mm
01:51 AM 15.3°F-9.3°C 1.3°F-17.1°C 53% 1.1 mph ESE1.8 kmh ESE 2.2 mph3.5 kmh 30.44 in1030.8 mb 0.00 in0.0 mm 0.00 in0.0 mm 0.00 in0.0 mm
01:52 AM 15.1°F-9.4°C 1.1°F-17.2°C 53% 1.1 mph SE1.8 kmh SE 2.2 mph3.5 kmh 30.44 in1030.8 mb 0.00 in0.0 mm 0.00 in0.0 mm 0.00 in0.0 mm
01:53 AM 15.1°F-9.4°C 1.1°F-17.2°C 53% Calm Calm 2.2 mph3.5 kmh 30.43 in1030.5 mb 0.00 in0.0 mm 0.00 in0.0 mm 0.00 in0.0 mm
01:54 AM 14.9°F-9.5°C 0.9°F-17.3°C 53% 1.7 mph SE2.7 kmh SE 2.2 mph3.5 kmh 30.43 in1030.5 mb 0.00 in0.0 mm 0.00 in0.0 mm 0.00 in0.0 mm
01:55 AM 14.9°F-9.5°C 0.9°F-17.3°C 53% Calm Calm 2.2 mph3.5 kmh 30.43 in1030.5 mb 0.00 in0.0 mm 0.00 in0.0 mm 0.00 in0.0 mm
01:56 AM 14.9°F-9.5°C 1.3°F-17.1°C 54% Calm Calm 2.2 mph3.5 kmh 30.43 in1030.5 mb 0.00 in0.0 mm 0.00 in0.0 mm 0.00 in0.0 mm
01:57 AM 14.9°F-9.5°C 1.3°F-17.1°C 54% Calm Calm 2.2 mph3.5 kmh 30.43 in1030.5 mb 0.00 in0.0 mm 0.00 in0.0 mm 0.00 in0.0 mm
01:58 AM 14.7°F-9.6°C 1.1°F-17.2°C 54% 2.2 mph S3.5 kmh S 2.2 mph3.5 kmh 30.43 in1030.5 mb 0.00 in0.0 mm 0.00 in0.0 mm 0.00 in0.0 mm
01:59 AM 15.1°F-9.4°C 1.1°F-17.2°C 53% 1.7 mph SSE2.7 kmh SSE 2.2 mph3.5 kmh 30.43 in1030.5 mb 0.00 in0.0 mm 0.00 in0.0 mm 0.00 in0.0 mm
02:00 AM 15.1°F-9.4°C 1.1°F-17.2°C 53% 1.7 mph W2.7 kmh W 2.2 mph3.5 kmh 30.43 in1030.5 mb 0.00 in0.0 mm 0.00 in0.0 mm 0.00 in0.0 mm
02:01 AM 15.1°F-9.4°C 1.1°F-17.2°C 53% 3.2 mph SSE5.1 kmh SSE 3.2 mph5.1 kmh 30.43 in1030.5 mb 0.00 in0.0 mm 0.00 in0.0 mm 0.00 in0.0 mm
02:02 AM 15.1°F-9.4°C 0.7°F-17.4°C 52% Calm Calm 3.2 mph5.1 kmh 30.43 in1030.5 mb 0.00 in0.0 mm 0.00 in0.0 mm 0.00 in0.0 mm
02:03 AM 15.1°F-9.4°C 0.7°F-17.4°C 52% 1.7 mph SSE2.7 kmh SSE 3.2 mph5.1 kmh 30.43 in1030.5 mb 0.00 in0.0 mm 0.00 in0.0 mm 0.00 in0.0 mm
02:04 AM 15.1°F-9.4°C 0.7°F-17.4°C 52% 1.7 mph SSE2.7 kmh SSE 3.2 mph5.1 kmh 30.43 in1030.5 mb 0.00 in0.0 mm 0.00 in0.0 mm 0.00 in0.0 mm
02:05 AM 15.1°F-9.4°C 0.7°F-17.4°C 52% 1.7 mph SSE2.7 kmh SSE 3.2 mph5.1 kmh 30.43 in1030.5 mb 0.00 in0.0 mm 0.00 in0.0 mm 0.00 in0.0 mm
02:06 AM 15.1°F-9.4°C 1.1°F-17.2°C 53% 1.1 mph SSE1.8 kmh SSE 3.2 mph5.1 kmh 30.43 in1030.5 mb 0.00 in0.0 mm 0.00 in0.0 mm 0.00 in0.0 mm
02:07 AM 15.1°F-9.4°C 1.1°F-17.2°C 53% Calm Calm 3.2 mph5.1 kmh 30.43 in1030.5 mb 0.00 in0.0 mm 0.00 in0.0 mm 0.00 in0.0 mm
02:08 AM 14.9°F-9.5°C 0.9°F-17.3°C 53% Calm Calm 3.2 mph5.1 kmh 30.43 in1030.5 mb 0.00 in0.0 mm 0.00 in0.0 mm 0.00 in0.0 mm
02:09 AM 14.9°F-9.5°C 1.3°F-17.1°C 54% 1.7 mph SSE2.7 kmh SSE 3.2 mph5.1 kmh 30.43 in1030.5 mb 0.00 in0.0 mm 0.00 in0.0 mm 0.00 in0.0 mm
02:10 AM 14.9°F-9.5°C 1.3°F-17.1°C 54% 1.7 mph SSE2.7 kmh SSE 3.2 mph5.1 kmh 30.43 in1030.5 mb 0.00 in0.0 mm 0.00 in0.0 mm 0.00 in0.0 mm
02:11 AM 14.9°F-9.5°C 1.3°F-17.1°C 54% Calm Calm 3.2 mph5.1 kmh 30.43 in1030.5 mb 0.00 in0.0 mm 0.00 in0.0 mm 0.00 in0.0 mm
02:12 AM 14.7°F-9.6°C 1.1°F-17.2°C 54% 1.1 mph SE1.8 kmh SE 2.2 mph3.5 kmh 30.43 in1030.5 mb 0.00 in0.0 mm 0.00 in0.0 mm 0.00 in0.0 mm
02:13 AM 14.7°F-9.6°C 1.1°F-17.2°C 54% 1.1 mph SE1.8 kmh SE 1.7 mph2.7 kmh 30.43 in1030.5 mb 0.00 in0.0 mm 0.00 in0.0 mm 0.00 in0.0 mm
02:14 AM 14.5°F-9.7°C 0.9°F-17.3°C 54% Calm Calm 1.7 mph2.7 kmh 30.43 in1030.5 mb 0.00 in0.0 mm 0.00 in0.0 mm 0.00 in0.0 mm
02:15 AM 14.5°F-9.7°C 0.9°F-17.3°C 54% 1.1 mph SSE1.8 kmh SSE 1.7 mph2.7 kmh 30.43 in1030.5 mb 0.00 in0.0 mm 0.00 in0.0 mm 0.00 in0.0 mm
02:16 AM 14.4°F-9.8°C 0.8°F-17.3°C 54% 1.7 mph SE2.7 kmh SE 1.7 mph2.7 kmh 30.43 in1030.5 mb 0.00 in0.0 mm 0.00 in0.0 mm 0.00 in0.0 mm
02:17 AM 14.4°F-9.8°C 0.8°F-17.3°C 54% 1.1 mph S1.8 kmh S 1.7 mph2.7 kmh 30.43 in1030.5 mb 0.00 in0.0 mm 0.00 in0.0 mm 0.00 in0.0 mm
02:18 AM 14.4°F-9.8°C 0.8°F-17.3°C 54% Calm Calm 1.7 mph2.7 kmh 30.43 in1030.5 mb 0.00 in0.0 mm 0.00 in0.0 mm 0.00 in0.0 mm
02:19 AM 14.4°F-9.8°C 0.8°F-17.3°C 54% Calm Calm 1.7 mph2.7 kmh 30.43 in1030.5 mb 0.00 in0.0 mm 0.00 in0.0 mm 0.00 in0.0 mm
02:20 AM 14.2°F-9.9°C 0.6°F-17.4°C 54% 1.7 mph ESE2.7 kmh ESE 1.7 mph2.7 kmh 30.43 in1030.5 mb 0.00 in0.0 mm 0.00 in0.0 mm 0.00 in0.0 mm
02:21 AM 14.2°F-9.9°C 1.0°F-17.2°C 55% 1.7 mph SSE2.7 kmh SSE 1.7 mph2.7 kmh 30.43 in1030.5 mb 0.00 in0.0 mm 0.00 in0.0 mm 0.00 in0.0 mm
02:22 AM 14.2°F-9.9°C 1.0°F-17.2°C 55% 1.1 mph SSE1.8 kmh SSE 1.7 mph2.7 kmh 30.43 in1030.5 mb 0.00 in0.0 mm 0.00 in0.0 mm 0.00 in0.0 mm
02:23 AM 14.2°F-9.9°C 1.0°F-17.2°C 55% 1.1 mph SSE1.8 kmh SSE 2.2 mph3.5 kmh 30.43 in1030.5 mb 0.00 in0.0 mm 0.00 in0.0 mm 0.00 in0.0 mm
02:24 AM 14.2°F-9.9°C 0.6°F-17.4°C 54% Calm Calm 2.2 mph3.5 kmh 30.43 in1030.5 mb 0.00 in0.0 mm 0.00 in0.0 mm 0.00 in0.0 mm
02:25 AM 14.2°F-9.9°C 0.6°F-17.4°C 54% Calm Calm 2.2 mph3.5 kmh 30.43 in1030.5 mb 0.00 in0.0 mm 0.00 in0.0 mm 0.00 in0.0 mm
02:26 AM 14.0°F-10.0°C 0.5°F-17.5°C 54% 1.7 mph SE2.7 kmh SE 2.2 mph3.5 kmh 30.43 in1030.5 mb 0.00 in0.0 mm 0.00 in0.0 mm 0.00 in0.0 mm
02:27 AM 14.0°F-10.0°C 0.5°F-17.5°C 54% 1.7 mph ESE2.7 kmh ESE 2.2 mph3.5 kmh 30.43 in1030.5 mb 0.00 in0.0 mm 0.00 in0.0 mm 0.00 in0.0 mm
02:28 AM 13.8°F-10.1°C 0.3°F-17.6°C 54% 1.7 mph ESE2.7 kmh ESE 2.2 mph3.5 kmh 30.43 in1030.5 mb 0.00 in0.0 mm 0.00 in0.0 mm 0.00 in0.0 mm
02:29 AM 13.8°F-10.1°C 0.3°F-17.6°C 54% 2.2 mph ESE3.5 kmh ESE 2.7 mph4.3 kmh 30.43 in1030.5 mb 0.00 in0.0 mm 0.00 in0.0 mm 0.00 in0.0 mm
02:30 AM 14.2°F-9.9°C 0.6°F-17.4°C 54% 2.2 mph ESE3.5 kmh ESE 2.7 mph4.3 kmh 30.43 in1030.5 mb 0.00 in0.0 mm 0.00 in0.0 mm 0.00 in0.0 mm
02:31 AM 14.2°F-9.9°C 0.6°F-17.4°C 54% 2.7 mph ESE4.3 kmh ESE 2.7 mph4.3 kmh 30.43 in1030.5 mb 0.00 in0.0 mm 0.00 in0.0 mm 0.00 in0.0 mm
02:32 AM 14.2°F-9.9°C 0.6°F-17.4°C 54% 2.2 mph ESE3.5 kmh ESE 2.7 mph4.3 kmh 30.43 in1030.5 mb 0.00 in0.0 mm 0.00 in0.0 mm 0.00 in0.0 mm
02:33 AM 14.2°F-9.9°C 1.0°F-17.2°C 55% 1.1 mph ESE1.8 kmh ESE 2.7 mph4.3 kmh 30.43 in1030.5 mb 0.00 in0.0 mm 0.00 in0.0 mm 0.00 in0.0 mm
02:34 AM 14.2°F-9.9°C 1.0°F-17.2°C 55% 1.7 mph SSE2.7 kmh SSE 2.7 mph4.3 kmh 30.43 in1030.5 mb 0.00 in0.0 mm 0.00 in0.0 mm 0.00 in0.0 mm
02:35 AM 14.4°F-9.8°C 1.2°F-17.1°C 55% 1.1 mph SSE1.8 kmh SSE 2.7 mph4.3 kmh 30.43 in1030.5 mb 0.00 in0.0 mm 0.00 in0.0 mm 0.00 in0.0 mm
02:36 AM 14.4°F-9.8°C 1.2°F-17.1°C 55% 1.1 mph SSE1.8 kmh SSE 2.7 mph4.3 kmh 30.43 in1030.5 mb 0.00 in0.0 mm 0.00 in0.0 mm 0.00 in0.0 mm
02:37 AM 14.4°F-9.8°C 1.2°F-17.1°C 55% 1.1 mph SSE1.8 kmh SSE 2.7 mph4.3 kmh 30.43 in1030.5 mb 0.00 in0.0 mm 0.00 in0.0 mm 0.00 in0.0 mm
02:38 AM 14.2°F-9.9°C 1.0°F-17.2°C 55% 1.1 mph SSE1.8 kmh SSE 2.7 mph4.3 kmh 30.43 in1030.5 mb 0.00 in0.0 mm 0.00 in0.0 mm 0.00 in0.0 mm
02:39 AM 14.0°F-10.0°C 0.8°F-17.3°C 55% 1.7 mph SSE2.7 kmh SSE 2.7 mph4.3 kmh 30.43 in1030.5 mb 0.00 in0.0 mm 0.00 in0.0 mm 0.00 in0.0 mm
02:40 AM 14.0°F-10.0°C 0.8°F-17.3°C 55% 1.7 mph SSE2.7 kmh SSE 2.7 mph4.3 kmh 30.43 in1030.5 mb 0.00 in0.0 mm 0.00 in0.0 mm 0.00 in0.0 mm
02:41 AM 13.8°F-10.1°C 0.7°F-17.4°C 55% Calm Calm 2.7 mph4.3 kmh 30.43 in1030.5 mb 0.00 in0.0 mm 0.00 in0.0 mm 0.00 in0.0 mm
02:42 AM 13.8°F-10.1°C 0.7°F-17.4°C 55% Calm Calm 2.2 mph3.5 kmh 30.43 in1030.5 mb 0.00 in0.0 mm 0.00 in0.0 mm 0.00 in0.0 mm
02:43 AM 13.8°F-10.1°C 0.7°F-17.4°C 55% Calm Calm 2.2 mph3.5 kmh 30.43 in1030.5 mb 0.00 in0.0 mm 0.00 in0.0 mm 0.00 in0.0 mm
02:44 AM 13.6°F-10.2°C 0.9°F-17.3°C 56% 1.7 mph SE2.7 kmh SE 1.7 mph2.7 kmh 30.43 in1030.5 mb 0.00 in0.0 mm 0.00 in0.0 mm 0.00 in0.0 mm
02:45 AM 13.6°F-10.2°C 0.9°F-17.3°C 56% 2.2 mph SSE3.5 kmh SSE 2.2 mph3.5 kmh 30.43 in1030.5 mb 0.00 in0.0 mm 0.00 in0.0 mm 0.00 in0.0 mm
02:46 AM 13.6°F-10.2°C 0.9°F-17.3°C 56% 2.2 mph ESE3.5 kmh ESE 2.2 mph3.5 kmh 30.43 in1030.5 mb 0.00 in0.0 mm 0.00 in0.0 mm 0.00 in0.0 mm
02:47 AM 13.6°F-10.2°C 0.9°F-17.3°C 56% 1.7 mph SE2.7 kmh SE 2.2 mph3.5 kmh 30.43 in1030.5 mb 0.00 in0.0 mm 0.00 in0.0 mm 0.00 in0.0 mm
02:48 AM 13.6°F-10.2°C 0.9°F-17.3°C 56% 2.2 mph SSE3.5 kmh SSE 2.2 mph3.5 kmh 30.43 in1030.5 mb 0.00 in0.0 mm 0.00 in0.0 mm 0.00 in0.0 mm
02:49 AM 13.6°F-10.2°C 0.9°F-17.3°C 56% 1.1 mph S1.8 kmh S 2.2 mph3.5 kmh 30.43 in1030.5 mb 0.00 in0.0 mm 0.00 in0.0 mm 0.00 in0.0 mm
02:50 AM 13.6°F-10.2°C 0.9°F-17.3°C 56% 1.7 mph SSE2.7 kmh SSE 2.2 mph3.5 kmh 30.43 in1030.5 mb 0.00 in0.0 mm 0.00 in0.0 mm 0.00 in0.0 mm
02:51 AM 13.8°F-10.1°C 1.0°F-17.2°C 56% 2.2 mph SSE3.5 kmh SSE 2.7 mph4.3 kmh 30.43 in1030.5 mb 0.00 in0.0 mm 0.00 in0.0 mm 0.00 in0.0 mm
02:52 AM 14.0°F-10.0°C 1.2°F-17.1°C 56% 1.7 mph SE2.7 kmh SE 2.7 mph4.3 kmh 30.43 in1030.5 mb 0.00 in0.0 mm 0.00 in0.0 mm 0.00 in0.0 mm
02:53 AM 13.8°F-10.1°C 1.0°F-17.2°C 56% 1.7 mph SE2.7 kmh SE 2.7 mph4.3 kmh 30.41 in1029.8 mb 0.00 in0.0 mm 0.00 in0.0 mm 0.00 in0.0 mm
02:54 AM 14.0°F-10.0°C 1.2°F-17.1°C 56% 2.2 mph SSE3.5 kmh SSE 2.7 mph4.3 kmh 30.41 in1029.8 mb 0.00 in0.0 mm 0.00 in0.0 mm 0.00 in0.0 mm
02:55 AM 14.0°F-10.0°C 1.2°F-17.1°C 56% 1.1 mph S1.8 kmh S 2.7 mph4.3 kmh 30.41 in1029.8 mb 0.00 in0.0 mm 0.00 in0.0 mm 0.00 in0.0 mm
02:56 AM 13.8°F-10.1°C 1.4°F-17.0°C 57% 1.7 mph SSE2.7 kmh SSE 2.7 mph4.3 kmh 30.41 in1029.8 mb 0.00 in0.0 mm 0.00 in0.0 mm 0.00 in0.0 mm
02:57 AM 13.8°F-10.1°C 1.4°F-17.0°C 57% Calm Calm 2.7 mph4.3 kmh 30.41 in1029.8 mb 0.00 in0.0 mm 0.00 in0.0 mm 0.00 in0.0 mm
02:58 AM 13.8°F-10.1°C 1.4°F-17.0°C 57% Calm Calm 2.7 mph4.3 kmh 30.41 in1029.8 mb 0.00 in0.0 mm 0.00 in0.0 mm 0.00 in0.0 mm
02:59 AM 13.6°F-10.2°C 1.2°F-17.1°C 57% 1.1 mph SE1.8 kmh SE 2.7 mph4.3 kmh 30.41 in1029.8 mb 0.00 in0.0 mm 0.00 in0.0 mm 0.00 in0.0 mm
03:00 AM 13.6°F-10.2°C 1.2°F-17.1°C 57% 1.7 mph SSE2.7 kmh SSE 2.7 mph4.3 kmh 30.41 in1029.8 mb 0.00 in0.0 mm 0.00 in0.0 mm 0.00 in0.0 mm
03:01 AM 13.6°F-10.2°C 1.6°F-16.9°C 58% 3.2 mph SE5.1 kmh SE 3.2 mph5.1 kmh 30.41 in1029.8 mb 0.00 in0.0 mm 0.00 in0.0 mm 0.00 in0.0 mm
03:02 AM 13.8°F-10.1°C 1.4°F-17.0°C 57% 1.7 mph SSE2.7 kmh SSE 3.2 mph5.1 kmh 30.41 in1029.8 mb 0.00 in0.0 mm 0.00 in0.0 mm 0.00 in0.0 mm
03:03 AM 14.2°F-9.9°C 1.8°F-16.8°C 57% Calm Calm 3.2 mph5.1 kmh 30.41 in1029.8 mb 0.00 in0.0 mm 0.00 in0.0 mm 0.00 in0.0 mm
03:04 AM 13.8°F-10.1°C 1.4°F-17.0°C 57% Calm Calm 3.2 mph5.1 kmh 30.41 in1029.8 mb 0.00 in0.0 mm 0.00 in0.0 mm 0.00 in0.0 mm
03:05 AM 13.6°F-10.2°C 1.2°F-17.1°C 57% 1.1 mph E1.8 kmh E 3.2 mph5.1 kmh 30.41 in1029.8 mb 0.00 in0.0 mm 0.00 in0.0 mm 0.00 in0.0 mm
03:06 AM 13.5°F-10.3°C 1.1°F-17.2°C 57% 1.7 mph SSE2.7 kmh SSE 3.2 mph5.1 kmh 30.41 in1029.8 mb 0.00 in0.0 mm 0.00 in0.0 mm 0.00 in0.0 mm
03:07 AM 13.5°F-10.3°C 1.5°F-16.9°C 58% 1.1 mph SE1.8 kmh SE 3.2 mph5.1 kmh 30.41 in1029.8 mb 0.00 in0.0 mm 0.00 in0.0 mm 0.00 in0.0 mm
03:08 AM 13.5°F-10.3°C 1.5°F-16.9°C 58% 1.7 mph S2.7 kmh S 3.2 mph5.1 kmh 30.41 in1029.8 mb 0.00 in0.0 mm 0.00 in0.0 mm 0.00 in0.0 mm
03:09 AM 13.5°F-10.3°C 1.5°F-16.9°C 58% Calm Calm 3.2 mph5.1 kmh 30.41 in1029.8 mb 0.00 in0.0 mm 0.00 in0.0 mm 0.00 in0.0 mm
03:10 AM 13.3°F-10.4°C 1.3°F-17.1°C 58% 1.1 mph ESE1.8 kmh ESE 3.2 mph5.1 kmh 30.41 in1029.8 mb 0.00 in0.0 mm 0.00 in0.0 mm 0.00 in0.0 mm
03:11 AM 13.3°F-10.4°C 1.3°F-17.1°C 58% Calm Calm 3.2 mph5.1 kmh 30.41 in1029.8 mb 0.00 in0.0 mm 0.00 in0.0 mm 0.00 in0.0 mm
03:12 AM 13.3°F-10.4°C 1.3°F-17.1°C 58% 1.7 mph SSE2.7 kmh SSE 2.7 mph4.3 kmh 30.41 in1029.8 mb 0.00 in0.0 mm 0.00 in0.0 mm 0.00 in0.0 mm
03:13 AM 13.3°F-10.4°C 1.7°F-16.8°C 59% Calm Calm 1.7 mph2.7 kmh 30.41 in1029.8 mb 0.00 in0.0 mm 0.00 in0.0 mm 0.00 in0.0 mm
03:14 AM 13.1°F-10.5°C 1.5°F-16.9°C 59% 1.1 mph ESE1.8 kmh ESE 1.7 mph2.7 kmh 30.41 in1029.8 mb 0.00 in0.0 mm 0.00 in0.0 mm 0.00 in0.0 mm
03:15 AM 13.1°F-10.5°C 1.5°F-16.9°C 59% 1.1 mph E1.8 kmh E 1.7 mph2.7 kmh 30.41 in1029.8 mb 0.00 in0.0 mm 0.00 in0.0 mm 0.00 in0.0 mm
03:16 AM 13.1°F-10.5°C 1.5°F-16.9°C 59% 1.7 mph S2.7 kmh S 2.7 mph4.3 kmh 30.41 in1029.8 mb 0.00 in0.0 mm 0.00 in0.0 mm 0.00 in0.0 mm
03:17 AM 13.3°F-10.4°C 1.7°F-16.8°C 59% 1.1 mph ESE1.8 kmh ESE 2.7 mph4.3 kmh 30.42 in1030.1 mb 0.00 in0.0 mm 0.00 in0.0 mm 0.00 in0.0 mm
03:18 AM 13.1°F-10.5°C 1.1°F-17.2°C 58% 2.2 mph SSE3.5 kmh SSE 2.7 mph4.3 kmh 30.42 in1030.1 mb 0.00 in0.0 mm 0.00 in0.0 mm 0.00 in0.0 mm
03:19 AM 13.1°F-10.5°C 1.1°F-17.2°C 58% 1.7 mph S2.7 kmh S 2.7 mph4.3 kmh 30.42 in1030.1 mb 0.00 in0.0 mm 0.00 in0.0 mm 0.00 in0.0 mm
03:20 AM 13.1°F-10.5°C 1.1°F-17.2°C 58% 1.1 mph S1.8 kmh S 2.7 mph4.3 kmh 30.42 in1030.1 mb 0.00 in0.0 mm 0.00 in0.0 mm 0.00 in0.0 mm
03:21 AM 13.3°F-10.4°C 1.3°F-17.1°C 58% 2.2 mph SSE3.5 kmh SSE 2.7 mph4.3 kmh 30.42 in1030.1 mb 0.00 in0.0 mm 0.00 in0.0 mm 0.00 in0.0 mm
03:22 AM 13.5°F-10.3°C 1.5°F-16.9°C 58% Calm Calm 2.7 mph4.3 kmh 30.42 in1030.1 mb 0.00 in0.0 mm 0.00 in0.0 mm 0.00 in0.0 mm
03:23 AM 13.3°F-10.4°C 1.3°F-17.1°C 58% 1.1 mph E1.8 kmh E 2.7 mph4.3 kmh 30.42 in1030.1 mb 0.00 in0.0 mm 0.00 in0.0 mm 0.00 in0.0 mm
03:24 AM 13.1°F-10.5°C 1.1°F-17.2°C 58% 1.7 mph NW2.7 kmh NW 2.7 mph4.3 kmh 30.42 in1030.1 mb 0.00 in0.0 mm 0.00 in0.0 mm 0.00 in0.0 mm
03:25 AM 13.1°F-10.5°C 1.1°F-17.2°C 58% 1.1 mph SE1.8 kmh SE 2.7 mph4.3 kmh 30.42 in1030.1 mb 0.00 in0.0 mm 0.00 in0.0 mm 0.00 in0.0 mm
03:26 AM 13.1°F-10.5°C 1.1°F-17.2°C 58% 1.7 mph ESE2.7 kmh ESE 2.2 mph3.5 kmh 30.42 in1030.1 mb 0.00 in0.0 mm 0.00 in0.0 mm 0.00 in0.0 mm
03:27 AM 12.9°F-10.6°C 0.9°F-17.3°C 58% 1.1 mph SSE1.8 kmh SSE 2.2 mph3.5 kmh 30.42 in1030.1 mb 0.00 in0.0 mm 0.00 in0.0 mm 0.00 in0.0 mm
03:28 AM 12.9°F-10.6°C 0.9°F-17.3°C 58% 1.1 mph ESE1.8 kmh ESE 2.2 mph3.5 kmh 30.42 in1030.1 mb 0.00 in0.0 mm 0.00 in0.0 mm 0.00 in0.0 mm
03:29 AM 12.9°F-10.6°C 0.9°F-17.3°C 58% 1.1 mph ESE1.8 kmh ESE 2.2 mph3.5 kmh 30.41 in1029.8 mb 0.00 in0.0 mm 0.00 in0.0 mm 0.00 in0.0 mm
03:30 AM 12.9°F-10.6°C 0.9°F-17.3°C 58% Calm Calm 2.2 mph3.5 kmh 30.41 in1029.8 mb 0.00 in0.0 mm 0.00 in0.0 mm 0.00 in0.0 mm
03:31 AM 12.9°F-10.6°C 0.9°F-17.3°C 58% 1.7 mph ESE2.7 kmh ESE 2.2 mph3.5 kmh 30.41 in1029.8 mb 0.00 in0.0 mm 0.00 in0.0 mm 0.00 in0.0 mm
03:32 AM 12.9°F-10.6°C 0.9°F-17.3°C 58% Calm Calm 1.7 mph2.7 kmh 30.41 in1029.8 mb 0.00 in0.0 mm 0.00 in0.0 mm 0.00 in0.0 mm
03:33 AM 12.7°F-10.7°C 0.8°F-17.3°C 58% 1.7 mph WNW2.7 kmh WNW 1.7 mph2.7 kmh 30.41 in1029.8 mb 0.00 in0.0 mm 0.00 in0.0 mm 0.00 in0.0 mm
03:34 AM 12.9°F-10.6°C 0.9°F-17.3°C 58% 1.1 mph W1.8 kmh W 1.7 mph2.7 kmh 30.41 in1029.8 mb 0.00 in0.0 mm 0.00 in0.0 mm 0.00 in0.0 mm
03:35 AM 12.9°F-10.6°C 0.9°F-17.3°C 58% Calm Calm 1.7 mph2.7 kmh 30.41 in1029.8 mb 0.00 in0.0 mm 0.00 in0.0 mm 0.00 in0.0 mm
03:36 AM 13.1°F-10.5°C 1.1°F-17.2°C 58% 3.2 mph SSE5.1 kmh SSE 3.2 mph5.1 kmh 30.41 in1029.8 mb 0.00 in0.0 mm 0.00 in0.0 mm 0.00 in0.0 mm
03:37 AM 13.3°F-10.4°C 1.3°F-17.1°C 58% Calm Calm 3.2 mph5.1 kmh 30.41 in1029.8 mb 0.00 in0.0 mm 0.00 in0.0 mm 0.00 in0.0 mm
03:38 AM 13.1°F-10.5°C 1.1°F-17.2°C 58% Calm Calm 3.2 mph5.1 kmh 30.41 in1029.8 mb 0.00 in0.0 mm 0.00 in0.0 mm 0.00 in0.0 mm
03:39 AM 12.9°F-10.6°C 0.9°F-17.3°C 58% 1.7 mph W2.7 kmh W 3.2 mph5.1 kmh 30.41 in1029.8 mb 0.00 in0.0 mm 0.00 in0.0 mm 0.00 in0.0 mm
03:40 AM 12.9°F-10.6°C 0.9°F-17.3°C 58% 2.7 mph ESE4.3 kmh ESE 3.2 mph5.1 kmh 30.41 in1029.8 mb 0.00 in0.0 mm 0.00 in0.0 mm 0.00 in0.0 mm
03:41 AM 12.9°F-10.6°C 0.9°F-17.3°C 58% 1.1 mph W1.8 kmh W 3.2 mph5.1 kmh 30.41 in1029.8 mb 0.00 in0.0 mm 0.00 in0.0 mm 0.00 in0.0 mm
03:42 AM 13.1°F-10.5°C 1.1°F-17.2°C 58% 1.1 mph SW1.8 kmh SW 3.2 mph5.1 kmh 30.41 in1029.8 mb 0.00 in0.0 mm 0.00 in0.0 mm 0.00 in0.0 mm
03:43 AM 13.1°F-10.5°C 1.1°F-17.2°C 58% 1.1 mph NE1.8 kmh NE 3.2 mph5.1 kmh 30.41 in1029.8 mb 0.00 in0.0 mm 0.00 in0.0 mm 0.00 in0.0 mm
03:44 AM 13.3°F-10.4°C 1.3°F-17.1°C 58% 1.7 mph NE2.7 kmh NE 3.2 mph5.1 kmh 30.41 in1029.8 mb 0.00 in0.0 mm 0.00 in0.0 mm 0.00 in0.0 mm
03:45 AM 13.3°F-10.4°C 1.3°F-17.1°C 58% 1.7 mph NNE2.7 kmh NNE 3.2 mph5.1 kmh 30.41 in1029.8 mb 0.00 in0.0 mm 0.00 in0.0 mm 0.00 in0.0 mm
03:46 AM 13.3°F-10.4°C 1.3°F-17.1°C 58% 1.7 mph S2.7 kmh S 4.2 mph6.8 kmh 30.41 in1029.8 mb 0.00 in0.0 mm 0.00 in0.0 mm 0.00 in0.0 mm
03:47 AM 13.8°F-10.1°C 1.4°F-17.0°C 57% 2.2 mph SSW3.5 kmh SSW 5.3 mph8.5 kmh 30.41 in1029.8 mb 0.00 in0.0 mm 0.00 in0.0 mm 0.00 in0.0 mm
03:48 AM 14.0°F-10.0°C 1.6°F-16.9°C 57% 1.7 mph W2.7 kmh W 5.3 mph8.5 kmh 30.41 in1029.8 mb 0.00 in0.0 mm 0.00 in0.0 mm 0.00 in0.0 mm
03:49 AM 14.2°F-9.9°C 1.8°F-16.8°C 57% 2.7 mph SE4.3 kmh SE 5.3 mph8.5 kmh 30.41 in1029.8 mb 0.00 in0.0 mm 0.00 in0.0 mm 0.00 in0.0 mm
03:50 AM 14.2°F-9.9°C 1.8°F-16.8°C 57% 1.1 mph SE1.8 kmh SE 5.3 mph8.5 kmh 30.41 in1029.8 mb 0.00 in0.0 mm 0.00 in0.0 mm 0.00 in0.0 mm
03:51 AM 14.2°F-9.9°C 1.8°F-16.8°C 57% 2.2 mph SE3.5 kmh SE 5.3 mph8.5 kmh 30.41 in1029.8 mb 0.00 in0.0 mm 0.00 in0.0 mm 0.00 in0.0 mm
03:52 AM 14.0°F-10.0°C 1.6°F-16.9°C 57% 1.7 mph S2.7 kmh S 5.3 mph8.5 kmh 30.41 in1029.8 mb 0.00 in0.0 mm 0.00 in0.0 mm 0.00 in0.0 mm
03:53 AM 14.0°F-10.0°C 1.6°F-16.9°C 57% 1.1 mph SSW1.8 kmh SSW 5.3 mph8.5 kmh 30.41 in1029.8 mb 0.00 in0.0 mm 0.00 in0.0 mm 0.00 in0.0 mm
03:54 AM 14.0°F-10.0°C 1.6°F-16.9°C 57% 2.2 mph SSE3.5 kmh SSE 5.3 mph8.5 kmh 30.41 in1029.8 mb 0.00 in0.0 mm 0.00 in0.0 mm 0.00 in0.0 mm
03:55 AM 14.0°F-10.0°C 1.6°F-16.9°C 57% 1.7 mph ESE2.7 kmh ESE 5.3 mph8.5 kmh 30.41 in1029.8 mb 0.00 in0.0 mm 0.00 in0.0 mm 0.00 in0.0 mm
03:56 AM 14.0°F-10.0°C 1.6°F-16.9°C 57% 1.7 mph SSE2.7 kmh SSE 5.3 mph8.5 kmh 30.41 in1029.8 mb 0.00 in0.0 mm 0.00 in0.0 mm 0.00 in0.0 mm
03:57 AM 14.0°F-10.0°C 1.6°F-16.9°C 57% 1.7 mph S2.7 kmh S 5.3 mph8.5 kmh 30.41 in1029.8 mb 0.00 in0.0 mm 0.00 in0.0 mm 0.00 in0.0 mm
03:58 AM 14.0°F-10.0°C 1.6°F-16.9°C 57% 2.7 mph ESE4.3 kmh ESE 5.3 mph8.5 kmh 30.41 in1029.8 mb 0.00 in0.0 mm 0.00 in0.0 mm 0.00 in0.0 mm
03:59 AM 14.0°F-10.0°C 1.6°F-16.9°C 57% 1.1 mph ESE1.8 kmh ESE 3.2 mph5.1 kmh 30.41 in1029.8 mb 0.00 in0.0 mm 0.00 in0.0 mm 0.00 in0.0 mm
04:00 AM 14.0°F-10.0°C 1.6°F-16.9°C 57% 2.2 mph S3.5 kmh S 3.2 mph5.1 kmh 30.41 in1029.8 mb 0.00 in0.0 mm 0.00 in0.0 mm 0.00 in0.0 mm
04:01 AM 14.0°F-10.0°C 1.6°F-16.9°C 57% 1.7 mph NW2.7 kmh NW 3.2 mph5.1 kmh 30.41 in1029.8 mb 0.00 in0.0 mm 0.00 in0.0 mm 0.00 in0.0 mm
04:02 AM 14.2°F-9.9°C 1.8°F-16.8°C 57% 2.7 mph ESE4.3 kmh ESE 3.2 mph5.1 kmh 30.41 in1029.8 mb 0.00 in0.0 mm 0.00 in0.0 mm 0.00 in0.0 mm
04:03 AM 14.2°F-9.9°C 1.8°F-16.8°C 57% 2.7 mph SE4.3 kmh SE 3.2 mph5.1 kmh 30.41 in1029.8 mb 0.00 in0.0 mm 0.00 in0.0 mm 0.00 in0.0 mm
04:04 AM 14.4°F-9.8°C 2.0°F-16.7°C 57% 3.2 mph SSW5.1 kmh SSW 3.2 mph5.1 kmh 30.41 in1029.8 mb 0.00 in0.0 mm 0.00 in0.0 mm 0.00 in0.0 mm
04:05 AM 14.2°F-9.9°C 1.8°F-16.8°C 57% 2.2 mph SSE3.5 kmh SSE 3.2 mph5.1 kmh 30.40 in1029.5 mb 0.00 in0.0 mm 0.00 in0.0 mm 0.00 in0.0 mm
04:06 AM 14.2°F-9.9°C 1.8°F-16.8°C 57% 1.1 mph W1.8 kmh W 3.2 mph5.1 kmh 30.40 in1029.5 mb 0.00 in0.0 mm 0.00 in0.0 mm 0.00 in0.0 mm
04:07 AM 14.2°F-9.9°C 1.8°F-16.8°C 57% 2.2 mph ESE3.5 kmh ESE 3.2 mph5.1 kmh 30.40 in1029.5 mb 0.00 in0.0 mm 0.00 in0.0 mm 0.00 in0.0 mm
04:08 AM 14.2°F-9.9°C 1.8°F-16.8°C 57% 1.7 mph SSW2.7 kmh SSW 3.2 mph5.1 kmh 30.40 in1029.5 mb 0.00 in0.0 mm 0.00 in0.0 mm 0.00 in0.0 mm
04:09 AM 14.2°F-9.9°C 1.8°F-16.8°C 57% 2.2 mph SE3.5 kmh SE 3.2 mph5.1 kmh 30.40 in1029.5 mb 0.00 in0.0 mm 0.00 in0.0 mm 0.00 in0.0 mm
04:10 AM 14.2°F-9.9°C 1.8°F-16.8°C 57% 4.2 mph SSE6.8 kmh SSE 4.2 mph6.8 kmh 30.40 in1029.5 mb 0.00 in0.0 mm 0.00 in0.0 mm 0.00 in0.0 mm
04:11 AM 14.4°F-9.8°C 2.0°F-16.7°C 57% 1.7 mph E2.7 kmh E 4.2 mph6.8 kmh 30.40 in1029.5 mb 0.00 in0.0 mm 0.00 in0.0 mm 0.00 in0.0 mm
04:12 AM 14.2°F-9.9°C 1.8°F-16.8°C 57% Calm Calm 4.2 mph6.8 kmh 30.40 in1029.5 mb 0.00 in0.0 mm 0.00 in0.0 mm 0.00 in0.0 mm
04:13 AM 14.2°F-9.9°C 1.8°F-16.8°C 57% 2.7 mph W4.3 kmh W 4.2 mph6.8 kmh 30.40 in1029.5 mb 0.00 in0.0 mm 0.00 in0.0 mm 0.00 in0.0 mm
04:14 AM 14.2°F-9.9°C 1.8°F-16.8°C 57% 2.7 mph SE4.3 kmh SE 4.2 mph6.8 kmh 30.40 in1029.5 mb 0.00 in0.0 mm 0.00 in0.0 mm 0.00 in0.0 mm
04:15 AM 14.4°F-9.8°C 2.0°F-16.7°C 57% 1.7 mph S2.7 kmh S 4.2 mph6.8 kmh 30.40 in1029.5 mb 0.00 in0.0 mm 0.00 in0.0 mm 0.00 in0.0 mm
04:16 AM 14.4°F-9.8°C 2.0°F-16.7°C 57% 1.1 mph NW1.8 kmh NW 4.2 mph6.8 kmh 30.40 in1029.5 mb 0.00 in0.0 mm 0.00 in0.0 mm 0.00 in0.0 mm
04:17 AM 14.2°F-9.9°C 1.8°F-16.8°C 57% 1.7 mph ESE2.7 kmh ESE 4.2 mph6.8 kmh 30.39 in1029.1 mb 0.00 in0.0 mm 0.00 in0.0 mm 0.00 in0.0 mm
04:18 AM 14.2°F-9.9°C 1.8°F-16.8°C 57% 1.1 mph WSW1.8 kmh WSW 4.2 mph6.8 kmh 30.39 in1029.1 mb 0.00 in0.0 mm 0.00 in0.0 mm 0.00 in0.0 mm
04:19 AM 14.2°F-9.9°C 1.8°F-16.8°C 57% 1.7 mph ESE2.7 kmh ESE 4.2 mph6.8 kmh 30.39 in1029.1 mb 0.00 in0.0 mm 0.00 in0.0 mm 0.00 in0.0 mm
04:20 AM 14.0°F-10.0°C 1.6°F-16.9°C 57% 2.7 mph E4.3 kmh E 2.7 mph4.3 kmh 30.39 in1029.1 mb 0.00 in0.0 mm 0.00 in0.0 mm 0.00 in0.0 mm
04:21 AM 14.0°F-10.0°C 1.6°F-16.9°C 57% 1.1 mph E1.8 kmh E 2.7 mph4.3 kmh 30.39 in1029.1 mb 0.00 in0.0 mm 0.00 in0.0 mm 0.00 in0.0 mm
04:22 AM 14.0°F-10.0°C 2.0°F-16.7°C 58% 1.1 mph NNE1.8 kmh NNE 2.7 mph4.3 kmh 30.39 in1029.1 mb 0.00 in0.0 mm 0.00 in0.0 mm 0.00 in0.0 mm
04:23 AM 14.0°F-10.0°C 2.0°F-16.7°C 58% 2.2 mph ESE3.5 kmh ESE 2.7 mph4.3 kmh 30.39 in1029.1 mb 0.00 in0.0 mm 0.00 in0.0 mm 0.00 in0.0 mm
04:24 AM 14.2°F-9.9°C 2.2°F-16.6°C 58% 2.2 mph NW3.5 kmh NW 2.7 mph4.3 kmh 30.39 in1029.1 mb 0.00 in0.0 mm 0.00 in0.0 mm 0.00 in0.0 mm
04:25 AM 14.2°F-9.9°C 2.2°F-16.6°C 58% 3.7 mph ESE6.0 kmh ESE 3.7 mph6.0 kmh 30.39 in1029.1 mb 0.00 in0.0 mm 0.00 in0.0 mm 0.00 in0.0 mm
04:26 AM 14.2°F-9.9°C 1.8°F-16.8°C 57% 1.1 mph SW1.8 kmh SW 3.7 mph6.0 kmh 30.39 in1029.1 mb 0.00 in0.0 mm 0.00 in0.0 mm 0.00 in0.0 mm
04:27 AM 14.2°F-9.9°C 1.8°F-16.8°C 57% 1.1 mph NE1.8 kmh NE 3.7 mph6.0 kmh 30.39 in1029.1 mb 0.00 in0.0 mm 0.00 in0.0 mm 0.00 in0.0 mm
04:28 AM 14.0°F-10.0°C 1.6°F-16.9°C 57% Calm Calm 3.7 mph6.0 kmh 30.39 in1029.1 mb 0.00 in0.0 mm 0.00 in0.0 mm 0.00 in0.0 mm
04:29 AM 14.0°F-10.0°C 1.6°F-16.9°C 57% 1.7 mph WNW2.7 kmh WNW 3.7 mph6.0 kmh 30.39 in1029.1 mb 0.00 in0.0 mm 0.00 in0.0 mm 0.00 in0.0 mm
04:30 AM 14.0°F-10.0°C 1.6°F-16.9°C 57% 1.7 mph ESE2.7 kmh ESE 3.7 mph6.0 kmh 30.39 in1029.1 mb 0.00 in0.0 mm 0.00 in0.0 mm 0.00 in0.0 mm
04:31 AM 14.0°F-10.0°C 1.6°F-16.9°C 57% 1.1 mph SW1.8 kmh SW 3.7 mph6.0 kmh 30.39 in1029.1 mb 0.00 in0.0 mm 0.00 in0.0 mm 0.00 in0.0 mm
04:32 AM 14.0°F-10.0°C 2.0°F-16.7°C 58% 2.2 mph NW3.5 kmh NW 3.7 mph6.0 kmh 30.39 in1029.1 mb 0.00 in0.0 mm 0.00 in0.0 mm 0.00 in0.0 mm
04:33 AM 14.0°F-10.0°C 2.0°F-16.7°C 58% 1.1 mph ESE1.8 kmh ESE 3.7 mph6.0 kmh 30.39 in1029.1 mb 0.00 in0.0 mm 0.00 in0.0 mm 0.00 in0.0 mm
04:34 AM 14.0°F-10.0°C 2.0°F-16.7°C 58% 2.2 mph NNE3.5 kmh NNE 3.7 mph6.0 kmh 30.39 in1029.1 mb 0.00 in0.0 mm 0.00 in0.0 mm 0.00 in0.0 mm
04:35 AM 14.0°F-10.0°C 2.0°F-16.7°C 58% 1.1 mph W1.8 kmh W 3.7 mph6.0 kmh 30.39 in1029.1 mb 0.00 in0.0 mm 0.00 in0.0 mm 0.00 in0.0 mm
04:36 AM 14.0°F-10.0°C 2.0°F-16.7°C 58% 2.2 mph N3.5 kmh N 2.7 mph4.3 kmh 30.39 in1029.1 mb 0.00 in0.0 mm 0.00 in0.0 mm 0.00 in0.0 mm
04:37 AM 14.0°F-10.0°C 2.0°F-16.7°C 58% 1.1 mph NNW1.8 kmh NNW 2.7 mph4.3 kmh 30.39 in1029.1 mb 0.00 in0.0 mm 0.00 in0.0 mm 0.00 in0.0 mm
04:38 AM 14.0°F-10.0°C 2.0°F-16.7°C 58% 2.2 mph ESE3.5 kmh ESE 2.7 mph4.3 kmh 30.39 in1029.1 mb 0.00 in0.0 mm 0.00 in0.0 mm 0.00 in0.0 mm
04:39 AM 14.2°F-9.9°C 2.2°F-16.6°C 58% 1.7 mph SSE2.7 kmh SSE 3.2 mph5.1 kmh 30.39 in1029.1 mb 0.00 in0.0 mm 0.00 in0.0 mm 0.00 in0.0 mm
04:40 AM 14.2°F-9.9°C 2.2°F-16.6°C 58% 1.7 mph WNW2.7 kmh WNW 3.2 mph5.1 kmh 30.39 in1029.1 mb 0.00 in0.0 mm 0.00 in0.0 mm 0.00 in0.0 mm
04:41 AM 14.2°F-9.9°C 2.2°F-16.6°C 58% 1.1 mph NE1.8 kmh NE 3.2 mph5.1 kmh 30.38 in1028.8 mb 0.00 in0.0 mm 0.00 in0.0 mm 0.00 in0.0 mm
04:42 AM 14.2°F-9.9°C 2.2°F-16.6°C 58% Calm Calm 3.2 mph5.1 kmh 30.38 in1028.8 mb 0.00 in0.0 mm 0.00 in0.0 mm 0.00 in0.0 mm
04:43 AM 14.2°F-9.9°C 2.2°F-16.6°C 58% Calm Calm 3.2 mph5.1 kmh 30.38 in1028.8 mb 0.00 in0.0 mm 0.00 in0.0 mm 0.00 in0.0 mm
04:44 AM 14.0°F-10.0°C 2.0°F-16.7°C 58% 1.1 mph NE1.8 kmh NE 3.2 mph5.1 kmh 30.38 in1028.8 mb 0.00 in0.0 mm 0.00 in0.0 mm 0.00 in0.0 mm
04:45 AM 14.0°F-10.0°C 2.0°F-16.7°C 58% 1.1 mph S1.8 kmh S 3.2 mph5.1 kmh 30.38 in1028.8 mb 0.00 in0.0 mm 0.00 in0.0 mm 0.00 in0.0 mm
04:46 AM 14.0°F-10.0°C 2.0°F-16.7°C 58% 2.2 mph WSW3.5 kmh WSW 3.2 mph5.1 kmh 30.38 in1028.8 mb 0.00 in0.0 mm 0.00 in0.0 mm 0.00 in0.0 mm
04:47 AM 14.2°F-9.9°C 2.2°F-16.6°C 58% 1.7 mph W2.7 kmh W 3.2 mph5.1 kmh 30.38 in1028.8 mb 0.00 in0.0 mm 0.00 in0.0 mm 0.00 in0.0 mm
04:48 AM 14.2°F-9.9°C 2.2°F-16.6°C 58% 1.7 mph W2.7 kmh W 3.2 mph5.1 kmh 30.38 in1028.8 mb 0.00 in0.0 mm 0.00 in0.0 mm 0.00 in0.0 mm
04:49 AM 14.2°F-9.9°C 2.2°F-16.6°C 58% 1.7 mph W2.7 kmh W 2.7 mph4.3 kmh 30.38 in1028.8 mb 0.00 in0.0 mm 0.00 in0.0 mm 0.00 in0.0 mm
04:50 AM 14.2°F-9.9°C 2.2°F-16.6°C 58% 2.2 mph WNW3.5 kmh WNW 2.7 mph4.3 kmh 30.38 in1028.8 mb 0.00 in0.0 mm 0.00 in0.0 mm 0.00 in0.0 mm
04:51 AM 14.2°F-9.9°C 2.2°F-16.6°C 58% 1.1 mph WSW1.8 kmh WSW 2.7 mph4.3 kmh 30.38 in1028.8 mb 0.00 in0.0 mm 0.00 in0.0 mm 0.00 in0.0 mm
04:52 AM 14.2°F-9.9°C 2.2°F-16.6°C 58% 2.2 mph W3.5 kmh W 2.7 mph4.3 kmh 30.38 in1028.8 mb 0.00 in0.0 mm 0.00 in0.0 mm 0.00 in0.0 mm
04:53 AM 14.4°F-9.8°C 2.4°F-16.4°C 58% 2.7 mph W4.3 kmh W 2.7 mph4.3 kmh 30.38 in1028.8 mb 0.00 in0.0 mm 0.00 in0.0 mm 0.00 in0.0 mm
04:54 AM 14.4°F-9.8°C 2.0°F-16.7°C 57% 1.1 mph SSW1.8 kmh SSW 3.7 mph6.0 kmh 30.38 in1028.8 mb 0.00 in0.0 mm 0.00 in0.0 mm 0.00 in0.0 mm
04:55 AM 14.4°F-9.8°C 2.0°F-16.7°C 57% 1.1 mph ESE1.8 kmh ESE 3.7 mph6.0 kmh 30.38 in1028.8 mb 0.00 in0.0 mm 0.00 in0.0 mm 0.00 in0.0 mm
04:56 AM 14.4°F-9.8°C 2.0°F-16.7°C 57% 1.7 mph ESE2.7 kmh ESE 3.7 mph6.0 kmh 30.38 in1028.8 mb 0.00 in0.0 mm 0.00 in0.0 mm 0.00 in0.0 mm
04:57 AM 14.5°F-9.7°C 2.1°F-16.6°C 57% 1.1 mph SSE1.8 kmh SSE 3.7 mph6.0 kmh 30.38 in1028.8 mb 0.00 in0.0 mm 0.00 in0.0 mm 0.00 in0.0 mm
04:58 AM 14.5°F-9.7°C 2.1°F-16.6°C 57% Calm Calm 3.7 mph6.0 kmh 30.38 in1028.8 mb 0.00 in0.0 mm 0.00 in0.0 mm 0.00 in0.0 mm
04:59 AM 14.4°F-9.8°C 2.0°F-16.7°C 57% Calm Calm 3.7 mph6.0 kmh 30.38 in1028.8 mb 0.00 in0.0 mm 0.00 in0.0 mm 0.00 in0.0 mm
05:00 AM 14.4°F-9.8°C 2.0°F-16.7°C 57% 1.7 mph NNE2.7 kmh NNE 3.7 mph6.0 kmh 30.38 in1028.8 mb 0.00 in0.0 mm 0.00 in0.0 mm 0.00 in0.0 mm
05:01 AM 14.4°F-9.8°C 2.0°F-16.7°C 57% 2.2 mph SE3.5 kmh SE 3.7 mph6.0 kmh 30.38 in1028.8 mb 0.00 in0.0 mm 0.00 in0.0 mm 0.00 in0.0 mm
05:02 AM 14.4°F-9.8°C 2.0°F-16.7°C 57% 1.1 mph SW1.8 kmh SW 3.7 mph6.0 kmh 30.38 in1028.8 mb 0.00 in0.0 mm 0.00 in0.0 mm 0.00 in0.0 mm
05:03 AM 14.4°F-9.8°C 2.4°F-16.4°C 58% 1.7 mph SE2.7 kmh SE 3.7 mph6.0 kmh 30.38 in1028.8 mb 0.00 in0.0 mm 0.00 in0.0 mm 0.00 in0.0 mm
05:04 AM 14.4°F-9.8°C 2.4°F-16.4°C 58% Calm Calm 2.7 mph4.3 kmh 30.38 in1028.8 mb 0.00 in0.0 mm 0.00 in0.0 mm 0.00 in0.0 mm
05:05 AM 14.5°F-9.7°C 2.1°F-16.6°C 57% 2.2 mph S3.5 kmh S 2.7 mph4.3 kmh 30.38 in1028.8 mb 0.00 in0.0 mm 0.00 in0.0 mm 0.00 in0.0 mm
05:06 AM 14.7°F-9.6°C 2.3°F-16.5°C 57% 1.1 mph S1.8 kmh S 2.7 mph4.3 kmh 30.38 in1028.8 mb 0.00 in0.0 mm 0.00 in0.0 mm 0.00 in0.0 mm
05:07 AM 14.5°F-9.7°C 2.1°F-16.6°C 57% 2.2 mph SW3.5 kmh SW 2.7 mph4.3 kmh 30.38 in1028.8 mb 0.00 in0.0 mm 0.00 in0.0 mm 0.00 in0.0 mm
05:08 AM 14.5°F-9.7°C 2.1°F-16.6°C 57% 1.1 mph SE1.8 kmh SE 2.7 mph4.3 kmh 30.38 in1028.8 mb 0.00 in0.0 mm 0.00 in0.0 mm 0.00 in0.0 mm
05:09 AM 14.5°F-9.7°C 2.1°F-16.6°C 57% 1.1 mph E1.8 kmh E 2.7 mph4.3 kmh 30.38 in1028.8 mb 0.00 in0.0 mm 0.00 in0.0 mm 0.00 in0.0 mm
05:10 AM 14.5°F-9.7°C 2.1°F-16.6°C 57% 2.7 mph SSE4.3 kmh SSE 4.2 mph6.8 kmh 30.38 in1028.8 mb 0.00 in0.0 mm 0.00 in0.0 mm 0.00 in0.0 mm
05:11 AM 14.7°F-9.6°C 2.3°F-16.5°C 57% Calm Calm 4.2 mph6.8 kmh 30.38 in1028.8 mb 0.00 in0.0 mm 0.00 in0.0 mm 0.00 in0.0 mm
05:12 AM 14.5°F-9.7°C 2.1°F-16.6°C 57% 1.7 mph N2.7 kmh N 4.2 mph6.8 kmh 30.38 in1028.8 mb 0.00 in0.0 mm 0.00 in0.0 mm 0.00 in0.0 mm
05:13 AM 14.4°F-9.8°C 2.4°F-16.4°C 58% 1.1 mph W1.8 kmh W 4.2 mph6.8 kmh 30.38 in1028.8 mb 0.00 in0.0 mm 0.00 in0.0 mm 0.00 in0.0 mm
05:14 AM 14.4°F-9.8°C 2.4°F-16.4°C 58% 2.7 mph WNW4.3 kmh WNW 4.2 mph6.8 kmh 30.38 in1028.8 mb 0.00 in0.0 mm 0.00 in0.0 mm 0.00 in0.0 mm
05:15 AM 14.5°F-9.7°C 2.5°F-16.4°C 58% 1.1 mph WSW1.8 kmh WSW 4.2 mph6.8 kmh 30.38 in1028.8 mb 0.00 in0.0 mm 0.00 in0.0 mm 0.00 in0.0 mm
05:16 AM 14.5°F-9.7°C 2.5°F-16.4°C 58% 2.7 mph N4.3 kmh N 4.2 mph6.8 kmh 30.38 in1028.8 mb 0.00 in0.0 mm 0.00 in0.0 mm 0.00 in0.0 mm
05:17 AM 14.5°F-9.7°C 2.5°F-16.4°C 58% 2.2 mph NW3.5 kmh NW 4.2 mph6.8 kmh 30.37 in1028.4 mb 0.00 in0.0 mm 0.00 in0.0 mm 0.00 in0.0 mm
05:18 AM 14.5°F-9.7°C 2.5°F-16.4°C 58% 1.1 mph NW1.8 kmh NW 4.2 mph6.8 kmh 30.37 in1028.4 mb 0.00 in0.0 mm 0.00 in0.0 mm 0.00 in0.0 mm
05:19 AM 14.5°F-9.7°C 2.5°F-16.4°C 58% 1.7 mph NW2.7 kmh NW 4.2 mph6.8 kmh 30.37 in1028.4 mb 0.00 in0.0 mm 0.00 in0.0 mm 0.00 in0.0 mm
05:20 AM 14.5°F-9.7°C 2.5°F-16.4°C 58% 1.7 mph N2.7 kmh N 2.7 mph4.3 kmh 30.37 in1028.4 mb 0.00 in0.0 mm 0.00 in0.0 mm 0.00 in0.0 mm
05:21 AM 14.5°F-9.7°C 2.5°F-16.4°C 58% 1.1 mph NNE1.8 kmh NNE 2.7 mph4.3 kmh 30.37 in1028.4 mb 0.00 in0.0 mm 0.00 in0.0 mm 0.00 in0.0 mm
05:22 AM 14.5°F-9.7°C 2.5°F-16.4°C 58% 1.7 mph NNE2.7 kmh NNE 2.7 mph4.3 kmh 30.37 in1028.4 mb 0.00 in0.0 mm 0.00 in0.0 mm 0.00 in0.0 mm
05:23 AM 14.5°F-9.7°C 2.5°F-16.4°C 58% 1.1 mph SSE1.8 kmh SSE 3.7 mph6.0 kmh 30.37 in1028.4 mb 0.00 in0.0 mm 0.00 in0.0 mm 0.00 in0.0 mm
05:24 AM 14.5°F-9.7°C 2.5°F-16.4°C 58% 2.7 mph NW4.3 kmh NW 3.7 mph6.0 kmh 30.37 in1028.4 mb 0.00 in0.0 mm 0.00 in0.0 mm 0.00 in0.0 mm
05:25 AM 14.7°F-9.6°C 2.6°F-16.3°C 58% 2.7 mph SE4.3 kmh SE 3.7 mph6.0 kmh 30.37 in1028.4 mb 0.00 in0.0 mm 0.00 in0.0 mm 0.00 in0.0 mm
05:26 AM 14.9°F-9.5°C 2.5°F-16.4°C 57% 2.2 mph W3.5 kmh W 3.7 mph6.0 kmh 30.37 in1028.4 mb 0.00 in0.0 mm 0.00 in0.0 mm 0.00 in0.0 mm
05:27 AM 15.1°F-9.4°C 2.6°F-16.3°C 57% 2.2 mph NNE3.5 kmh NNE 3.7 mph6.0 kmh 30.37 in1028.4 mb 0.00 in0.0 mm 0.00 in0.0 mm 0.00 in0.0 mm
05:28 AM 14.9°F-9.5°C 2.1°F-16.6°C 56% 1.1 mph W1.8 kmh W 3.7 mph6.0 kmh 30.37 in1028.4 mb 0.00 in0.0 mm 0.00 in0.0 mm 0.00 in0.0 mm
05:29 AM 15.1°F-9.4°C 2.3°F-16.5°C 56% 1.7 mph ENE2.7 kmh ENE 3.7 mph6.0 kmh 30.37 in1028.4 mb 0.00 in0.0 mm 0.00 in0.0 mm 0.00 in0.0 mm
05:30 AM 14.9°F-9.5°C 2.1°F-16.6°C 56% 1.1 mph NNE1.8 kmh NNE 3.7 mph6.0 kmh 30.37 in1028.4 mb 0.00 in0.0 mm 0.00 in0.0 mm 0.00 in0.0 mm
05:31 AM 14.9°F-9.5°C 2.5°F-16.4°C 57% 1.1 mph E1.8 kmh E 3.7 mph6.0 kmh 30.37 in1028.4 mb 0.00 in0.0 mm 0.00 in0.0 mm 0.00 in0.0 mm
05:32 AM 14.9°F-9.5°C 2.5°F-16.4°C 57% 1.1 mph W1.8 kmh W 3.7 mph6.0 kmh 30.37 in1028.4 mb 0.00 in0.0 mm 0.00 in0.0 mm 0.00 in0.0 mm
05:33 AM 14.9°F-9.5°C 2.5°F-16.4°C 57% Calm Calm 2.7 mph4.3 kmh 30.37 in1028.4 mb 0.00 in0.0 mm 0.00 in0.0 mm 0.00 in0.0 mm
05:34 AM 14.7°F-9.6°C 2.3°F-16.5°C 57% 1.7 mph N2.7 kmh N 2.7 mph4.3 kmh 30.37 in1028.4 mb 0.00 in0.0 mm 0.00 in0.0 mm 0.00 in0.0 mm
05:35 AM 14.7°F-9.6°C 2.3°F-16.5°C 57% 1.7 mph W2.7 kmh W 2.7 mph4.3 kmh 30.37 in1028.4 mb 0.00 in0.0 mm 0.00 in0.0 mm 0.00 in0.0 mm
05:36 AM 14.7°F-9.6°C 2.3°F-16.5°C 57% Calm Calm 2.7 mph4.3 kmh 30.37 in1028.4 mb 0.00 in0.0 mm 0.00 in0.0 mm 0.00 in0.0 mm
05:37 AM 14.7°F-9.6°C 2.3°F-16.5°C 57% Calm Calm 2.2 mph3.5 kmh 30.37 in1028.4 mb 0.00 in0.0 mm 0.00 in0.0 mm 0.00 in0.0 mm
05:38 AM 14.7°F-9.6°C 2.3°F-16.5°C 57% 1.1 mph ENE1.8 kmh ENE 2.2 mph3.5 kmh 30.37 in1028.4 mb 0.00 in0.0 mm 0.00 in0.0 mm 0.00 in0.0 mm
05:39 AM 14.5°F-9.7°C 2.5°F-16.4°C 58% Calm Calm 2.2 mph3.5 kmh 30.37 in1028.4 mb 0.00 in0.0 mm 0.00 in0.0 mm 0.00 in0.0 mm
05:40 AM 14.7°F-9.6°C 2.6°F-16.3°C 58% 1.7 mph W2.7 kmh W 2.2 mph3.5 kmh 30.37 in1028.4 mb 0.00 in0.0 mm 0.00 in0.0 mm 0.00 in0.0 mm
05:41 AM 14.7°F-9.6°C 2.6°F-16.3°C 58% Calm Calm 2.2 mph3.5 kmh 30.37 in1028.4 mb 0.00 in0.0 mm 0.00 in0.0 mm 0.00 in0.0 mm
05:42 AM 14.7°F-9.6°C 2.6°F-16.3°C 58% 1.1 mph ENE1.8 kmh ENE 2.2 mph3.5 kmh 30.37 in1028.4 mb 0.00 in0.0 mm 0.00 in0.0 mm 0.00 in0.0 mm
05:43 AM 14.5°F-9.7°C 2.5°F-16.4°C 58% 2.7 mph S4.3 kmh S 2.7 mph4.3 kmh 30.37 in1028.4 mb 0.00 in0.0 mm 0.00 in0.0 mm 0.00 in0.0 mm
05:44 AM 14.7°F-9.6°C 2.6°F-16.3°C 58% Calm Calm 2.7 mph4.3 kmh 30.37 in1028.4 mb 0.00 in0.0 mm 0.00 in0.0 mm 0.00 in0.0 mm
05:45 AM 14.7°F-9.6°C 2.6°F-16.3°C 58% 2.2 mph ESE3.5 kmh ESE 2.7 mph4.3 kmh 30.37 in1028.4 mb 0.00 in0.0 mm 0.00 in0.0 mm 0.00 in0.0 mm
05:46 AM 14.7°F-9.6°C 2.6°F-16.3°C 58% 1.1 mph SW1.8 kmh SW 2.7 mph4.3 kmh 30.37 in1028.4 mb 0.00 in0.0 mm 0.00 in0.0 mm 0.00 in0.0 mm
05:47 AM 14.7°F-9.6°C 2.6°F-16.3°C 58% 1.1 mph W1.8 kmh W 2.7 mph4.3 kmh 30.37 in1028.4 mb 0.00 in0.0 mm 0.00 in0.0 mm 0.00 in0.0 mm
05:48 AM 14.5°F-9.7°C 2.5°F-16.4°C 58% 1.1 mph NNW1.8 kmh NNW 2.7 mph4.3 kmh 30.37 in1028.4 mb 0.00 in0.0 mm 0.00 in0.0 mm 0.00 in0.0 mm
05:49 AM 14.7°F-9.6°C 2.6°F-16.3°C 58% 2.2 mph W3.5 kmh W 2.7 mph4.3 kmh 30.37 in1028.4 mb 0.00 in0.0 mm 0.00 in0.0 mm 0.00 in0.0 mm
05:51 AM 14.9°F-9.5°C 2.8°F-16.2°C 58% 1.1 mph W1.8 kmh W 2.7 mph4.3 kmh 30.37 in1028.4 mb 0.00 in0.0 mm 0.00 in0.0 mm 0.00 in0.0 mm
05:52 AM 14.9°F-9.5°C 2.8°F-16.2°C 58% 1.1 mph W1.8 kmh W 2.7 mph4.3 kmh 30.37 in1028.4 mb 0.00 in0.0 mm 0.00 in0.0 mm 0.00 in0.0 mm
05:53 AM 14.9°F-9.5°C 2.8°F-16.2°C 58% Calm Calm 2.7 mph4.3 kmh 30.36 in1028.1 mb 0.00 in0.0 mm 0.00 in0.0 mm 0.00 in0.0 mm
05:54 AM 14.7°F-9.6°C 2.6°F-16.3°C 58% Calm Calm 2.7 mph4.3 kmh 30.36 in1028.1 mb 0.00 in0.0 mm 0.00 in0.0 mm 0.00 in0.0 mm
05:55 AM 14.7°F-9.6°C 2.6°F-16.3°C 58% 1.7 mph NW2.7 kmh NW 2.7 mph4.3 kmh 30.36 in1028.1 mb 0.00 in0.0 mm 0.00 in0.0 mm 0.00 in0.0 mm
05:56 AM 14.7°F-9.6°C 2.6°F-16.3°C 58% 1.7 mph W2.7 kmh W 2.7 mph4.3 kmh 30.36 in1028.1 mb 0.00 in0.0 mm 0.00 in0.0 mm 0.00 in0.0 mm
05:57 AM 14.7°F-9.6°C 2.6°F-16.3°C 58% 2.2 mph W3.5 kmh W 2.7 mph4.3 kmh 30.36 in1028.1 mb 0.00 in0.0 mm 0.00 in0.0 mm 0.00 in0.0 mm
05:58 AM 14.9°F-9.5°C 2.8°F-16.2°C 58% 1.7 mph W2.7 kmh W 2.7 mph4.3 kmh 30.36 in1028.1 mb 0.00 in0.0 mm 0.00 in0.0 mm 0.00 in0.0 mm
05:59 AM 14.9°F-9.5°C 2.8°F-16.2°C 58% 1.1 mph SW1.8 kmh SW 2.7 mph4.3 kmh 30.36 in1028.1 mb 0.00 in0.0 mm 0.00 in0.0 mm 0.00 in0.0 mm
06:00 AM 14.9°F-9.5°C 2.8°F-16.2°C 58% 1.1 mph SSW1.8 kmh SSW 2.7 mph4.3 kmh 30.36 in1028.1 mb 0.00 in0.0 mm 0.00 in0.0 mm 0.00 in0.0 mm
06:01 AM 15.1°F-9.4°C 3.0°F-16.1°C 58% Calm Calm 2.7 mph4.3 kmh 30.36 in1028.1 mb 0.00 in0.0 mm 0.00 in0.0 mm 0.00 in0.0 mm
06:02 AM 15.1°F-9.4°C 3.0°F-16.1°C 58% Calm Calm 2.7 mph4.3 kmh 30.36 in1028.1 mb 0.00 in0.0 mm 0.00 in0.0 mm 0.00 in0.0 mm
06:03 AM 14.9°F-9.5°C 2.8°F-16.2°C 58% 1.1 mph SSE1.8 kmh SSE 2.7 mph4.3 kmh 30.36 in1028.1 mb 0.00 in0.0 mm 0.00 in0.0 mm 0.00 in0.0 mm
06:04 AM 14.7°F-9.6°C 2.6°F-16.3°C 58% 1.1 mph NNE1.8 kmh NNE 2.7 mph4.3 kmh 30.36 in1028.1 mb 0.00 in0.0 mm 0.00 in0.0 mm 0.00 in0.0 mm
06:05 AM 14.7°F-9.6°C 2.6°F-16.3°C 58% 1.7 mph S2.7 kmh S 2.7 mph4.3 kmh 30.36 in1028.1 mb 0.00 in0.0 mm 0.00 in0.0 mm 0.00 in0.0 mm
06:06 AM 14.7°F-9.6°C 3.0°F-16.1°C 59% 1.7 mph SSE2.7 kmh SSE 2.2 mph3.5 kmh 30.36 in1028.1 mb 0.00 in0.0 mm 0.00 in0.0 mm 0.00 in0.0 mm
06:07 AM 14.7°F-9.6°C 3.0°F-16.1°C 59% 1.7 mph SSE2.7 kmh SSE 2.2 mph3.5 kmh 30.36 in1028.1 mb 0.00 in0.0 mm 0.00 in0.0 mm 0.00 in0.0 mm
06:08 AM 14.7°F-9.6°C 3.0°F-16.1°C 59% Calm Calm 2.2 mph3.5 kmh 30.36 in1028.1 mb 0.00 in0.0 mm 0.00 in0.0 mm 0.00 in0.0 mm
06:09 AM 14.5°F-9.7°C 2.8°F-16.2°C 59% Calm Calm 2.2 mph3.5 kmh 30.36 in1028.1 mb 0.00 in0.0 mm 0.00 in0.0 mm 0.00 in0.0 mm
06:10 AM 14.5°F-9.7°C 2.8°F-16.2°C 59% Calm Calm 2.2 mph3.5 kmh 30.36 in1028.1 mb 0.00 in0.0 mm 0.00 in0.0 mm 0.00 in0.0 mm
06:11 AM 14.4°F-9.8°C 2.7°F-16.3°C 59% Calm Calm 2.2 mph3.5 kmh 30.36 in1028.1 mb 0.00 in0.0 mm 0.00 in0.0 mm 0.00 in0.0 mm
06:12 AM 14.4°F-9.8°C 2.7°F-16.3°C 59% 1.1 mph ESE1.8 kmh ESE 2.2 mph3.5 kmh 30.36 in1028.1 mb 0.00 in0.0 mm 0.00 in0.0 mm 0.00 in0.0 mm
06:13 AM 14.4°F-9.8°C 3.1°F-16.1°C 60% 1.1 mph S1.8 kmh S 2.2 mph3.5 kmh 30.36 in1028.1 mb 0.00 in0.0 mm 0.00 in0.0 mm 0.00 in0.0 mm
06:14 AM 14.4°F-9.8°C 3.1°F-16.1°C 60% Calm Calm 2.2 mph3.5 kmh 30.36 in1028.1 mb 0.00 in0.0 mm 0.00 in0.0 mm 0.00 in0.0 mm
06:15 AM 14.4°F-9.8°C 3.1°F-16.1°C 60% Calm Calm 2.2 mph3.5 kmh 30.36 in1028.1 mb 0.00 in0.0 mm 0.00 in0.0 mm 0.00 in0.0 mm
06:16 AM 14.2°F-9.9°C 2.9°F-16.2°C 60% Calm Calm 1.7 mph2.7 kmh 30.36 in1028.1 mb 0.00 in0.0 mm 0.00 in0.0 mm 0.00 in0.0 mm
06:17 AM 14.2°F-9.9°C 2.9°F-16.2°C 60% Calm Calm 1.7 mph2.7 kmh 30.36 in1028.1 mb 0.00 in0.0 mm 0.00 in0.0 mm 0.00 in0.0 mm
06:18 AM 14.2°F-9.9°C 2.9°F-16.2°C 60% Calm Calm 1.7 mph2.7 kmh 30.36 in1028.1 mb 0.00 in0.0 mm 0.00 in0.0 mm 0.00 in0.0 mm
06:19 AM 14.2°F-9.9°C 2.9°F-16.2°C 60% Calm Calm 1.7 mph2.7 kmh 30.36 in1028.1 mb 0.00 in0.0 mm 0.00 in0.0 mm 0.00 in0.0 mm
06:20 AM 14.0°F-10.0°C 2.7°F-16.3°C 60% Calm Calm 1.7 mph2.7 kmh 30.36 in1028.1 mb 0.00 in0.0 mm 0.00 in0.0 mm 0.00 in0.0 mm
06:21 AM 14.0°F-10.0°C 2.7°F-16.3°C 60% Calm Calm 1.7 mph2.7 kmh 30.36 in1028.1 mb 0.00 in0.0 mm 0.00 in0.0 mm 0.00 in0.0 mm
06:22 AM 14.0°F-10.0°C 2.7°F-16.3°C 60% Calm Calm 1.7 mph2.7 kmh 30.36 in1028.1 mb 0.00 in0.0 mm 0.00 in0.0 mm 0.00 in0.0 mm
06:23 AM 14.0°F-10.0°C 2.7°F-16.3°C 60% Calm Calm 1.1 mph1.8 kmh 30.36 in1028.1 mb 0.00 in0.0 mm 0.00 in0.0 mm 0.00 in0.0 mm
06:24 AM 14.0°F-10.0°C 2.7°F-16.3°C 60% Calm Calm -- 30.36 in1028.1 mb 0.00 in0.0 mm 0.00 in0.0 mm 0.00 in0.0 mm
06:25 AM 13.8°F-10.1°C 2.5°F-16.4°C 60% Calm Calm -- 30.36 in1028.1 mb 0.00 in0.0 mm 0.00 in0.0 mm 0.00 in0.0 mm
06:26 AM 13.8°F-10.1°C 2.5°F-16.4°C 60% Calm Calm -- 30.36 in1028.1 mb 0.00 in0.0 mm 0.00 in0.0 mm 0.00 in0.0 mm
06:27 AM 13.8°F-10.1°C 2.9°F-16.2°C 61% 1.7 mph SE2.7 kmh SE 1.7 mph2.7 kmh 30.36 in1028.1 mb 0.00 in0.0 mm 0.00 in0.0 mm 0.00 in0.0 mm
06:28 AM 13.8°F-10.1°C 3.2°F-16.0°C 62% 1.1 mph SE1.8 kmh SE 1.7 mph2.7 kmh 30.36 in1028.1 mb 0.00 in0.0 mm 0.00 in0.0 mm 0.00 in0.0 mm
06:29 AM 13.8°F-10.1°C 3.2°F-16.0°C 62% 1.1 mph ESE1.8 kmh ESE 1.7 mph2.7 kmh 30.36 in1028.1 mb 0.00 in0.0 mm 0.00 in0.0 mm 0.00 in0.0 mm
06:30 AM 13.8°F-10.1°C 3.2°F-16.0°C 62% Calm Calm 1.7 mph2.7 kmh 30.36 in1028.1 mb 0.00 in0.0 mm 0.00 in0.0 mm 0.00 in0.0 mm
06:31 AM 13.8°F-10.1°C 3.2°F-16.0°C 62% Calm Calm 1.7 mph2.7 kmh 30.36 in1028.1 mb 0.00 in0.0 mm 0.00 in0.0 mm 0.00 in0.0 mm
06:32 AM 13.8°F-10.1°C 3.2°F-16.0°C 62% Calm Calm 1.7 mph2.7 kmh 30.36 in1028.1 mb 0.00 in0.0 mm 0.00 in0.0 mm 0.00 in0.0 mm
06:33 AM 13.8°F-10.1°C 3.2°F-16.0°C 62% Calm Calm 1.7 mph2.7 kmh 30.36 in1028.1 mb 0.00 in0.0 mm 0.00 in0.0 mm 0.00 in0.0 mm
06:34 AM 13.8°F-10.1°C 3.2°F-16.0°C 62% Calm Calm 1.7 mph2.7 kmh 30.36 in1028.1 mb 0.00 in0.0 mm 0.00 in0.0 mm 0.00 in0.0 mm
06:35 AM 13.6°F-10.2°C 3.0°F-16.1°C 62% Calm Calm 1.7 mph2.7 kmh 30.36 in1028.1 mb 0.00 in0.0 mm 0.00 in0.0 mm 0.00 in0.0 mm
06:36 AM 13.6°F-10.2°C 3.4°F-15.9°C 63% Calm Calm 1.7 mph2.7 kmh 30.36 in1028.1 mb 0.00 in0.0 mm 0.00 in0.0 mm 0.00 in0.0 mm
06:37 AM 13.6°F-10.2°C 3.7°F-15.7°C 64% Calm Calm 1.7 mph2.7 kmh 30.36 in1028.1 mb 0.00 in0.0 mm 0.00 in0.0 mm 0.00 in0.0 mm
06:38 AM 13.6°F-10.2°C 4.1°F-15.5°C 65% Calm Calm 1.7 mph2.7 kmh 30.36 in1028.1 mb 0.00 in0.0 mm 0.00 in0.0 mm 0.00 in0.0 mm
06:39 AM 13.6°F-10.2°C 4.4°F-15.3°C 66% Calm Calm 1.1 mph1.8 kmh 30.36 in1028.1 mb 0.00 in0.0 mm 0.00 in0.0 mm 0.00 in0.0 mm
06:40 AM 13.6°F-10.2°C 4.7°F-15.2°C 67% Calm Calm -- 30.36 in1028.1 mb 0.00 in0.0 mm 0.00 in0.0 mm 0.00 in0.0 mm
06:41 AM 13.6°F-10.2°C 4.7°F-15.2°C 67% Calm Calm -- 30.36 in1028.1 mb 0.00 in0.0 mm 0.00 in0.0 mm 0.00 in0.0 mm
06:42 AM 13.6°F-10.2°C 4.4°F-15.3°C 66% 1.1 mph SSE1.8 kmh SSE 1.1 mph1.8 kmh 30.36 in1028.1 mb 0.00 in0.0 mm 0.00 in0.0 mm 0.00 in0.0 mm
06:43 AM 13.6°F-10.2°C 4.1°F-15.5°C 65% Calm Calm 1.1 mph1.8 kmh 30.36 in1028.1 mb 0.00 in0.0 mm 0.00 in0.0 mm 0.00 in0.0 mm
06:44 AM 13.6°F-10.2°C 4.1°F-15.5°C 65% Calm Calm 1.1 mph1.8 kmh 30.36 in1028.1 mb 0.00 in0.0 mm 0.00 in0.0 mm 0.00 in0.0 mm
06:45 AM 13.6°F-10.2°C 3.7°F-15.7°C 64% 1.1 mph SSE1.8 kmh SSE 1.1 mph1.8 kmh 30.36 in1028.1 mb 0.00 in0.0 mm 0.00 in0.0 mm 0.00 in0.0 mm
06:46 AM 13.5°F-10.3°C 3.6°F-15.8°C 64% Calm Calm 1.1 mph1.8 kmh 30.36 in1028.1 mb 0.00 in0.0 mm 0.00 in0.0 mm 0.00 in0.0 mm
06:47 AM 13.5°F-10.3°C 3.6°F-15.8°C 64% Calm Calm 1.1 mph1.8 kmh 30.36 in1028.1 mb 0.00 in0.0 mm 0.00 in0.0 mm 0.00 in0.0 mm
06:48 AM 13.5°F-10.3°C 3.6°F-15.8°C 64% Calm Calm 1.1 mph1.8 kmh 30.36 in1028.1 mb 0.00 in0.0 mm 0.00 in0.0 mm 0.00 in0.0 mm
06:49 AM 13.5°F-10.3°C 3.6°F-15.8°C 64% 1.1 mph E1.8 kmh E 1.1 mph1.8 kmh 30.36 in1028.1 mb 0.00 in0.0 mm 0.00 in0.0 mm 0.00 in0.0 mm
06:50 AM 13.5°F-10.3°C 3.6°F-15.8°C 64% 1.1 mph ESE1.8 kmh ESE 1.1 mph1.8 kmh 30.36 in1028.1 mb 0.00 in0.0 mm 0.00 in0.0 mm 0.00 in0.0 mm
06:51 AM 13.5°F-10.3°C 3.6°F-15.8°C 64% 1.7 mph ESE2.7 kmh ESE 1.7 mph2.7 kmh 30.36 in1028.1 mb 0.00 in0.0 mm 0.00 in0.0 mm 0.00 in0.0 mm
06:52 AM 13.3°F-10.4°C 3.4°F-15.9°C 64% 1.1 mph ESE1.8 kmh ESE 1.7 mph2.7 kmh 30.36 in1028.1 mb 0.00 in0.0 mm 0.00 in0.0 mm 0.00 in0.0 mm
06:53 AM 13.3°F-10.4°C 3.4°F-15.9°C 64% Calm Calm 1.7 mph2.7 kmh 30.36 in1028.1 mb 0.00 in0.0 mm 0.00 in0.0 mm 0.00 in0.0 mm
06:54 AM 13.3°F-10.4°C 3.4°F-15.9°C 64% 1.7 mph SSW2.7 kmh SSW 2.2 mph3.5 kmh 30.36 in1028.1 mb 0.00 in0.0 mm 0.00 in0.0 mm 0.00 in0.0 mm
06:55 AM 13.5°F-10.3°C 3.6°F-15.8°C 64% 1.1 mph E1.8 kmh E 2.2 mph3.5 kmh 30.36 in1028.1 mb 0.00 in0.0 mm 0.00 in0.0 mm 0.00 in0.0 mm
06:56 AM 13.5°F-10.3°C 3.6°F-15.8°C 64% 1.7 mph ESE2.7 kmh ESE 2.2 mph3.5 kmh 30.36 in1028.1 mb 0.00 in0.0 mm 0.00 in0.0 mm 0.00 in0.0 mm
06:57 AM 13.5°F-10.3°C 3.6°F-15.8°C 64% Calm Calm 2.2 mph3.5 kmh 30.36 in1028.1 mb 0.00 in0.0 mm 0.00 in0.0 mm 0.00 in0.0 mm
06:58 AM 13.5°F-10.3°C 3.6°F-15.8°C 64% Calm Calm 2.2 mph3.5 kmh 30.36 in1028.1 mb 0.00 in0.0 mm 0.00 in0.0 mm 0.00 in0.0 mm
06:59 AM 13.5°F-10.3°C 3.6°F-15.8°C 64% Calm Calm 2.2 mph3.5 kmh 30.36 in1028.1 mb 0.00 in0.0 mm 0.00 in0.0 mm 0.00 in0.0 mm
07:00 AM 13.5°F-10.3°C 3.6°F-15.8°C 64% Calm Calm 2.2 mph3.5 kmh 30.36 in1028.1 mb 0.00 in0.0 mm 0.00 in0.0 mm 0.00 in0.0 mm
07:01 AM 13.5°F-10.3°C 3.6°F-15.8°C 64% Calm Calm 2.2 mph3.5 kmh 30.36 in1028.1 mb 0.00 in0.0 mm 0.00 in0.0 mm 0.00 in0.0 mm
07:02 AM 13.5°F-10.3°C 3.6°F-15.8°C 64% Calm Calm 2.2 mph3.5 kmh 30.36 in1028.1 mb 0.00 in0.0 mm 0.00 in0.0 mm 0.00 in0.0 mm
07:03 AM 13.5°F-10.3°C 3.6°F-15.8°C 64% Calm Calm 2.2 mph3.5 kmh 30.36 in1028.1 mb 0.00 in0.0 mm 0.00 in0.0 mm 0.00 in0.0 mm
07:04 AM 13.5°F-10.3°C 3.6°F-15.8°C 64% Calm Calm 1.7 mph2.7 kmh 30.36 in1028.1 mb 0.00 in0.0 mm 0.00 in0.0 mm 0.00 in0.0 mm
07:05 AM 13.5°F-10.3°C 3.6°F-15.8°C 64% 1.7 mph E2.7 kmh E 1.7 mph2.7 kmh 30.36 in1028.1 mb 0.00 in0.0 mm 0.00 in0.0 mm 0.00 in0.0 mm
07:06 AM 13.8°F-10.1°C 3.9°F-15.6°C 64% 2.2 mph E3.5 kmh E 2.2 mph3.5 kmh 30.36 in1028.1 mb 0.00 in0.0 mm 0.00 in0.0 mm 0.00 in0.0 mm
07:07 AM 14.0°F-10.0°C 3.4°F-15.9°C 62% 2.2 mph SSE3.5 kmh SSE 2.2 mph3.5 kmh 30.36 in1028.1 mb 0.00 in0.0 mm 0.00 in0.0 mm 0.00 in0.0 mm
07:08 AM 14.2°F-9.9°C 3.6°F-15.8°C 62% Calm Calm 2.2 mph3.5 kmh 30.36 in1028.1 mb 0.00 in0.0 mm 0.00 in0.0 mm 0.00 in0.0 mm
07:09 AM 14.2°F-9.9°C 3.6°F-15.8°C 62% 1.7 mph SE2.7 kmh SE 2.2 mph3.5 kmh 30.36 in1028.1 mb 0.00 in0.0 mm 0.00 in0.0 mm 0.00 in0.0 mm
07:10 AM 14.2°F-9.9°C 3.6°F-15.8°C 62% 3.7 mph SE6.0 kmh SE 3.7 mph6.0 kmh 30.36 in1028.1 mb 0.00 in0.0 mm 0.00 in0.0 mm 0.00 in0.0 mm
07:11 AM 14.4°F-9.8°C 3.8°F-15.7°C 62% 1.1 mph WSW1.8 kmh WSW 3.7 mph6.0 kmh 30.36 in1028.1 mb 0.00 in0.0 mm 0.00 in0.0 mm 0.00 in0.0 mm
07:12 AM 14.4°F-9.8°C 3.8°F-15.7°C 62% 1.1 mph ESE1.8 kmh ESE 3.7 mph6.0 kmh 30.36 in1028.1 mb 0.00 in0.0 mm 0.00 in0.0 mm 0.00 in0.0 mm
07:13 AM 14.4°F-9.8°C 3.8°F-15.7°C 62% Calm Calm 3.7 mph6.0 kmh 30.36 in1028.1 mb 0.00 in0.0 mm 0.00 in0.0 mm 0.00 in0.0 mm
07:14 AM 14.4°F-9.8°C 3.8°F-15.7°C 62% 3.2 mph SE5.1 kmh SE 3.7 mph6.0 kmh 30.36 in1028.1 mb 0.00 in0.0 mm 0.00 in0.0 mm 0.00 in0.0 mm
07:15 AM 14.4°F-9.8°C 3.8°F-15.7°C 62% 2.7 mph SW4.3 kmh SW 3.7 mph6.0 kmh 30.36 in1028.1 mb 0.00 in0.0 mm 0.00 in0.0 mm 0.00 in0.0 mm
07:16 AM 14.4°F-9.8°C 3.8°F-15.7°C 62% 2.7 mph ENE4.3 kmh ENE 3.7 mph6.0 kmh 30.36 in1028.1 mb 0.00 in0.0 mm 0.00 in0.0 mm 0.00 in0.0 mm
07:17 AM 14.4°F-9.8°C 3.8°F-15.7°C 62% 3.7 mph W6.0 kmh W 3.7 mph6.0 kmh 30.36 in1028.1 mb 0.00 in0.0 mm 0.00 in0.0 mm 0.00 in0.0 mm
07:18 AM 14.7°F-9.6°C 3.7°F-15.7°C 61% 1.7 mph NNE2.7 kmh NNE 3.7 mph6.0 kmh 30.36 in1028.1 mb 0.00 in0.0 mm 0.00 in0.0 mm 0.00 in0.0 mm
07:19 AM 14.9°F-9.5°C 3.6°F-15.8°C 60% 2.7 mph ESE4.3 kmh ESE 4.2 mph6.8 kmh 30.36 in1028.1 mb 0.00 in0.0 mm 0.00 in0.0 mm 0.00 in0.0 mm
07:20 AM 15.1°F-9.4°C 3.7°F-15.7°C 60% 2.2 mph ENE3.5 kmh ENE 4.2 mph6.8 kmh 30.36 in1028.1 mb 0.00 in0.0 mm 0.00 in0.0 mm 0.00 in0.0 mm
07:21 AM 14.9°F-9.5°C 3.6°F-15.8°C 60% 5.3 mph W8.5 kmh W 5.3 mph8.5 kmh 30.36 in1028.1 mb 0.00 in0.0 mm 0.00 in0.0 mm 0.00 in0.0 mm
07:22 AM 15.4°F-9.2°C 4.0°F-15.6°C 60% Calm Calm 5.3 mph8.5 kmh 30.36 in1028.1 mb 0.00 in0.0 mm 0.00 in0.0 mm 0.00 in0.0 mm
07:23 AM 15.6°F-9.1°C 4.2°F-15.4°C 60% 2.7 mph S4.3 kmh S 5.3 mph8.5 kmh 30.36 in1028.1 mb 0.00 in0.0 mm 0.00 in0.0 mm 0.00 in0.0 mm
07:24 AM 15.6°F-9.1°C 3.9°F-15.6°C 59% 2.7 mph ESE4.3 kmh ESE 5.3 mph8.5 kmh 30.36 in1028.1 mb 0.00 in0.0 mm 0.00 in0.0 mm 0.00 in0.0 mm
07:25 AM 15.4°F-9.2°C 3.7°F-15.7°C 59% 1.7 mph NE2.7 kmh NE 5.3 mph8.5 kmh 30.36 in1028.1 mb 0.00 in0.0 mm 0.00 in0.0 mm 0.00 in0.0 mm
07:26 AM 15.4°F-9.2°C 3.7°F-15.7°C 59% 1.7 mph E2.7 kmh E 5.3 mph8.5 kmh 30.36 in1028.1 mb 0.00 in0.0 mm 0.00 in0.0 mm 0.00 in0.0 mm
07:27 AM 15.4°F-9.2°C 3.7°F-15.7°C 59% 1.7 mph W2.7 kmh W 5.3 mph8.5 kmh 30.36 in1028.1 mb 0.00 in0.0 mm 0.00 in0.0 mm 0.00 in0.0 mm
07:28 AM 15.6°F-9.1°C 3.9°F-15.6°C 59% 1.1 mph WSW1.8 kmh WSW 5.3 mph8.5 kmh 30.36 in1028.1 mb 0.00 in0.0 mm 0.00 in0.0 mm 0.00 in0.0 mm
07:29 AM 15.6°F-9.1°C 3.9°F-15.6°C 59% 1.7 mph WNW2.7 kmh WNW 5.3 mph8.5 kmh 30.36 in1028.1 mb 0.00 in0.0 mm 0.00 in0.0 mm 0.00 in0.0 mm
07:30 AM 15.4°F-9.2°C 3.7°F-15.7°C 59% 1.1 mph W1.8 kmh W 5.3 mph8.5 kmh 30.36 in1028.1 mb 0.00 in0.0 mm 0.00 in0.0 mm 0.00 in0.0 mm
07:31 AM 15.4°F-9.2°C 3.7°F-15.7°C 59% 2.7 mph E4.3 kmh E 5.3 mph8.5 kmh 30.36 in1028.1 mb 0.00 in0.0 mm 0.00 in0.0 mm 0.00 in0.0 mm
07:32 AM 15.4°F-9.2°C 3.7°F-15.7°C 59% Calm Calm 3.2 mph5.1 kmh 30.36 in1028.1 mb 0.00 in0.0 mm 0.00 in0.0 mm 0.00 in0.0 mm
07:33 AM 15.4°F-9.2°C 3.7°F-15.7°C 59% 1.1 mph W1.8 kmh W 3.2 mph5.1 kmh 30.36 in1028.1 mb 0.00 in0.0 mm 0.00 in0.0 mm 0.00 in0.0 mm
07:34 AM 15.6°F-9.1°C 3.9°F-15.6°C 59% 3.2 mph E5.1 kmh E 3.2 mph5.1 kmh 30.36 in1028.1 mb 0.00 in0.0 mm 0.00 in0.0 mm 0.00 in0.0 mm
07:35 AM 15.6°F-9.1°C 3.9°F-15.6°C 59% 1.7 mph NW2.7 kmh NW 3.7 mph6.0 kmh 30.36 in1028.1 mb 0.00 in0.0 mm 0.00 in0.0 mm 0.00 in0.0 mm
07:36 AM 15.8°F-9.0°C 4.0°F-15.6°C 59% 1.1 mph ENE1.8 kmh ENE 3.7 mph6.0 kmh 30.36 in1028.1 mb 0.00 in0.0 mm 0.00 in0.0 mm 0.00 in0.0 mm
07:37 AM 15.8°F-9.0°C 4.0°F-15.6°C 59% 1.7 mph W2.7 kmh W 3.7 mph6.0 kmh 30.36 in1028.1 mb 0.00 in0.0 mm 0.00 in0.0 mm 0.00 in0.0 mm
07:38 AM 15.8°F-9.0°C 4.0°F-15.6°C 59% 1.7 mph SSW2.7 kmh SSW 3.7 mph6.0 kmh 30.36 in1028.1 mb 0.00 in0.0 mm 0.00 in0.0 mm 0.00 in0.0 mm
07:39 AM 15.8°F-9.0°C 4.0°F-15.6°C 59% 1.1 mph ESE1.8 kmh ESE 3.7 mph6.0 kmh 30.36 in1028.1 mb 0.00 in0.0 mm 0.00 in0.0 mm 0.00 in0.0 mm
07:40 AM 15.8°F-9.0°C 4.0°F-15.6°C 59% 1.1 mph SSW1.8 kmh SSW 3.7 mph6.0 kmh 30.36 in1028.1 mb 0.00 in0.0 mm 0.00 in0.0 mm 0.00 in0.0 mm
07:41 AM 15.8°F-9.0°C 4.0°F-15.6°C 59% 1.1 mph NE1.8 kmh NE 3.7 mph6.0 kmh 30.35 in1027.8 mb 0.00 in0.0 mm 0.00 in0.0 mm 0.00 in0.0 mm
07:42 AM 15.8°F-9.0°C 4.0°F-15.6°C 59% 1.7 mph S2.7 kmh S 3.7 mph6.0 kmh 30.35 in1027.8 mb 0.00 in0.0 mm 0.00 in0.0 mm 0.00 in0.0 mm
07:43 AM 15.8°F-9.0°C 4.0°F-15.6°C 59% 1.7 mph NNE2.7 kmh NNE 3.7 mph6.0 kmh 30.35 in1027.8 mb 0.00 in0.0 mm 0.00 in0.0 mm 0.00 in0.0 mm
07:44 AM 15.8°F-9.0°C 4.0°F-15.6°C 59% 3.2 mph W5.1 kmh W 3.7 mph6.0 kmh 30.35 in1027.8 mb 0.00 in0.0 mm 0.00 in0.0 mm 0.00 in0.0 mm
07:45 AM 16.2°F-8.8°C 4.1°F-15.5°C 58% 1.7 mph W2.7 kmh W 3.2 mph5.1 kmh 30.35 in1027.8 mb 0.00 in0.0 mm 0.00 in0.0 mm 0.00 in0.0 mm
07:46 AM 16.2°F-8.8°C 4.1°F-15.5°C 58% 2.2 mph WSW3.5 kmh WSW 3.2 mph5.1 kmh 30.35 in1027.8 mb 0.00 in0.0 mm 0.00 in0.0 mm 0.00 in0.0 mm
07:47 AM 16.2°F-8.8°C 4.1°F-15.5°C 58% Calm Calm 3.2 mph5.1 kmh 30.35 in1027.8 mb 0.00 in0.0 mm 0.00 in0.0 mm 0.00 in0.0 mm
07:48 AM 16.2°F-8.8°C 4.1°F-15.5°C 58% 1.1 mph SSW1.8 kmh SSW 3.2 mph5.1 kmh 30.35 in1027.8 mb 0.00 in0.0 mm 0.00 in0.0 mm 0.00 in0.0 mm
07:49 AM 16.2°F-8.8°C 4.1°F-15.5°C 58% 4.7 mph S7.6 kmh S 4.7 mph7.6 kmh 30.35 in1027.8 mb 0.00 in0.0 mm 0.00 in0.0 mm 0.00 in0.0 mm
07:50 AM 16.3°F-8.7°C 4.1°F-15.5°C 58% 3.7 mph NW6.0 kmh NW 4.7 mph7.6 kmh 30.35 in1027.8 mb 0.00 in0.0 mm 0.00 in0.0 mm 0.00 in0.0 mm
07:51 AM 16.3°F-8.7°C 4.1°F-15.5°C 58% 3.2 mph SSW5.1 kmh SSW 6.8 mph10.9 kmh 30.35 in1027.8 mb 0.00 in0.0 mm 0.00 in0.0 mm 0.00 in0.0 mm
07:52 AM 16.7°F-8.5°C 4.1°F-15.5°C 57% 1.1 mph SE1.8 kmh SE 6.8 mph10.9 kmh 30.35 in1027.8 mb 0.00 in0.0 mm 0.00 in0.0 mm 0.00 in0.0 mm
07:53 AM 16.7°F-8.5°C 4.1°F-15.5°C 57% 3.2 mph SW5.1 kmh SW 6.8 mph10.9 kmh 30.35 in1027.8 mb 0.00 in0.0 mm 0.00 in0.0 mm 0.00 in0.0 mm
07:54 AM 16.7°F-8.5°C 4.1°F-15.5°C 57% 1.1 mph NNE1.8 kmh NNE 6.8 mph10.9 kmh 30.35 in1027.8 mb 0.00 in0.0 mm 0.00 in0.0 mm 0.00 in0.0 mm
07:55 AM 16.7°F-8.5°C 4.1°F-15.5°C 57% 1.1 mph NE1.8 kmh NE 6.8 mph10.9 kmh 30.35 in1027.8 mb 0.00 in0.0 mm 0.00 in0.0 mm 0.00 in0.0 mm
07:56 AM 16.7°F-8.5°C 4.1°F-15.5°C 57% 2.7 mph ESE4.3 kmh ESE 6.8 mph10.9 kmh 30.35 in1027.8 mb 0.00 in0.0 mm 0.00 in0.0 mm 0.00 in0.0 mm
07:57 AM 16.7°F-8.5°C 4.1°F-15.5°C 57% 1.1 mph SSE1.8 kmh SSE 6.8 mph10.9 kmh 30.35 in1027.8 mb 0.00 in0.0 mm 0.00 in0.0 mm 0.00 in0.0 mm
07:58 AM 16.7°F-8.5°C 4.1°F-15.5°C 57% 4.2 mph NNW6.8 kmh NNW 6.8 mph10.9 kmh 30.35 in1027.8 mb 0.00 in0.0 mm 0.00 in0.0 mm 0.00 in0.0 mm
07:59 AM 16.9°F-8.4°C 4.3°F-15.4°C 57% 2.7 mph S4.3 kmh S 6.8 mph10.9 kmh 30.35 in1027.8 mb 0.00 in0.0 mm 0.00 in0.0 mm 0.00 in0.0 mm
08:00 AM 17.1°F-8.3°C 4.1°F-15.5°C 56% 2.2 mph ESE3.5 kmh ESE 6.8 mph10.9 kmh 30.35 in1027.8 mb 0.00 in0.0 mm 0.00 in0.0 mm 0.00 in0.0 mm
08:01 AM 17.1°F-8.3°C 4.5°F-15.3°C 57% 1.7 mph SSE2.7 kmh SSE 4.2 mph6.8 kmh 30.35 in1027.8 mb 0.00 in0.0 mm 0.00 in0.0 mm 0.00 in0.0 mm
08:02 AM 17.1°F-8.3°C 4.5°F-15.3°C 57% 1.7 mph ESE2.7 kmh ESE 4.2 mph6.8 kmh 30.35 in1027.8 mb 0.00 in0.0 mm 0.00 in0.0 mm 0.00 in0.0 mm
08:03 AM 17.1°F-8.3°C 4.5°F-15.3°C 57% 1.7 mph NNW2.7 kmh NNW 4.2 mph6.8 kmh 30.35 in1027.8 mb 0.00 in0.0 mm 0.00 in0.0 mm 0.00 in0.0 mm
08:04 AM 17.1°F-8.3°C 4.5°F-15.3°C 57% 3.2 mph WNW5.1 kmh WNW 4.2 mph6.8 kmh 30.35 in1027.8 mb 0.00 in0.0 mm 0.00 in0.0 mm 0.00 in0.0 mm
08:05 AM 17.4°F-8.1°C 4.4°F-15.3°C 56% 1.7 mph SSE2.7 kmh SSE 4.2 mph6.8 kmh 30.35 in1027.8 mb 0.00 in0.0 mm 0.00 in0.0 mm 0.00 in0.0 mm
08:06 AM 17.6°F-8.0°C 4.6°F-15.2°C 56% Calm Calm 4.2 mph6.8 kmh 30.35 in1027.8 mb 0.00 in0.0 mm 0.00 in0.0 mm 0.00 in0.0 mm
08:07 AM 17.6°F-8.0°C 4.6°F-15.2°C 56% 2.2 mph NNE3.5 kmh NNE 4.2 mph6.8 kmh 30.35 in1027.8 mb 0.00 in0.0 mm 0.00 in0.0 mm 0.00 in0.0 mm
08:08 AM 17.8°F-7.9°C 4.8°F-15.1°C 56% 1.1 mph W1.8 kmh W 4.2 mph6.8 kmh 30.35 in1027.8 mb 0.00 in0.0 mm 0.00 in0.0 mm 0.00 in0.0 mm
08:09 AM 17.8°F-7.9°C 4.8°F-15.1°C 56% 1.1 mph NNW1.8 kmh NNW 3.7 mph6.0 kmh 30.35 in1027.8 mb 0.00 in0.0 mm 0.00 in0.0 mm 0.00 in0.0 mm
08:10 AM 17.8°F-7.9°C 4.8°F-15.1°C 56% 2.7 mph S4.3 kmh S 3.7 mph6.0 kmh 30.35 in1027.8 mb 0.00 in0.0 mm 0.00 in0.0 mm 0.00 in0.0 mm
08:11 AM 18.0°F-7.8°C 4.6°F-15.2°C 55% 1.7 mph ENE2.7 kmh ENE 3.7 mph6.0 kmh 30.35 in1027.8 mb 0.00 in0.0 mm 0.00 in0.0 mm 0.00 in0.0 mm
08:12 AM 18.1°F-7.7°C 4.7°F-15.2°C 55% 2.7 mph NNW4.3 kmh NNW 3.7 mph6.0 kmh 30.35 in1027.8 mb 0.00 in0.0 mm 0.00 in0.0 mm 0.00 in0.0 mm
08:13 AM 18.3°F-7.6°C 4.5°F-15.3°C 54% 1.1 mph SSW1.8 kmh SSW 3.7 mph6.0 kmh 30.35 in1027.8 mb 0.00 in0.0 mm 0.00 in0.0 mm 0.00 in0.0 mm
08:14 AM 18.3°F-7.6°C 4.5°F-15.3°C 54% 2.2 mph W3.5 kmh W 3.2 mph5.1 kmh 30.35 in1027.8 mb 0.00 in0.0 mm 0.00 in0.0 mm 0.00 in0.0 mm
08:15 AM 18.5°F-7.5°C 4.7°F-15.2°C 54% 3.2 mph NNE5.1 kmh NNE 3.2 mph5.1 kmh 30.35 in1027.8 mb 0.00 in0.0 mm 0.00 in0.0 mm 0.00 in0.0 mm
08:16 AM 18.7°F-7.4°C 4.8°F-15.1°C 54% 5.3 mph WNW8.5 kmh WNW 5.3 mph8.5 kmh 30.35 in1027.8 mb 0.00 in0.0 mm 0.00 in0.0 mm 0.00 in0.0 mm
08:17 AM 18.7°F-7.4°C 4.8°F-15.1°C 54% 1.7 mph W2.7 kmh W 5.3 mph8.5 kmh 30.35 in1027.8 mb 0.00 in0.0 mm 0.00 in0.0 mm 0.00 in0.0 mm
08:18 AM 18.7°F-7.4°C 4.8°F-15.1°C 54% 6.3 mph W10.1 kmh W 6.3 mph10.1 kmh 30.35 in1027.8 mb 0.00 in0.0 mm 0.00 in0.0 mm 0.00 in0.0 mm
08:19 AM 18.9°F-7.3°C 4.6°F-15.2°C 53% 1.1 mph SSE1.8 kmh SSE 6.3 mph10.1 kmh 30.35 in1027.8 mb 0.00 in0.0 mm 0.00 in0.0 mm 0.00 in0.0 mm
08:20 AM 19.0°F-7.2°C 4.7°F-15.2°C 53% 4.2 mph W6.8 kmh W 6.3 mph10.1 kmh 30.35 in1027.8 mb 0.00 in0.0 mm 0.00 in0.0 mm 0.00 in0.0 mm
08:21 AM 19.0°F-7.2°C 4.7°F-15.2°C 53% 1.7 mph ESE2.7 kmh ESE 6.3 mph10.1 kmh 30.35 in1027.8 mb 0.00 in0.0 mm 0.00 in0.0 mm 0.00 in0.0 mm
08:22 AM 19.0°F-7.2°C 4.7°F-15.2°C 53% 3.7 mph ESE6.0 kmh ESE 6.3 mph10.1 kmh 30.35 in1027.8 mb 0.00 in0.0 mm 0.00 in0.0 mm 0.00 in0.0 mm
08:23 AM 19.4°F-7.0°C 4.7°F-15.2°C 52% 2.2 mph S3.5 kmh S 6.3 mph10.1 kmh 30.35 in1027.8 mb 0.00 in0.0 mm 0.00 in0.0 mm 0.00 in0.0 mm
08:24 AM 19.4°F-7.0°C 4.7°F-15.2°C 52% 2.7 mph W4.3 kmh W 6.3 mph10.1 kmh 30.35 in1027.8 mb 0.00 in0.0 mm 0.00 in0.0 mm 0.00 in0.0 mm
08:25 AM 19.4°F-7.0°C 4.7°F-15.2°C 52% 2.7 mph W4.3 kmh W 6.3 mph10.1 kmh 30.35 in1027.8 mb 0.00 in0.0 mm 0.00 in0.0 mm 0.00 in0.0 mm
08:26 AM 19.6°F-6.9°C 4.9°F-15.1°C 52% 1.1 mph ESE1.8 kmh ESE 6.3 mph10.1 kmh 30.35 in1027.8 mb 0.00 in0.0 mm 0.00 in0.0 mm 0.00 in0.0 mm
08:27 AM 19.6°F-6.9°C 4.9°F-15.1°C 52% 2.2 mph SE3.5 kmh SE 6.3 mph10.1 kmh 30.35 in1027.8 mb 0.00 in0.0 mm 0.00 in0.0 mm 0.00 in0.0 mm
08:28 AM 19.8°F-6.8°C 5.1°F-14.9°C 52% 3.2 mph NW5.1 kmh NW 6.3 mph10.1 kmh 30.35 in1027.8 mb 0.00 in0.0 mm 0.00 in0.0 mm 0.00 in0.0 mm
08:29 AM 19.8°F-6.8°C 5.1°F-14.9°C 52% 2.2 mph NNE3.5 kmh NNE 4.2 mph6.8 kmh 30.34 in1027.4 mb 0.00 in0.0 mm 0.00 in0.0 mm 0.00 in0.0 mm
08:30 AM 19.8°F-6.8°C 5.1°F-14.9°C 52% 1.7 mph N2.7 kmh N 4.2 mph6.8 kmh 30.34 in1027.4 mb 0.00 in0.0 mm 0.00 in0.0 mm 0.00 in0.0 mm
08:31 AM 19.9°F-6.7°C 5.1°F-14.9°C 52% 1.7 mph NE2.7 kmh NE 3.7 mph6.0 kmh 30.34 in1027.4 mb 0.00 in0.0 mm 0.00 in0.0 mm 0.00 in0.0 mm
08:32 AM 20.1°F-6.6°C 5.3°F-14.8°C 52% 2.7 mph WSW4.3 kmh WSW 3.7 mph6.0 kmh 30.34 in1027.4 mb 0.00 in0.0 mm 0.00 in0.0 mm 0.00 in0.0 mm
08:33 AM 20.1°F-6.6°C 5.3°F-14.8°C 52% 2.2 mph W3.5 kmh W 3.7 mph6.0 kmh 30.34 in1027.4 mb 0.00 in0.0 mm 0.00 in0.0 mm 0.00 in0.0 mm
08:34 AM 20.3°F-6.5°C 5.5°F-14.7°C 52% 2.2 mph SE3.5 kmh SE 3.7 mph6.0 kmh 30.34 in1027.4 mb 0.00 in0.0 mm 0.00 in0.0 mm 0.00 in0.0 mm
08:35 AM 20.5°F-6.4°C 5.7°F-14.6°C 52% 3.2 mph W5.1 kmh W 5.3 mph8.5 kmh 30.34 in1027.4 mb 0.00 in0.0 mm 0.00 in0.0 mm 0.00 in0.0 mm
08:36 AM 20.5°F-6.4°C 5.7°F-14.6°C 52% 2.2 mph NNE3.5 kmh NNE 5.3 mph8.5 kmh 30.34 in1027.4 mb 0.00 in0.0 mm 0.00 in0.0 mm 0.00 in0.0 mm
08:37 AM 20.8°F-6.2°C 5.6°F-14.7°C 51% 1.1 mph SW1.8 kmh SW 5.3 mph8.5 kmh 30.34 in1027.4 mb 0.00 in0.0 mm 0.00 in0.0 mm 0.00 in0.0 mm
08:38 AM 20.8°F-6.2°C 5.6°F-14.7°C 51% 4.2 mph W6.8 kmh W 5.3 mph8.5 kmh 30.34 in1027.4 mb 0.00 in0.0 mm 0.00 in0.0 mm 0.00 in0.0 mm
08:39 AM 20.8°F-6.2°C 5.1°F-14.9°C 50% 3.7 mph W6.0 kmh W 8.3 mph13.4 kmh 30.34 in1027.4 mb 0.00 in0.0 mm 0.00 in0.0 mm 0.00 in0.0 mm
08:40 AM 21.0°F-6.1°C 5.3°F-14.8°C 50% 2.2 mph SW3.5 kmh SW 8.3 mph13.4 kmh 30.34 in1027.4 mb 0.00 in0.0 mm 0.00 in0.0 mm 0.00 in0.0 mm
08:41 AM 21.0°F-6.1°C 5.3°F-14.8°C 50% 3.2 mph W5.1 kmh W 8.3 mph13.4 kmh 30.34 in1027.4 mb 0.00 in0.0 mm 0.00 in0.0 mm 0.00 in0.0 mm
08:42 AM 21.2°F-6.0°C 5.5°F-14.7°C 50% 2.7 mph WNW4.3 kmh WNW 8.3 mph13.4 kmh 30.34 in1027.4 mb 0.00 in0.0 mm 0.00 in0.0 mm 0.00 in0.0 mm
08:43 AM 21.4°F-5.9°C 5.7°F-14.6°C 50% 1.7 mph NNE2.7 kmh NNE 8.3 mph13.4 kmh 30.34 in1027.4 mb 0.00 in0.0 mm 0.00 in0.0 mm 0.00 in0.0 mm
08:44 AM 21.4°F-5.9°C 5.7°F-14.6°C 50% 2.7 mph E4.3 kmh E 8.3 mph13.4 kmh 30.34 in1027.4 mb 0.00 in0.0 mm 0.00 in0.0 mm 0.00 in0.0 mm
08:45 AM 21.6°F-5.8°C 5.9°F-14.5°C 50% 3.7 mph ESE6.0 kmh ESE 8.3 mph13.4 kmh 30.34 in1027.4 mb 0.00 in0.0 mm 0.00 in0.0 mm 0.00 in0.0 mm
08:46 AM 21.7°F-5.7°C 6.0°F-14.4°C 50% 3.2 mph ENE5.1 kmh ENE 8.3 mph13.4 kmh 30.34 in1027.4 mb 0.00 in0.0 mm 0.00 in0.0 mm 0.00 in0.0 mm
08:47 AM 21.7°F-5.7°C 6.0°F-14.4°C 50% 2.2 mph WSW3.5 kmh WSW 8.3 mph13.4 kmh 30.34 in1027.4 mb 0.00 in0.0 mm 0.00 in0.0 mm 0.00 in0.0 mm
08:48 AM 21.9°F-5.6°C 5.7°F-14.6°C 49% 3.7 mph W6.0 kmh W 8.3 mph13.4 kmh 30.34 in1027.4 mb 0.00 in0.0 mm 0.00 in0.0 mm 0.00 in0.0 mm
08:49 AM 22.1°F-5.5°C 5.9°F-14.5°C 49% 7.8 mph WNW12.6 kmh WNW 7.8 mph12.6 kmh 30.34 in1027.4 mb 0.00 in0.0 mm 0.00 in0.0 mm 0.00 in0.0 mm
08:50 AM 22.1°F-5.5°C 5.4°F-14.8°C 48% 3.7 mph W6.0 kmh W 7.8 mph12.6 kmh 30.34 in1027.4 mb 0.00 in0.0 mm 0.00 in0.0 mm 0.00 in0.0 mm
08:51 AM 22.1°F-5.5°C 5.4°F-14.8°C 48% 3.7 mph W6.0 kmh W 7.8 mph12.6 kmh 30.34 in1027.4 mb 0.00 in0.0 mm 0.00 in0.0 mm 0.00 in0.0 mm
08:52 AM 22.1°F-5.5°C 5.4°F-14.8°C 48% 4.7 mph WNW7.6 kmh WNW 7.8 mph12.6 kmh 30.34 in1027.4 mb 0.00 in0.0 mm 0.00 in0.0 mm 0.00 in0.0 mm
08:53 AM 22.1°F-5.5°C 5.9°F-14.5°C 49% 2.7 mph W4.3 kmh W 7.8 mph12.6 kmh 30.34 in1027.4 mb 0.00 in0.0 mm 0.00 in0.0 mm 0.00 in0.0 mm
08:54 AM 22.1°F-5.5°C 5.9°F-14.5°C 49% 6.3 mph W10.1 kmh W 7.8 mph12.6 kmh 30.34 in1027.4 mb 0.00 in0.0 mm 0.00 in0.0 mm 0.00 in0.0 mm
08:55 AM 22.5°F-5.3°C 5.8°F-14.6°C 48% 1.7 mph SW2.7 kmh SW 8.3 mph13.4 kmh 30.34 in1027.4 mb 0.00 in0.0 mm 0.00 in0.0 mm 0.00 in0.0 mm
08:56 AM 22.6°F-5.2°C 5.9°F-14.5°C 48% 4.2 mph SSW6.8 kmh SSW 8.3 mph13.4 kmh 30.34 in1027.4 mb 0.00 in0.0 mm 0.00 in0.0 mm 0.00 in0.0 mm
08:57 AM 22.6°F-5.2°C 5.4°F-14.8°C 47% 3.7 mph SW6.0 kmh SW 8.3 mph13.4 kmh 30.34 in1027.4 mb 0.00 in0.0 mm 0.00 in0.0 mm 0.00 in0.0 mm
08:58 AM 22.8°F-5.1°C 6.1°F-14.4°C 48% 3.7 mph W6.0 kmh W 8.3 mph13.4 kmh 30.34 in1027.4 mb 0.00 in0.0 mm 0.00 in0.0 mm 0.00 in0.0 mm
08:59 AM 23.0°F-5.0°C 6.3°F-14.3°C 48% 1.7 mph SW2.7 kmh SW 8.3 mph13.4 kmh 30.34 in1027.4 mb 0.00 in0.0 mm 0.00 in0.0 mm 0.00 in0.0 mm
09:00 AM 23.2°F-4.9°C 6.0°F-14.4°C 47% 5.3 mph NW8.5 kmh NW 8.3 mph13.4 kmh 30.34 in1027.4 mb 0.00 in0.0 mm 0.00 in0.0 mm 0.00 in0.0 mm
09:01 AM 23.4°F-4.8°C 6.2°F-14.3°C 47% 2.7 mph NNE4.3 kmh NNE 8.3 mph13.4 kmh 30.34 in1027.4 mb 0.00 in0.0 mm 0.00 in0.0 mm 0.00 in0.0 mm
09:02 AM 23.4°F-4.8°C 6.2°F-14.3°C 47% 3.2 mph SSW5.1 kmh SSW 8.3 mph13.4 kmh 30.34 in1027.4 mb 0.00 in0.0 mm 0.00 in0.0 mm 0.00 in0.0 mm
09:03 AM 23.5°F-4.7°C 6.3°F-14.3°C 47% 2.7 mph NW4.3 kmh NW 8.3 mph13.4 kmh 30.34 in1027.4 mb 0.00 in0.0 mm 0.00 in0.0 mm 0.00 in0.0 mm
09:04 AM 23.7°F-4.6°C 6.5°F-14.2°C 47% 2.2 mph ESE3.5 kmh ESE 8.3 mph13.4 kmh 30.33 in1027.1 mb 0.00 in0.0 mm 0.00 in0.0 mm 0.00 in0.0 mm
09:05 AM 23.7°F-4.6°C 6.5°F-14.2°C 47% 4.7 mph WNW7.6 kmh WNW 6.8 mph10.9 kmh 30.33 in1027.1 mb 0.00 in0.0 mm 0.00 in0.0 mm 0.00 in0.0 mm
09:06 AM 23.7°F-4.6°C 6.5°F-14.2°C 47% 2.7 mph W4.3 kmh W 6.8 mph10.9 kmh 30.33 in1027.1 mb 0.00 in0.0 mm 0.00 in0.0 mm 0.00 in0.0 mm
09:07 AM 23.7°F-4.6°C 6.0°F-14.4°C 46% 4.7 mph W7.6 kmh W 6.8 mph10.9 kmh 30.33 in1027.1 mb 0.00 in0.0 mm 0.00 in0.0 mm 0.00 in0.0 mm
09:08 AM 23.7°F-4.6°C 6.0°F-14.4°C 46% 3.7 mph W6.0 kmh W 6.8 mph10.9 kmh 30.33 in1027.1 mb 0.00 in0.0 mm 0.00 in0.0 mm 0.00 in0.0 mm
09:09 AM 23.9°F-4.5°C 6.2°F-14.3°C 46% 2.2 mph WSW3.5 kmh WSW 6.8 mph10.9 kmh 30.33 in1027.1 mb 0.00 in0.0 mm 0.00 in0.0 mm 0.00 in0.0 mm
09:10 AM 24.3°F-4.3°C 6.1°F-14.4°C 45% 4.7 mph W7.6 kmh W 5.8 mph9.3 kmh 30.33 in1027.1 mb 0.00 in0.0 mm 0.00 in0.0 mm 0.00 in0.0 mm
09:11 AM 24.4°F-4.2°C 6.1°F-14.4°C 45% 2.2 mph WSW3.5 kmh WSW 5.8 mph9.3 kmh 30.33 in1027.1 mb 0.00 in0.0 mm 0.00 in0.0 mm 0.00 in0.0 mm
09:12 AM 24.4°F-4.2°C 6.1°F-14.4°C 45% 3.2 mph WNW5.1 kmh WNW 5.8 mph9.3 kmh 30.33 in1027.1 mb 0.00 in0.0 mm 0.00 in0.0 mm 0.00 in0.0 mm
09:13 AM 24.6°F-4.1°C 6.3°F-14.3°C 45% 5.8 mph S9.3 kmh S 5.8 mph9.3 kmh 30.33 in1027.1 mb 0.00 in0.0 mm 0.00 in0.0 mm 0.00 in0.0 mm
09:14 AM 24.8°F-4.0°C 6.5°F-14.2°C 45% 3.7 mph ESE6.0 kmh ESE 5.8 mph9.3 kmh 30.33 in1027.1 mb 0.00 in0.0 mm 0.00 in0.0 mm 0.00 in0.0 mm
09:15 AM 24.8°F-4.0°C 6.5°F-14.2°C 45% 3.2 mph W5.1 kmh W 6.8 mph10.9 kmh 30.33 in1027.1 mb 0.00 in0.0 mm 0.00 in0.0 mm 0.00 in0.0 mm
09:16 AM 24.8°F-4.0°C 6.5°F-14.2°C 45% 1.7 mph E2.7 kmh E 6.8 mph10.9 kmh 30.33 in1027.1 mb 0.00 in0.0 mm 0.00 in0.0 mm 0.00 in0.0 mm
09:17 AM 25.0°F-3.9°C 6.7°F-14.1°C 45% 2.7 mph E4.3 kmh E 6.8 mph10.9 kmh 30.33 in1027.1 mb 0.00 in0.0 mm 0.00 in0.0 mm 0.00 in0.0 mm
09:18 AM 25.2°F-3.8°C 6.9°F-13.9°C 45% 2.2 mph NW3.5 kmh NW 6.8 mph10.9 kmh 30.33 in1027.1 mb 0.00 in0.0 mm 0.00 in0.0 mm 0.00 in0.0 mm
09:19 AM 25.3°F-3.7°C 6.5°F-14.2°C 44% 5.3 mph NW8.5 kmh NW 6.8 mph10.9 kmh 30.33 in1027.1 mb 0.00 in0.0 mm 0.00 in0.0 mm 0.00 in0.0 mm
09:20 AM 25.3°F-3.7°C 6.5°F-14.2°C 44% 1.7 mph WNW2.7 kmh WNW 6.8 mph10.9 kmh 30.33 in1027.1 mb 0.00 in0.0 mm 0.00 in0.0 mm 0.00 in0.0 mm
09:21 AM 25.2°F-3.8°C 6.9°F-13.9°C 45% 3.2 mph SE5.1 kmh SE 6.8 mph10.9 kmh 30.33 in1027.1 mb 0.00 in0.0 mm 0.00 in0.0 mm 0.00 in0.0 mm
09:22 AM 25.2°F-3.8°C 6.4°F-14.2°C 44% 2.7 mph NNE4.3 kmh NNE 6.8 mph10.9 kmh 30.33 in1027.1 mb 0.00 in0.0 mm 0.00 in0.0 mm 0.00 in0.0 mm
09:23 AM 25.2°F-3.8°C 6.4°F-14.2°C 44% 2.2 mph SSW3.5 kmh SSW 6.8 mph10.9 kmh 30.33 in1027.1 mb 0.00 in0.0 mm 0.00 in0.0 mm 0.00 in0.0 mm
09:24 AM 25.3°F-3.7°C 6.5°F-14.2°C 44% 2.2 mph W3.5 kmh W 6.8 mph10.9 kmh 30.33 in1027.1 mb 0.00 in0.0 mm 0.00 in0.0 mm 0.00 in0.0 mm
09:25 AM 25.3°F-3.7°C 6.5°F-14.2°C 44% 3.2 mph NNE5.1 kmh NNE 5.8 mph9.3 kmh 30.33 in1027.1 mb 0.00 in0.0 mm 0.00 in0.0 mm 0.00 in0.0 mm
09:26 AM 25.3°F-3.7°C 6.5°F-14.2°C 44% 6.3 mph WNW10.1 kmh WNW 6.3 mph10.1 kmh 30.33 in1027.1 mb 0.00 in0.0 mm 0.00 in0.0 mm 0.00 in0.0 mm
09:27 AM 25.2°F-3.8°C 6.4°F-14.2°C 44% 5.3 mph WSW8.5 kmh WSW 6.3 mph10.1 kmh 30.33 in1027.1 mb 0.00 in0.0 mm 0.00 in0.0 mm 0.00 in0.0 mm
09:28 AM 25.2°F-3.8°C 6.4°F-14.2°C 44% 2.7 mph SW4.3 kmh SW 6.3 mph10.1 kmh 30.33 in1027.1 mb 0.00 in0.0 mm 0.00 in0.0 mm 0.00 in0.0 mm
09:29 AM 25.2°F-3.8°C 6.9°F-13.9°C 45% 3.7 mph SSE6.0 kmh SSE 6.3 mph10.1 kmh 30.33 in1027.1 mb 0.00 in0.0 mm 0.00 in0.0 mm 0.00 in0.0 mm
09:30 AM 25.2°F-3.8°C 6.9°F-13.9°C 45% 2.2 mph S3.5 kmh S 6.3 mph10.1 kmh 30.33 in1027.1 mb 0.00 in0.0 mm 0.00 in0.0 mm 0.00 in0.0 mm
09:31 AM 25.3°F-3.7°C 6.5°F-14.2°C 44% 3.7 mph WNW6.0 kmh WNW 6.3 mph10.1 kmh 30.33 in1027.1 mb 0.00 in0.0 mm 0.00 in0.0 mm 0.00 in0.0 mm
09:32 AM 25.3°F-3.7°C 6.5°F-14.2°C 44% 2.7 mph WSW4.3 kmh WSW 6.3 mph10.1 kmh 30.33 in1027.1 mb 0.00 in0.0 mm 0.00 in0.0 mm 0.00 in0.0 mm
09:33 AM 25.5°F-3.6°C 7.2°F-13.8°C 45% 3.2 mph SE5.1 kmh SE 6.3 mph10.1 kmh 30.33 in1027.1 mb 0.00 in0.0 mm 0.00 in0.0 mm 0.00 in0.0 mm
09:34 AM 25.5°F-3.6°C 7.2°F-13.8°C 45% 2.2 mph SSW3.5 kmh SSW 6.3 mph10.1 kmh 30.33 in1027.1 mb 0.00 in0.0 mm 0.00 in0.0 mm 0.00 in0.0 mm
09:35 AM 25.5°F-3.6°C 7.2°F-13.8°C 45% 2.7 mph NNW4.3 kmh NNW 6.3 mph10.1 kmh 30.33 in1027.1 mb 0.00 in0.0 mm 0.00 in0.0 mm 0.00 in0.0 mm
09:36 AM 25.5°F-3.6°C 6.7°F-14.1°C 44% 4.2 mph NNW6.8 kmh NNW 6.3 mph10.1 kmh 30.33 in1027.1 mb 0.00 in0.0 mm 0.00 in0.0 mm 0.00 in0.0 mm
09:37 AM 25.3°F-3.7°C 6.5°F-14.2°C 44% 2.7 mph ESE4.3 kmh ESE 5.3 mph8.5 kmh 30.33 in1027.1 mb 0.00 in0.0 mm 0.00 in0.0 mm 0.00 in0.0 mm
09:38 AM 25.5°F-3.6°C 7.2°F-13.8°C 45% 2.2 mph E3.5 kmh E 5.3 mph8.5 kmh 30.33 in1027.1 mb 0.00 in0.0 mm 0.00 in0.0 mm 0.00 in0.0 mm
09:39 AM 25.5°F-3.6°C 6.7°F-14.1°C 44% 4.2 mph SW6.8 kmh SW 5.3 mph8.5 kmh 30.33 in1027.1 mb 0.00 in0.0 mm 0.00 in0.0 mm 0.00 in0.0 mm
09:40 AM 25.5°F-3.6°C 6.7°F-14.1°C 44% 2.2 mph E3.5 kmh E 5.3 mph8.5 kmh 30.33 in1027.1 mb 0.00 in0.0 mm 0.00 in0.0 mm 0.00 in0.0 mm
09:41 AM 25.5°F-3.6°C 6.7°F-14.1°C 44% 3.2 mph WNW5.1 kmh WNW 5.3 mph8.5 kmh 30.32 in1026.8 mb 0.00 in0.0 mm 0.00 in0.0 mm 0.00 in0.0 mm
09:42 AM 25.7°F-3.5°C 6.8°F-14.0°C 44% 2.2 mph S3.5 kmh S 4.7 mph7.6 kmh 30.32 in1026.8 mb 0.00 in0.0 mm 0.00 in0.0 mm 0.00 in0.0 mm
09:43 AM 25.7°F-3.5°C 6.8°F-14.0°C 44% 3.2 mph W5.1 kmh W 4.7 mph7.6 kmh 30.32 in1026.8 mb 0.00 in0.0 mm 0.00 in0.0 mm 0.00 in0.0 mm
09:44 AM 25.7°F-3.5°C 6.8°F-14.0°C 44% 2.2 mph SE3.5 kmh SE 4.7 mph7.6 kmh 30.32 in1026.8 mb 0.00 in0.0 mm 0.00 in0.0 mm 0.00 in0.0 mm
09:45 AM 25.7°F-3.5°C 6.8°F-14.0°C 44% 2.7 mph ENE4.3 kmh ENE 4.7 mph7.6 kmh 30.32 in1026.8 mb 0.00 in0.0 mm 0.00 in0.0 mm 0.00 in0.0 mm
09:46 AM 25.9°F-3.4°C 7.5°F-13.6°C 45% 2.2 mph NW3.5 kmh NW 4.7 mph7.6 kmh 30.32 in1026.8 mb 0.00 in0.0 mm 0.00 in0.0 mm 0.00 in0.0 mm
09:47 AM 25.9°F-3.4°C 7.0°F-13.9°C 44% 1.7 mph WNW2.7 kmh WNW 4.2 mph6.8 kmh 30.32 in1026.8 mb 0.00 in0.0 mm 0.00 in0.0 mm 0.00 in0.0 mm
09:48 AM 26.1°F-3.3°C 7.2°F-13.8°C 44% 2.2 mph W3.5 kmh W 4.2 mph6.8 kmh 30.32 in1026.8 mb 0.00 in0.0 mm 0.00 in0.0 mm 0.00 in0.0 mm
09:49 AM 26.1°F-3.3°C 7.2°F-13.8°C 44% 6.3 mph W10.1 kmh W 6.3 mph10.1 kmh 30.32 in1026.8 mb 0.00 in0.0 mm 0.00 in0.0 mm 0.00 in0.0 mm
09:50 AM 26.1°F-3.3°C 7.2°F-13.8°C 44% 3.2 mph S5.1 kmh S 6.3 mph10.1 kmh 30.32 in1026.8 mb 0.00 in0.0 mm 0.00 in0.0 mm 0.00 in0.0 mm
09:51 AM 26.2°F-3.2°C 7.3°F-13.7°C 44% 3.7 mph NNW6.0 kmh NNW 6.3 mph10.1 kmh 30.32 in1026.8 mb 0.00 in0.0 mm 0.00 in0.0 mm 0.00 in0.0 mm
09:52 AM 26.2°F-3.2°C 6.8°F-14.0°C 43% 1.7 mph W2.7 kmh W 6.3 mph10.1 kmh 30.32 in1026.8 mb 0.00 in0.0 mm 0.00 in0.0 mm 0.00 in0.0 mm
09:53 AM 26.4°F-3.1°C 7.0°F-13.9°C 43% 3.7 mph S6.0 kmh S 6.3 mph10.1 kmh 30.32 in1026.8 mb 0.00 in0.0 mm 0.00 in0.0 mm 0.00 in0.0 mm
09:54 AM 26.4°F-3.1°C 7.5°F-13.6°C 44% 4.7 mph W7.6 kmh W 6.3 mph10.1 kmh 30.32 in1026.8 mb 0.00 in0.0 mm 0.00 in0.0 mm 0.00 in0.0 mm
09:55 AM 26.4°F-3.1°C 7.5°F-13.6°C 44% 1.7 mph W2.7 kmh W 6.3 mph10.1 kmh 30.32 in1026.8 mb 0.00 in0.0 mm 0.00 in0.0 mm 0.00 in0.0 mm
09:56 AM 26.4°F-3.1°C 7.5°F-13.6°C 44% 1.7 mph SE2.7 kmh SE 6.3 mph10.1 kmh 30.32 in1026.8 mb 0.00 in0.0 mm 0.00 in0.0 mm 0.00 in0.0 mm
09:57 AM 26.8°F-2.9°C 7.8°F-13.4°C 44% 2.7 mph SSE4.3 kmh SSE 6.3 mph10.1 kmh 30.32 in1026.8 mb 0.00 in0.0 mm 0.00 in0.0 mm 0.00 in0.0 mm
09:58 AM 27.0°F-2.8°C 8.0°F-13.3°C 44% 3.2 mph ESE5.1 kmh ESE 6.3 mph10.1 kmh 30.32 in1026.8 mb 0.00 in0.0 mm 0.00 in0.0 mm 0.00 in0.0 mm
09:59 AM 27.0°F-2.8°C 8.0°F-13.3°C 44% 3.2 mph SW5.1 kmh SW 6.3 mph10.1 kmh 30.32 in1026.8 mb 0.00 in0.0 mm 0.00 in0.0 mm 0.00 in0.0 mm
10:00 AM 26.8°F-2.9°C 7.8°F-13.4°C 44% 2.2 mph E3.5 kmh E 4.7 mph7.6 kmh 30.32 in1026.8 mb 0.00 in0.0 mm 0.00 in0.0 mm 0.00 in0.0 mm
10:01 AM 27.1°F-2.7°C 7.6°F-13.6°C 43% 1.7 mph SW2.7 kmh SW 4.7 mph7.6 kmh 30.32 in1026.8 mb 0.00 in0.0 mm 0.00 in0.0 mm 0.00 in0.0 mm
10:02 AM 27.3°F-2.6°C 7.8°F-13.4°C 43% 4.2 mph SSW6.8 kmh SSW 4.7 mph7.6 kmh 30.32 in1026.8 mb 0.00 in0.0 mm 0.00 in0.0 mm 0.00 in0.0 mm
10:03 AM 27.3°F-2.6°C 7.8°F-13.4°C 43% 1.7 mph ESE2.7 kmh ESE 4.7 mph7.6 kmh 30.32 in1026.8 mb 0.00 in0.0 mm 0.00 in0.0 mm 0.00 in0.0 mm
10:04 AM 27.5°F-2.5°C 8.0°F-13.3°C 43% 2.2 mph E3.5 kmh E 4.7 mph7.6 kmh 30.32 in1026.8 mb 0.00 in0.0 mm 0.00 in0.0 mm 0.00 in0.0 mm
10:05 AM 27.5°F-2.5°C 8.0°F-13.3°C 43% 2.7 mph NW4.3 kmh NW 4.2 mph6.8 kmh 30.32 in1026.8 mb 0.00 in0.0 mm 0.00 in0.0 mm 0.00 in0.0 mm
10:06 AM 27.5°F-2.5°C 7.5°F-13.6°C 42% 3.7 mph NW6.0 kmh NW 4.2 mph6.8 kmh 30.32 in1026.8 mb 0.00 in0.0 mm 0.00 in0.0 mm 0.00 in0.0 mm
10:07 AM 27.7°F-2.4°C 7.6°F-13.6°C 42% 6.8 mph W10.9 kmh W 6.8 mph10.9 kmh 30.32 in1026.8 mb 0.00 in0.0 mm 0.00 in0.0 mm 0.00 in0.0 mm
10:08 AM 27.7°F-2.4°C 8.2°F-13.2°C 43% 3.2 mph W5.1 kmh W 6.8 mph10.9 kmh 30.32 in1026.8 mb 0.00 in0.0 mm 0.00 in0.0 mm 0.00 in0.0 mm
10:09 AM 27.9°F-2.3°C 7.8°F-13.4°C 42% 2.2 mph SE3.5 kmh SE 6.8 mph10.9 kmh 30.32 in1026.8 mb 0.00 in0.0 mm 0.00 in0.0 mm 0.00 in0.0 mm
10:10 AM 27.9°F-2.3°C 7.8°F-13.4°C 42% 8.3 mph SSW13.4 kmh SSW 8.3 mph13.4 kmh 30.32 in1026.8 mb 0.00 in0.0 mm 0.00 in0.0 mm 0.00 in0.0 mm
10:11 AM 28.0°F-2.2°C 7.9°F-13.4°C 42% 2.2 mph W3.5 kmh W 8.3 mph13.4 kmh 30.32 in1026.8 mb 0.00 in0.0 mm 0.00 in0.0 mm 0.00 in0.0 mm
10:12 AM 28.2°F-2.1°C 8.1°F-13.3°C 42% 3.2 mph W5.1 kmh W 8.3 mph13.4 kmh 30.32 in1026.8 mb 0.00 in0.0 mm 0.00 in0.0 mm 0.00 in0.0 mm
10:13 AM 28.2°F-2.1°C 8.1°F-13.3°C 42% 2.7 mph W4.3 kmh W 8.3 mph13.4 kmh 30.32 in1026.8 mb 0.00 in0.0 mm 0.00 in0.0 mm 0.00 in0.0 mm
10:14 AM 28.2°F-2.1°C 8.1°F-13.3°C 42% 3.2 mph S5.1 kmh S 8.3 mph13.4 kmh 30.32 in1026.8 mb 0.00 in0.0 mm 0.00 in0.0 mm 0.00 in0.0 mm
10:15 AM 28.6°F-1.9°C 8.5°F-13.1°C 42% 3.2 mph W5.1 kmh W 8.3 mph13.4 kmh 30.32 in1026.8 mb 0.00 in0.0 mm 0.00 in0.0 mm 0.00 in0.0 mm
10:16 AM 28.6°F-1.9°C 8.5°F-13.1°C 42% 2.2 mph W3.5 kmh W 8.3 mph13.4 kmh 30.32 in1026.8 mb 0.00 in0.0 mm 0.00 in0.0 mm 0.00 in0.0 mm
10:17 AM 28.8°F-1.8°C 8.6°F-13.0°C 42% 3.2 mph N5.1 kmh N 8.3 mph13.4 kmh 30.32 in1026.8 mb 0.00 in0.0 mm 0.00 in0.0 mm 0.00 in0.0 mm
10:18 AM 28.8°F-1.8°C 8.6°F-13.0°C 42% 2.2 mph S3.5 kmh S 8.3 mph13.4 kmh 30.32 in1026.8 mb 0.00 in0.0 mm 0.00 in0.0 mm 0.00 in0.0 mm
10:19 AM 29.1°F-1.6°C 8.4°F-13.1°C 41% 2.7 mph ESE4.3 kmh ESE 8.3 mph13.4 kmh 30.32 in1026.8 mb 0.00 in0.0 mm 0.00 in0.0 mm 0.00 in0.0 mm
10:20 AM 29.3°F-1.5°C 8.6°F-13.0°C 41% 1.7 mph SSE2.7 kmh SSE 8.3 mph13.4 kmh 30.32 in1026.8 mb 0.00 in0.0 mm 0.00 in0.0 mm 0.00 in0.0 mm
10:21 AM 29.7°F-1.3°C 8.4°F-13.1°C 40% 4.7 mph W7.6 kmh W 4.7 mph7.6 kmh 30.32 in1026.8 mb 0.00 in0.0 mm 0.00 in0.0 mm 0.00 in0.0 mm
10:22 AM 29.7°F-1.3°C 8.4°F-13.1°C 40% 2.7 mph WNW4.3 kmh WNW 4.7 mph7.6 kmh 30.32 in1026.8 mb 0.00 in0.0 mm 0.00 in0.0 mm 0.00 in0.0 mm
10:23 AM 29.7°F-1.3°C 8.4°F-13.1°C 40% 2.2 mph NNW3.5 kmh NNW 4.7 mph7.6 kmh 30.32 in1026.8 mb 0.00 in0.0 mm 0.00 in0.0 mm 0.00 in0.0 mm
10:24 AM 29.7°F-1.3°C 8.4°F-13.1°C 40% 3.2 mph W5.1 kmh W 4.7 mph7.6 kmh 30.32 in1026.8 mb 0.00 in0.0 mm 0.00 in0.0 mm 0.00 in0.0 mm
10:25 AM 29.8°F-1.2°C 8.5°F-13.1°C 40% 3.7 mph SSW6.0 kmh SSW 4.7 mph7.6 kmh 30.32 in1026.8 mb 0.00 in0.0 mm 0.00 in0.0 mm 0.00 in0.0 mm
10:26 AM 30.0°F-1.1°C 8.6°F-13.0°C 40% 3.7 mph SSW6.0 kmh SSW 4.7 mph7.6 kmh 30.32 in1026.8 mb 0.00 in0.0 mm 0.00 in0.0 mm 0.00 in0.0 mm
10:27 AM 30.0°F-1.1°C 8.6°F-13.0°C 40% 2.2 mph WSW3.5 kmh WSW 4.7 mph7.6 kmh 30.32 in1026.8 mb 0.00 in0.0 mm 0.00 in0.0 mm 0.00 in0.0 mm
10:28 AM 30.2°F-1.0°C 9.4°F-12.6°C 41% 2.7 mph W4.3 kmh W 4.7 mph7.6 kmh 30.32 in1026.8 mb 0.00 in0.0 mm 0.00 in0.0 mm 0.00 in0.0 mm
10:29 AM 30.6°F-0.8°C 9.2°F-12.7°C 40% 5.8 mph W9.3 kmh W 5.8 mph9.3 kmh 30.32 in1026.8 mb 0.00 in0.0 mm 0.00 in0.0 mm 0.00 in0.0 mm
10:30 AM 30.6°F-0.8°C 9.2°F-12.7°C 40% 3.2 mph E5.1 kmh E 6.3 mph10.1 kmh 30.32 in1026.8 mb 0.00 in0.0 mm 0.00 in0.0 mm 0.00 in0.0 mm
10:31 AM 30.7°F-0.7°C 9.8°F-12.3°C 41% 1.7 mph W2.7 kmh W 6.3 mph10.1 kmh 30.32 in1026.8 mb 0.00 in0.0 mm 0.00 in0.0 mm 0.00 in0.0 mm
10:32 AM 30.9°F-0.6°C 10.0°F-12.2°C 41% 4.2 mph SSE6.8 kmh SSE 6.3 mph10.1 kmh 30.32 in1026.8 mb 0.00 in0.0 mm 0.00 in0.0 mm 0.00 in0.0 mm
10:33 AM 30.9°F-0.6°C 10.0°F-12.2°C 41% 4.7 mph SSE7.6 kmh SSE 6.3 mph10.1 kmh 30.32 in1026.8 mb 0.00 in0.0 mm 0.00 in0.0 mm 0.00 in0.0 mm
10:34 AM 31.1°F-0.5°C 9.6°F-12.4°C 40% 6.3 mph SSW10.1 kmh SSW 6.3 mph10.1 kmh 30.32 in1026.8 mb 0.00 in0.0 mm 0.00 in0.0 mm 0.00 in0.0 mm
10:35 AM 31.1°F-0.5°C 9.1°F-12.7°C 39% 2.2 mph SSW3.5 kmh SSW 6.3 mph10.1 kmh 30.32 in1026.8 mb 0.00 in0.0 mm 0.00 in0.0 mm 0.00 in0.0 mm
10:36 AM 30.9°F-0.6°C 9.5°F-12.5°C 40% 2.7 mph W4.3 kmh W 6.3 mph10.1 kmh 30.32 in1026.8 mb 0.00 in0.0 mm 0.00 in0.0 mm 0.00 in0.0 mm
10:37 AM 30.9°F-0.6°C 9.5°F-12.5°C 40% 2.7 mph WNW4.3 kmh WNW 6.3 mph10.1 kmh 30.32 in1026.8 mb 0.00 in0.0 mm 0.00 in0.0 mm 0.00 in0.0 mm
10:38 AM 31.1°F-0.5°C 9.6°F-12.4°C 40% 4.7 mph W7.6 kmh W 6.3 mph10.1 kmh 30.32 in1026.8 mb 0.00 in0.0 mm 0.00 in0.0 mm 0.00 in0.0 mm
10:39 AM 31.1°F-0.5°C 10.2°F-12.1°C 41% 1.7 mph NNE2.7 kmh NNE 6.3 mph10.1 kmh 30.32 in1026.8 mb 0.00 in0.0 mm 0.00 in0.0 mm 0.00 in0.0 mm
10:40 AM 31.1°F-0.5°C 10.2°F-12.1°C 41% 5.3 mph SW8.5 kmh SW 6.3 mph10.1 kmh 30.32 in1026.8 mb 0.00 in0.0 mm 0.00 in0.0 mm 0.00 in0.0 mm
10:41 AM 31.3°F-0.4°C 10.4°F-12.0°C 41% 6.3 mph SW10.1 kmh SW 6.3 mph10.1 kmh 30.31 in1026.4 mb 0.00 in0.0 mm 0.00 in0.0 mm 0.00 in0.0 mm
10:42 AM 31.5°F-0.3°C 10.5°F-11.9°C 41% 2.7 mph W4.3 kmh W 6.3 mph10.1 kmh 30.31 in1026.4 mb 0.00 in0.0 mm 0.00 in0.0 mm 0.00 in0.0 mm
10:43 AM 31.6°F-0.2°C 10.1°F-12.2°C 40% 4.2 mph WNW6.8 kmh WNW 6.3 mph10.1 kmh 30.31 in1026.4 mb 0.00 in0.0 mm 0.00 in0.0 mm 0.00 in0.0 mm
10:44 AM 32.0°F0.0°C 10.4°F-12.0°C 40% 2.7 mph SW4.3 kmh SW 6.8 mph10.9 kmh 30.31 in1026.4 mb 0.00 in0.0 mm 0.00 in0.0 mm 0.00 in0.0 mm
10:45 AM 31.8°F-0.1°C 10.3°F-12.1°C 40% 2.7 mph ESE4.3 kmh ESE 6.8 mph10.9 kmh 30.31 in1026.4 mb 0.00 in0.0 mm 0.00 in0.0 mm 0.00 in0.0 mm
10:46 AM 32.4°F0.2°C 10.8°F-11.8°C 40% 2.7 mph NW4.3 kmh NW 6.8 mph10.9 kmh 30.31 in1026.4 mb 0.00 in0.0 mm 0.00 in0.0 mm 0.00 in0.0 mm
10:47 AM 32.9°F0.5°C 10.7°F-11.8°C 39% 6.8 mph W10.9 kmh W 6.8 mph10.9 kmh 30.31 in1026.4 mb 0.00 in0.0 mm 0.00 in0.0 mm 0.00 in0.0 mm
10:48 AM 33.1°F0.6°C 10.9°F-11.7°C 39% 7.8 mph WSW12.6 kmh WSW 7.8 mph12.6 kmh 30.31 in1026.4 mb 0.00 in0.0 mm 0.00 in0.0 mm 0.00 in0.0 mm
10:49 AM 33.1°F0.6°C 10.9°F-11.7°C 39% 6.3 mph ESE10.1 kmh ESE 8.9 mph14.3 kmh 30.31 in1026.4 mb 0.00 in0.0 mm 0.00 in0.0 mm 0.00 in0.0 mm
10:50 AM 33.1°F0.6°C 10.9°F-11.7°C 39% 3.7 mph WNW6.0 kmh WNW 8.9 mph14.3 kmh 30.31 in1026.4 mb 0.00 in0.0 mm 0.00 in0.0 mm 0.00 in0.0 mm
10:51 AM 33.1°F0.6°C 11.4°F-11.4°C 40% 4.7 mph W7.6 kmh W 8.9 mph14.3 kmh 30.31 in1026.4 mb 0.00 in0.0 mm 0.00 in0.0 mm 0.00 in0.0 mm
10:52 AM 33.1°F0.6°C 11.4°F-11.4°C 40% 2.2 mph WNW3.5 kmh WNW 8.9 mph14.3 kmh 30.31 in1026.4 mb 0.00 in0.0 mm 0.00 in0.0 mm 0.00 in0.0 mm
10:53 AM 33.4°F0.8°C 11.7°F-11.3°C 40% 3.7 mph W6.0 kmh W 8.9 mph14.3 kmh 30.31 in1026.4 mb 0.00 in0.0 mm 0.00 in0.0 mm 0.00 in0.0 mm
10:54 AM 33.8°F1.0°C 12.1°F-11.1°C 40% 3.2 mph W5.1 kmh W 8.9 mph14.3 kmh 30.31 in1026.4 mb 0.00 in0.0 mm 0.00 in0.0 mm 0.00 in0.0 mm
10:55 AM 34.0°F1.1°C 12.2°F-11.0°C 40% 6.3 mph W10.1 kmh W 8.9 mph14.3 kmh 30.31 in1026.4 mb 0.00 in0.0 mm 0.00 in0.0 mm 0.00 in0.0 mm
10:56 AM 34.2°F1.2°C 11.9°F-11.2°C 39% 6.8 mph W10.9 kmh W 8.9 mph14.3 kmh 30.31 in1026.4 mb 0.00 in0.0 mm 0.00 in0.0 mm 0.00 in0.0 mm
10:57 AM 34.2°F1.2°C 12.4°F-10.9°C 40% 1.7 mph SSE2.7 kmh SSE 8.9 mph14.3 kmh 30.31 in1026.4 mb 0.00 in0.0 mm 0.00 in0.0 mm 0.00 in0.0 mm
10:58 AM 34.3°F1.3°C 12.5°F-10.8°C 40% 4.7 mph SSW7.6 kmh SSW 8.9 mph14.3 kmh 30.31 in1026.4 mb 0.00 in0.0 mm 0.00 in0.0 mm 0.00 in0.0 mm
10:59 AM 34.7°F1.5°C 12.9°F-10.6°C 40% 2.2 mph ESE3.5 kmh ESE 6.8 mph10.9 kmh 30.31 in1026.4 mb 0.00 in0.0 mm 0.00 in0.0 mm 0.00 in0.0 mm
11:00 AM 35.1°F1.7°C 12.7°F-10.7°C 39% 5.3 mph W8.5 kmh W 6.8 mph10.9 kmh 30.31 in1026.4 mb 0.00 in0.0 mm 0.00 in0.0 mm 0.00 in0.0 mm
11:01 AM 35.2°F1.8°C 12.8°F-10.7°C 39% 1.7 mph SW2.7 kmh SW 6.8 mph10.9 kmh 30.31 in1026.4 mb 0.00 in0.0 mm 0.00 in0.0 mm 0.00 in0.0 mm
11:02 AM 35.4°F1.9°C 14.1°F-9.9°C 41% 2.7 mph W4.3 kmh W 6.8 mph10.9 kmh 30.31 in1026.4 mb 0.00 in0.0 mm 0.00 in0.0 mm 0.00 in0.0 mm
11:03 AM 35.6°F2.0°C 14.3°F-9.8°C 41% 2.7 mph ESE4.3 kmh ESE 6.8 mph10.9 kmh 30.31 in1026.4 mb 0.00 in0.0 mm 0.00 in0.0 mm 0.00 in0.0 mm
11:04 AM 36.1°F2.3°C 14.7°F-9.6°C 41% 3.2 mph WNW5.1 kmh WNW 6.8 mph10.9 kmh 30.31 in1026.4 mb 0.00 in0.0 mm 0.00 in0.0 mm 0.00 in0.0 mm
11:05 AM 36.0°F2.2°C 14.6°F-9.7°C 41% 4.2 mph WNW6.8 kmh WNW 6.8 mph10.9 kmh 30.30 in1026.1 mb 0.00 in0.0 mm 0.00 in0.0 mm 0.00 in0.0 mm
11:06 AM 36.0°F2.2°C 14.6°F-9.7°C 41% 4.7 mph E7.6 kmh E 6.8 mph10.9 kmh 30.30 in1026.1 mb 0.00 in0.0 mm 0.00 in0.0 mm 0.00 in0.0 mm
11:07 AM 36.1°F2.3°C 14.7°F-9.6°C 41% 3.2 mph NNE5.1 kmh NNE 5.3 mph8.5 kmh 30.30 in1026.1 mb 0.00 in0.0 mm 0.00 in0.0 mm 0.00 in0.0 mm
11:08 AM 36.1°F2.3°C 14.7°F-9.6°C 41% 2.2 mph ESE3.5 kmh ESE 5.3 mph8.5 kmh 30.30 in1026.1 mb 0.00 in0.0 mm 0.00 in0.0 mm 0.00 in0.0 mm
11:09 AM 36.1°F2.3°C 14.7°F-9.6°C 41% 2.7 mph NW4.3 kmh NW 5.3 mph8.5 kmh 30.30 in1026.1 mb 0.00 in0.0 mm 0.00 in0.0 mm 0.00 in0.0 mm
11:10 AM 36.5°F2.5°C 15.1°F-9.4°C 41% 2.2 mph NE3.5 kmh NE 5.3 mph8.5 kmh 30.30 in1026.1 mb 0.00 in0.0 mm 0.00 in0.0 mm 0.00 in0.0 mm
11:11 AM 36.7°F2.6°C 15.8°F-9.0°C 42% 3.7 mph NNE6.0 kmh NNE 8.3 mph13.4 kmh 30.30 in1026.1 mb 0.00 in0.0 mm 0.00 in0.0 mm 0.00 in0.0 mm
11:12 AM 36.7°F2.6°C 15.8°F-9.0°C 42% 5.3 mph SSW8.5 kmh SSW 8.3 mph13.4 kmh 30.30 in1026.1 mb 0.00 in0.0 mm 0.00 in0.0 mm 0.00 in0.0 mm
11:13 AM 36.9°F2.7°C 16.0°F-8.9°C 42% 8.3 mph SW13.4 kmh SW 8.3 mph13.4 kmh 30.30 in1026.1 mb 0.00 in0.0 mm 0.00 in0.0 mm 0.00 in0.0 mm
11:14 AM 36.9°F2.7°C 16.0°F-8.9°C 42% 4.2 mph W6.8 kmh W 8.3 mph13.4 kmh 30.30 in1026.1 mb 0.00 in0.0 mm 0.00 in0.0 mm 0.00 in0.0 mm
11:15 AM 37.4°F3.0°C 16.4°F-8.7°C 42% 7.3 mph W11.7 kmh W 8.3 mph13.4 kmh 30.30 in1026.1 mb 0.00 in0.0 mm 0.00 in0.0 mm 0.00 in0.0 mm
11:16 AM 37.6°F3.1°C 16.6°F-8.6°C 42% 6.8 mph WSW10.9 kmh WSW 8.3 mph13.4 kmh 30.30 in1026.1 mb 0.00 in0.0 mm 0.00 in0.0 mm 0.00 in0.0 mm
11:17 AM 37.6°F3.1°C 16.6°F-8.6°C 42% 4.7 mph W7.6 kmh W 8.3 mph13.4 kmh 30.30 in1026.1 mb 0.00 in0.0 mm 0.00 in0.0 mm 0.00 in0.0 mm
11:18 AM 37.8°F3.2°C 16.8°F-8.4°C 42% 6.3 mph W10.1 kmh W 8.3 mph13.4 kmh 30.30 in1026.1 mb 0.00 in0.0 mm 0.00 in0.0 mm 0.00 in0.0 mm
11:19 AM 37.9°F3.3°C 17.4°F-8.1°C 43% 2.7 mph NW4.3 kmh NW 8.3 mph13.4 kmh 30.30 in1026.1 mb 0.00 in0.0 mm 0.00 in0.0 mm 0.00 in0.0 mm
11:20 AM 37.9°F3.3°C 17.4°F-8.1°C 43% 3.2 mph ESE5.1 kmh ESE 8.3 mph13.4 kmh 30.30 in1026.1 mb 0.00 in0.0 mm 0.00 in0.0 mm 0.00 in0.0 mm
11:21 AM 38.1°F3.4°C 17.6°F-8.0°C 43% 1.7 mph W2.7 kmh W 8.3 mph13.4 kmh 30.30 in1026.1 mb 0.00 in0.0 mm 0.00 in0.0 mm 0.00 in0.0 mm
11:22 AM 38.3°F3.5°C 17.8°F-7.9°C 43% 5.3 mph W8.5 kmh W 8.3 mph13.4 kmh 30.30 in1026.1 mb 0.00 in0.0 mm 0.00 in0.0 mm 0.00 in0.0 mm
11:23 AM 38.7°F3.7°C 18.7°F-7.4°C 44% 1.7 mph SSW2.7 kmh SSW 8.3 mph13.4 kmh 30.30 in1026.1 mb 0.00 in0.0 mm 0.00 in0.0 mm 0.00 in0.0 mm
11:24 AM 39.0°F3.9°C 19.0°F-7.2°C 44% 3.7 mph W6.0 kmh W 7.3 mph11.7 kmh 30.30 in1026.1 mb 0.00 in0.0 mm 0.00 in0.0 mm 0.00 in0.0 mm
11:25 AM 39.0°F3.9°C 19.0°F-7.2°C 44% 4.2 mph WSW6.8 kmh WSW 7.3 mph11.7 kmh 30.30 in1026.1 mb 0.00 in0.0 mm 0.00 in0.0 mm 0.00 in0.0 mm
11:26 AM 39.0°F3.9°C 19.0°F-7.2°C 44% 4.2 mph W6.8 kmh W 6.8 mph10.9 kmh 30.30 in1026.1 mb 0.00 in0.0 mm 0.00 in0.0 mm 0.00 in0.0 mm
11:27 AM 39.0°F3.9°C 19.5°F-6.9°C 45% 3.7 mph SW6.0 kmh SW 6.3 mph10.1 kmh 30.30 in1026.1 mb 0.00 in0.0 mm 0.00 in0.0 mm 0.00 in0.0 mm
11:28 AM 39.4°F4.1°C 19.8°F-6.8°C 45% 4.7 mph W7.6 kmh W 6.3 mph10.1 kmh 30.30 in1026.1 mb 0.00 in0.0 mm 0.00 in0.0 mm 0.00 in0.0 mm
11:29 AM 39.4°F4.1°C 20.4°F-6.4°C 46% 4.7 mph W7.6 kmh W 5.8 mph9.3 kmh 30.29 in1025.7 mb 0.00 in0.0 mm 0.00 in0.0 mm 0.00 in0.0 mm
11:30 AM 39.6°F4.2°C 20.0°F-6.7°C 45% 6.8 mph WSW10.9 kmh WSW 6.8 mph10.9 kmh 30.29 in1025.7 mb 0.00 in0.0 mm 0.00 in0.0 mm 0.00 in0.0 mm
11:31 AM 39.7°F4.3°C 20.1°F-6.6°C 45% 3.7 mph S6.0 kmh S 6.8 mph10.9 kmh 30.29 in1025.7 mb 0.00 in0.0 mm 0.00 in0.0 mm 0.00 in0.0 mm
11:32 AM 40.1°F4.5°C 20.5°F-6.4°C 45% 5.3 mph W8.5 kmh W 10.4 mph16.7 kmh 30.29 in1025.7 mb 0.00 in0.0 mm 0.00 in0.0 mm 0.00 in0.0 mm
11:33 AM 39.9°F4.4°C 20.8°F-6.2°C 46% 7.8 mph ESE12.6 kmh ESE 10.4 mph16.7 kmh 30.29 in1025.7 mb 0.00 in0.0 mm 0.00 in0.0 mm 0.00 in0.0 mm
11:34 AM 39.7°F4.3°C 21.1°F-6.1°C 47% 3.2 mph W5.1 kmh W 10.4 mph16.7 kmh 30.29 in1025.7 mb 0.00 in0.0 mm 0.00 in0.0 mm 0.00 in0.0 mm
11:35 AM 39.9°F4.4°C 21.3°F-5.9°C 47% 3.2 mph N5.1 kmh N 10.4 mph16.7 kmh 30.29 in1025.7 mb 0.00 in0.0 mm 0.00 in0.0 mm 0.00 in0.0 mm
11:36 AM 40.1°F4.5°C 21.5°F-5.8°C 47% 8.9 mph W14.3 kmh W 10.4 mph16.7 kmh 30.29 in1025.7 mb 0.00 in0.0 mm 0.00 in0.0 mm 0.00 in0.0 mm
11:37 AM 40.3°F4.6°C 21.7°F-5.7°C 47% 8.9 mph W14.3 kmh W 10.4 mph16.7 kmh 30.29 in1025.7 mb 0.00 in0.0 mm 0.00 in0.0 mm 0.00 in0.0 mm
11:38 AM 40.5°F4.7°C 21.9°F-5.6°C 47% 8.9 mph WSW14.3 kmh WSW 10.4 mph16.7 kmh 30.29 in1025.7 mb 0.00 in0.0 mm 0.00 in0.0 mm 0.00 in0.0 mm
11:39 AM 40.3°F4.6°C 21.7°F-5.7°C 47% 9.4 mph S15.1 kmh S 10.4 mph16.7 kmh 30.29 in1025.7 mb 0.00 in0.0 mm 0.00 in0.0 mm 0.00 in0.0 mm
11:40 AM 40.3°F4.6°C 22.2°F-5.4°C 48% 4.7 mph W7.6 kmh W 10.4 mph16.7 kmh 30.29 in1025.7 mb 0.00 in0.0 mm 0.00 in0.0 mm 0.00 in0.0 mm
11:41 AM 40.3°F4.6°C 22.2°F-5.4°C 48% 5.8 mph WNW9.3 kmh WNW 10.4 mph16.7 kmh 30.28 in1025.4 mb 0.00 in0.0 mm 0.00 in0.0 mm 0.00 in0.0 mm
11:42 AM 40.5°F4.7°C 22.4°F-5.3°C 48% 7.8 mph W12.6 kmh W 10.4 mph16.7 kmh 30.28 in1025.4 mb 0.00 in0.0 mm 0.00 in0.0 mm 0.00 in0.0 mm
11:43 AM 40.6°F4.8°C 22.5°F-5.3°C 48% 13.5 mph W21.7 kmh W 16.6 mph26.7 kmh 30.28 in1025.4 mb 0.00 in0.0 mm 0.00 in0.0 mm 0.00 in0.0 mm
11:44 AM 40.6°F4.8°C 22.5°F-5.3°C 48% 7.8 mph W12.6 kmh W 16.6 mph26.7 kmh 30.28 in1025.4 mb 0.00 in0.0 mm 0.00 in0.0 mm 0.00 in0.0 mm
11:45 AM 40.5°F4.7°C 22.4°F-5.3°C 48% 5.3 mph W8.5 kmh W 16.6 mph26.7 kmh 30.28 in1025.4 mb 0.00 in0.0 mm 0.00 in0.0 mm 0.00 in0.0 mm
11:46 AM 40.5°F4.7°C 22.4°F-5.3°C 48% 7.8 mph W12.6 kmh W 16.6 mph26.7 kmh 30.28 in1025.4 mb 0.00 in0.0 mm 0.00 in0.0 mm 0.00 in0.0 mm
11:47 AM 40.6°F4.8°C 22.5°F-5.3°C 48% 4.7 mph WSW7.6 kmh WSW 16.6 mph26.7 kmh 30.28 in1025.4 mb 0.00 in0.0 mm 0.00 in0.0 mm 0.00 in0.0 mm
11:48 AM 40.8°F4.9°C 22.6°F-5.2°C 48% 4.7 mph SSE7.6 kmh SSE 16.6 mph26.7 kmh 30.28 in1025.4 mb 0.00 in0.0 mm 0.00 in0.0 mm 0.00 in0.0 mm
11:49 AM 40.8°F4.9°C 22.6°F-5.2°C 48% 4.2 mph SW6.8 kmh SW 16.6 mph26.7 kmh 30.28 in1025.4 mb 0.00 in0.0 mm 0.00 in0.0 mm 0.00 in0.0 mm
11:50 AM 41.0°F5.0°C 22.8°F-5.1°C 48% 4.2 mph NW6.8 kmh NW 16.6 mph26.7 kmh 30.28 in1025.4 mb 0.00 in0.0 mm 0.00 in0.0 mm 0.00 in0.0 mm
11:51 AM 41.0°F5.0°C 22.8°F-5.1°C 48% 5.3 mph WNW8.5 kmh WNW 16.6 mph26.7 kmh 30.28 in1025.4 mb 0.00 in0.0 mm 0.00 in0.0 mm 0.00 in0.0 mm
11:52 AM 41.2°F5.1°C 23.0°F-5.0°C 48% 4.2 mph W6.8 kmh W 16.6 mph26.7 kmh 30.28 in1025.4 mb 0.00 in0.0 mm 0.00 in0.0 mm 0.00 in0.0 mm
11:53 AM 41.2°F5.1°C 23.0°F-5.0°C 48% 5.8 mph W9.3 kmh W 13.5 mph21.7 kmh 30.28 in1025.4 mb 0.00 in0.0 mm 0.00 in0.0 mm 0.00 in0.0 mm
11:54 AM 41.4°F5.2°C 23.7°F-4.6°C 49% 2.2 mph WNW3.5 kmh WNW 8.3 mph13.4 kmh 30.28 in1025.4 mb 0.00 in0.0 mm 0.00 in0.0 mm 0.00 in0.0 mm
11:55 AM 41.5°F5.3°C 23.8°F-4.6°C 49% 2.7 mph WSW4.3 kmh WSW 7.8 mph12.6 kmh 30.28 in1025.4 mb 0.00 in0.0 mm 0.00 in0.0 mm 0.00 in0.0 mm
11:56 AM 41.7°F5.4°C 23.5°F-4.7°C 48% 3.7 mph W6.0 kmh W 8.9 mph14.3 kmh 30.28 in1025.4 mb 0.00 in0.0 mm 0.00 in0.0 mm 0.00 in0.0 mm
11:57 AM 41.7°F5.4°C 23.5°F-4.7°C 48% 4.7 mph ENE7.6 kmh ENE 8.9 mph14.3 kmh 30.28 in1025.4 mb 0.00 in0.0 mm 0.00 in0.0 mm 0.00 in0.0 mm
11:58 AM 41.7°F5.4°C 23.5°F-4.7°C 48% 10.4 mph SSE16.7 kmh SSE 10.4 mph16.7 kmh 30.28 in1025.4 mb 0.00 in0.0 mm 0.00 in0.0 mm 0.00 in0.0 mm
11:59 AM 41.9°F5.5°C 23.7°F-4.6°C 48% 5.8 mph WNW9.3 kmh WNW 10.4 mph16.7 kmh 30.28 in1025.4 mb 0.00 in0.0 mm 0.00 in0.0 mm 0.00 in0.0 mm
12:00 PM 42.1°F5.6°C 23.8°F-4.6°C 48% 4.7 mph W7.6 kmh W 10.4 mph16.7 kmh 30.28 in1025.4 mb 0.00 in0.0 mm 0.00 in0.0 mm 0.00 in0.0 mm
12:01 PM 42.1°F5.6°C 24.3°F-4.3°C 49% 3.2 mph NW5.1 kmh NW 10.4 mph16.7 kmh 30.28 in1025.4 mb 0.00 in0.0 mm 0.00 in0.0 mm 0.00 in0.0 mm
12:02 PM 42.1°F5.6°C 23.8°F-4.6°C 48% 6.8 mph W10.9 kmh W 10.4 mph16.7 kmh 30.28 in1025.4 mb 0.00 in0.0 mm 0.00 in0.0 mm 0.00 in0.0 mm
12:03 PM 42.1°F5.6°C 23.8°F-4.6°C 48% 2.2 mph W3.5 kmh W 10.4 mph16.7 kmh 30.28 in1025.4 mb 0.00 in0.0 mm 0.00 in0.0 mm 0.00 in0.0 mm
12:04 PM 42.8°F6.0°C 24.5°F-4.2°C 48% 7.8 mph W12.6 kmh W 10.4 mph16.7 kmh 30.28 in1025.4 mb 0.00 in0.0 mm 0.00 in0.0 mm 0.00 in0.0 mm
12:05 PM 42.8°F6.0°C 24.5°F-4.2°C 48% 7.8 mph W12.6 kmh W 10.4 mph16.7 kmh 30.28 in1025.4 mb 0.00 in0.0 mm 0.00 in0.0 mm 0.00 in0.0 mm
12:06 PM 42.8°F6.0°C 24.0°F-4.4°C 47% 5.8 mph S9.3 kmh S 13.0 mph20.9 kmh 30.28 in1025.4 mb 0.00 in0.0 mm 0.00 in0.0 mm 0.00 in0.0 mm
12:07 PM 42.8°F6.0°C 24.5°F-4.2°C 48% 6.8 mph NW10.9 kmh NW 13.0 mph20.9 kmh 30.28 in1025.4 mb 0.00 in0.0 mm 0.00 in0.0 mm 0.00 in0.0 mm
12:08 PM 42.6°F5.9°C 24.3°F-4.3°C 48% 16.6 mph W26.7 kmh W 16.6 mph26.7 kmh 30.28 in1025.4 mb 0.00 in0.0 mm 0.00 in0.0 mm 0.00 in0.0 mm
12:14 PM 42.6°F5.9°C 24.3°F-4.3°C 48% 8.9 mph W14.3 kmh W 16.6 mph26.7 kmh 30.28 in1025.4 mb 0.00 in0.0 mm 0.00 in0.0 mm 0.00 in0.0 mm
12:15 PM 43.0°F6.1°C 24.2°F-4.3°C 47% 7.8 mph W12.6 kmh W 16.6 mph26.7 kmh 30.28 in1025.4 mb 0.00 in0.0 mm 0.00 in0.0 mm 0.00 in0.0 mm
12:16 PM 43.0°F6.1°C 24.2°F-4.3°C 47% 4.7 mph NW7.6 kmh NW 16.6 mph26.7 kmh 30.28 in1025.4 mb 0.00 in0.0 mm 0.00 in0.0 mm 0.00 in0.0 mm
12:17 PM 43.2°F6.2°C 24.3°F-4.3°C 47% 8.9 mph W14.3 kmh W 16.6 mph26.7 kmh 30.27 in1025.1 mb 0.00 in0.0 mm 0.00 in0.0 mm 0.00 in0.0 mm
12:18 PM 43.2°F6.2°C 24.9°F-3.9°C 48% 5.3 mph W8.5 kmh W 16.6 mph26.7 kmh 30.27 in1025.1 mb 0.00 in0.0 mm 0.00 in0.0 mm 0.00 in0.0 mm
12:19 PM 43.3°F6.3°C 24.9°F-3.9°C 48% 4.2 mph W6.8 kmh W 10.4 mph16.7 kmh 30.27 in1025.1 mb 0.00 in0.0 mm 0.00 in0.0 mm 0.00 in0.0 mm
12:20 PM 43.5°F6.4°C 25.1°F-3.8°C 48% 8.9 mph W14.3 kmh W 10.4 mph16.7 kmh 30.27 in1025.1 mb 0.00 in0.0 mm 0.00 in0.0 mm 0.00 in0.0 mm
12:21 PM 43.5°F6.4°C 24.6°F-4.1°C 47% 8.3 mph W13.4 kmh W 10.4 mph16.7 kmh 30.27 in1025.1 mb 0.00 in0.0 mm 0.00 in0.0 mm 0.00 in0.0 mm
12:22 PM 43.5°F6.4°C 24.6°F-4.1°C 47% 4.7 mph WSW7.6 kmh WSW 10.4 mph16.7 kmh 30.27 in1025.1 mb 0.00 in0.0 mm 0.00 in0.0 mm 0.00 in0.0 mm
12:23 PM 43.5°F6.4°C 25.1°F-3.8°C 48% 4.7 mph S7.6 kmh S 10.4 mph16.7 kmh 30.27 in1025.1 mb 0.00 in0.0 mm 0.00 in0.0 mm 0.00 in0.0 mm
12:24 PM 43.9°F6.6°C 25.0°F-3.9°C 47% 13.5 mph W21.7 kmh W 13.5 mph21.7 kmh 30.27 in1025.1 mb 0.00 in0.0 mm 0.00 in0.0 mm 0.00 in0.0 mm
12:25 PM 43.9°F6.6°C 25.0°F-3.9°C 47% 7.8 mph NW12.6 kmh NW 13.5 mph21.7 kmh 30.27 in1025.1 mb 0.00 in0.0 mm 0.00 in0.0 mm 0.00 in0.0 mm
12:26 PM 44.1°F6.7°C 25.2°F-3.8°C 47% 8.9 mph W14.3 kmh W 13.5 mph21.7 kmh 30.27 in1025.1 mb 0.00 in0.0 mm 0.00 in0.0 mm 0.00 in0.0 mm
12:27 PM 44.1°F6.7°C 25.2°F-3.8°C 47% 8.3 mph W13.4 kmh W 13.5 mph21.7 kmh 30.27 in1025.1 mb 0.00 in0.0 mm 0.00 in0.0 mm 0.00 in0.0 mm
12:28 PM 43.9°F6.6°C 25.0°F-3.9°C 47% 5.8 mph W9.3 kmh W 13.5 mph21.7 kmh 30.26 in1024.7 mb 0.00 in0.0 mm 0.00 in0.0 mm 0.00 in0.0 mm
12:29 PM 44.2°F6.8°C 25.3°F-3.7°C 47% 7.3 mph W11.7 kmh W 13.5 mph21.7 kmh 30.26 in1024.7 mb 0.00 in0.0 mm 0.00 in0.0 mm 0.00 in0.0 mm
12:30 PM 44.4°F6.9°C 24.9°F-3.9°C 46% 5.3 mph W8.5 kmh W 13.5 mph21.7 kmh 30.26 in1024.7 mb 0.00 in0.0 mm 0.00 in0.0 mm 0.00 in0.0 mm
12:31 PM 44.6°F7.0°C 25.1°F-3.8°C 46% 6.8 mph W10.9 kmh W 13.5 mph21.7 kmh 30.26 in1024.7 mb 0.00 in0.0 mm 0.00 in0.0 mm 0.00 in0.0 mm
12:32 PM 44.6°F7.0°C 25.1°F-3.8°C 46% 9.4 mph WNW15.1 kmh WNW 13.5 mph21.7 kmh 30.26 in1024.7 mb 0.00 in0.0 mm 0.00 in0.0 mm 0.00 in0.0 mm
12:33 PM 45.0°F7.2°C 25.5°F-3.6°C 46% 11.9 mph W19.2 kmh W 13.5 mph21.7 kmh 30.26 in1024.7 mb 0.00 in0.0 mm 0.00 in0.0 mm 0.00 in0.0 mm
12:34 PM 45.0°F7.2°C 25.5°F-3.6°C 46% 8.9 mph W14.3 kmh W 11.9 mph19.2 kmh 30.26 in1024.7 mb 0.00 in0.0 mm 0.00 in0.0 mm 0.00 in0.0 mm
12:35 PM 44.6°F7.0°C 25.1°F-3.8°C 46% 5.8 mph WSW9.3 kmh WSW 11.9 mph19.2 kmh 30.26 in1024.7 mb 0.00 in0.0 mm 0.00 in0.0 mm 0.00 in0.0 mm
12:36 PM 44.4°F6.9°C 24.9°F-3.9°C 46% 6.8 mph W10.9 kmh W 11.9 mph19.2 kmh 30.26 in1024.7 mb 0.00 in0.0 mm 0.00 in0.0 mm 0.00 in0.0 mm
12:37 PM 44.6°F7.0°C 25.1°F-3.8°C 46% 10.4 mph W16.7 kmh W 15.5 mph24.9 kmh 30.26 in1024.7 mb 0.00 in0.0 mm 0.00 in0.0 mm 0.00 in0.0 mm
12:38 PM 44.4°F6.9°C 24.9°F-3.9°C 46% 8.3 mph W13.4 kmh W 15.5 mph24.9 kmh 30.26 in1024.7 mb 0.00 in0.0 mm 0.00 in0.0 mm 0.00 in0.0 mm
12:39 PM 44.6°F7.0°C 25.1°F-3.8°C 46% 3.2 mph NNE5.1 kmh NNE 15.5 mph24.9 kmh 30.26 in1024.7 mb 0.00 in0.0 mm 0.00 in0.0 mm 0.00 in0.0 mm
12:40 PM 44.8°F7.1°C 25.8°F-3.4°C 47% 4.2 mph ESE6.8 kmh ESE 15.5 mph24.9 kmh 30.25 in1024.4 mb 0.00 in0.0 mm 0.00 in0.0 mm 0.00 in0.0 mm
12:41 PM 45.1°F7.3°C 26.1°F-3.3°C 47% 8.9 mph W14.3 kmh W 15.5 mph24.9 kmh 30.25 in1024.4 mb 0.00 in0.0 mm 0.00 in0.0 mm 0.00 in0.0 mm
12:42 PM 44.6°F7.0°C 26.1°F-3.3°C 48% 3.2 mph W5.1 kmh W 15.5 mph24.9 kmh 30.25 in1024.4 mb 0.00 in0.0 mm 0.00 in0.0 mm 0.00 in0.0 mm
12:43 PM 44.8°F7.1°C 25.8°F-3.4°C 47% 2.2 mph W3.5 kmh W 15.5 mph24.9 kmh 30.25 in1024.4 mb 0.00 in0.0 mm 0.00 in0.0 mm 0.00 in0.0 mm
12:44 PM 45.0°F7.2°C 26.0°F-3.3°C 47% 2.2 mph NW3.5 kmh NW 15.5 mph24.9 kmh 30.25 in1024.4 mb 0.00 in0.0 mm 0.00 in0.0 mm 0.00 in0.0 mm
12:45 PM 45.7°F7.6°C 26.1°F-3.3°C 46% 2.7 mph WNW4.3 kmh WNW 15.5 mph24.9 kmh 30.25 in1024.4 mb 0.00 in0.0 mm 0.00 in0.0 mm 0.00 in0.0 mm
12:46 PM 45.7°F7.6°C 26.1°F-3.3°C 46% 2.7 mph WNW4.3 kmh WNW 15.5 mph24.9 kmh 30.25 in1024.4 mb 0.00 in0.0 mm 0.00 in0.0 mm 0.00 in0.0 mm
12:47 PM 45.9°F7.7°C 25.8°F-3.4°C 45% 4.2 mph S6.8 kmh S 10.9 mph17.5 kmh 30.25 in1024.4 mb 0.00 in0.0 mm 0.00 in0.0 mm 0.00 in0.0 mm
12:48 PM 45.5°F7.5°C 25.9°F-3.4°C 46% 3.2 mph W5.1 kmh W 10.9 mph17.5 kmh 30.25 in1024.4 mb 0.00 in0.0 mm 0.00 in0.0 mm 0.00 in0.0 mm
12:49 PM 45.7°F7.6°C 25.6°F-3.6°C 45% 5.3 mph NW8.5 kmh NW 10.9 mph17.5 kmh 30.25 in1024.4 mb 0.00 in0.0 mm 0.00 in0.0 mm 0.00 in0.0 mm
12:50 PM 45.1°F7.3°C 25.0°F-3.9°C 45% 4.2 mph W6.8 kmh W 10.9 mph17.5 kmh 30.25 in1024.4 mb 0.00 in0.0 mm 0.00 in0.0 mm 0.00 in0.0 mm
12:51 PM 45.1°F7.3°C 25.0°F-3.9°C 45% 8.3 mph NE13.4 kmh NE 10.9 mph17.5 kmh 30.25 in1024.4 mb 0.00 in0.0 mm 0.00 in0.0 mm 0.00 in0.0 mm
12:52 PM 45.3°F7.4°C 25.2°F-3.8°C 45% 2.7 mph WSW4.3 kmh WSW 10.9 mph17.5 kmh 30.25 in1024.4 mb 0.00 in0.0 mm 0.00 in0.0 mm 0.00 in0.0 mm
12:53 PM 45.3°F7.4°C 25.8°F-3.4°C 46% 1.7 mph SSE2.7 kmh SSE 10.9 mph17.5 kmh 30.25 in1024.4 mb 0.00 in0.0 mm 0.00 in0.0 mm 0.00 in0.0 mm
12:54 PM 46.2°F7.9°C 25.5°F-3.6°C 44% 3.7 mph SSW6.0 kmh SSW 10.9 mph17.5 kmh 30.25 in1024.4 mb 0.00 in0.0 mm 0.00 in0.0 mm 0.00 in0.0 mm
12:55 PM 46.4°F8.0°C 25.7°F-3.5°C 44% 4.2 mph NNE6.8 kmh NNE 10.9 mph17.5 kmh 30.25 in1024.4 mb 0.00 in0.0 mm 0.00 in0.0 mm 0.00 in0.0 mm
12:56 PM 46.2°F7.9°C 25.5°F-3.6°C 44% 4.7 mph SE7.6 kmh SE 10.9 mph17.5 kmh 30.25 in1024.4 mb 0.00 in0.0 mm 0.00 in0.0 mm 0.00 in0.0 mm
12:57 PM 46.2°F7.9°C 25.5°F-3.6°C 44% 6.8 mph W10.9 kmh W 9.9 mph15.9 kmh 30.25 in1024.4 mb 0.00 in0.0 mm 0.00 in0.0 mm 0.00 in0.0 mm
12:58 PM 45.9°F7.7°C 25.8°F-3.4°C 45% 8.3 mph S13.4 kmh S 9.9 mph15.9 kmh 30.25 in1024.4 mb 0.00 in0.0 mm 0.00 in0.0 mm 0.00 in0.0 mm
12:59 PM 45.7°F7.6°C 25.6°F-3.6°C 45% 8.3 mph W13.4 kmh W 9.9 mph15.9 kmh 30.25 in1024.4 mb 0.00 in0.0 mm 0.00 in0.0 mm 0.00 in0.0 mm
01:00 PM 45.5°F7.5°C 25.4°F-3.7°C 45% 5.8 mph W9.3 kmh W 9.9 mph15.9 kmh 30.25 in1024.4 mb 0.00 in0.0 mm 0.00 in0.0 mm 0.00 in0.0 mm
01:01 PM 45.3°F7.4°C 25.8°F-3.4°C 46% 6.3 mph ESE10.1 kmh ESE 9.9 mph15.9 kmh 30.25 in1024.4 mb 0.00 in0.0 mm 0.00 in0.0 mm 0.00 in0.0 mm
01:02 PM 45.5°F7.5°C 25.9°F-3.4°C 46% 2.2 mph SSW3.5 kmh SSW 8.9 mph14.3 kmh 30.25 in1024.4 mb 0.00 in0.0 mm 0.00 in0.0 mm 0.00 in0.0 mm
01:03 PM 45.7°F7.6°C 25.6°F-3.6°C 45% 5.3 mph W8.5 kmh W 8.9 mph14.3 kmh 30.25 in1024.4 mb 0.00 in0.0 mm 0.00 in0.0 mm 0.00 in0.0 mm
01:04 PM 45.9°F7.7°C 25.8°F-3.4°C 45% 5.8 mph SW9.3 kmh SW 8.9 mph14.3 kmh 30.25 in1024.4 mb 0.00 in0.0 mm 0.00 in0.0 mm 0.00 in0.0 mm
01:05 PM 45.5°F7.5°C 25.4°F-3.7°C 45% 5.8 mph WSW9.3 kmh WSW 8.9 mph14.3 kmh 30.25 in1024.4 mb 0.00 in0.0 mm 0.00 in0.0 mm 0.00 in0.0 mm
01:06 PM 45.7°F7.6°C 25.6°F-3.6°C 45% 5.3 mph SSE8.5 kmh SSE 8.9 mph14.3 kmh 30.25 in1024.4 mb 0.00 in0.0 mm 0.00 in0.0 mm 0.00 in0.0 mm
01:07 PM 45.7°F7.6°C 25.6°F-3.6°C 45% 6.8 mph W10.9 kmh W 8.9 mph14.3 kmh 30.25 in1024.4 mb 0.00 in0.0 mm 0.00 in0.0 mm 0.00 in0.0 mm
01:08 PM 45.5°F7.5°C 25.9°F-3.4°C 46% 3.2 mph WNW5.1 kmh WNW 8.9 mph14.3 kmh 30.25 in1024.4 mb 0.00 in0.0 mm 0.00 in0.0 mm 0.00 in0.0 mm
01:09 PM 45.9°F7.7°C 26.3°F-3.2°C 46% 6.8 mph SSE10.9 kmh SSE 8.9 mph14.3 kmh 30.25 in1024.4 mb 0.00 in0.0 mm 0.00 in0.0 mm 0.00 in0.0 mm
01:10 PM 46.2°F7.9°C 26.0°F-3.3°C 45% 6.8 mph W10.9 kmh W 8.9 mph14.3 kmh 30.25 in1024.4 mb 0.00 in0.0 mm 0.00 in0.0 mm 0.00 in0.0 mm
01:11 PM 46.6°F8.1°C 26.4°F-3.1°C 45% 6.8 mph WNW10.9 kmh WNW 8.9 mph14.3 kmh 30.25 in1024.4 mb 0.00 in0.0 mm 0.00 in0.0 mm 0.00 in0.0 mm
01:12 PM 46.2°F7.9°C 26.0°F-3.3°C 45% 13.5 mph W21.7 kmh W 13.5 mph21.7 kmh 30.25 in1024.4 mb 0.00 in0.0 mm 0.00 in0.0 mm 0.00 in0.0 mm
01:13 PM 46.0°F7.8°C 25.9°F-3.4°C 45% 7.3 mph SW11.7 kmh SW 13.5 mph21.7 kmh 30.25 in1024.4 mb 0.00 in0.0 mm 0.00 in0.0 mm 0.00 in0.0 mm
01:14 PM 45.7°F7.6°C 26.1°F-3.3°C 46% 2.2 mph W3.5 kmh W 13.5 mph21.7 kmh 30.25 in1024.4 mb 0.00 in0.0 mm 0.00 in0.0 mm 0.00 in0.0 mm
01:15 PM 45.7°F7.6°C 26.1°F-3.3°C 46% 1.1 mph SSW1.8 kmh SSW 13.5 mph21.7 kmh 30.25 in1024.4 mb 0.00 in0.0 mm 0.00 in0.0 mm 0.00 in0.0 mm
01:16 PM 46.2°F7.9°C 26.6°F-3.0°C 46% 4.2 mph ESE6.8 kmh ESE 13.5 mph21.7 kmh 30.25 in1024.4 mb 0.00 in0.0 mm 0.00 in0.0 mm 0.00 in0.0 mm
01:17 PM 46.4°F8.0°C 26.8°F-2.9°C 46% 6.8 mph W10.9 kmh W 13.5 mph21.7 kmh 30.24 in1024.0 mb 0.00 in0.0 mm 0.00 in0.0 mm 0.00 in0.0 mm
01:18 PM 46.4°F8.0°C 26.8°F-2.9°C 46% 4.7 mph SE7.6 kmh SE 13.5 mph21.7 kmh 30.24 in1024.0 mb 0.00 in0.0 mm 0.00 in0.0 mm 0.00 in0.0 mm
01:19 PM 46.2°F7.9°C 26.6°F-3.0°C 46% 2.7 mph NNW4.3 kmh NNW 13.5 mph21.7 kmh 30.24 in1024.0 mb 0.00 in0.0 mm 0.00 in0.0 mm 0.00 in0.0 mm
01:20 PM 45.9°F7.7°C 26.3°F-3.2°C 46% 2.7 mph W4.3 kmh W 13.5 mph21.7 kmh 30.24 in1024.0 mb 0.00 in0.0 mm 0.00 in0.0 mm 0.00 in0.0 mm
01:21 PM 45.9°F7.7°C 26.3°F-3.2°C 46% 5.3 mph SSW8.5 kmh SSW 13.5 mph21.7 kmh 30.24 in1024.0 mb 0.00 in0.0 mm 0.00 in0.0 mm 0.00 in0.0 mm
01:22 PM 45.9°F7.7°C 26.8°F-2.9°C 47% 2.2 mph WSW3.5 kmh WSW 11.4 mph18.3 kmh 30.24 in1024.0 mb 0.00 in0.0 mm 0.00 in0.0 mm 0.00 in0.0 mm
01:23 PM 45.9°F7.7°C 26.3°F-3.2°C 46% 3.2 mph ESE5.1 kmh ESE 9.4 mph15.1 kmh 30.24 in1024.0 mb 0.00 in0.0 mm 0.00 in0.0 mm 0.00 in0.0 mm
01:24 PM 45.9°F7.7°C 26.8°F-2.9°C 47% 2.7 mph ESE4.3 kmh ESE 9.4 mph15.1 kmh 30.24 in1024.0 mb 0.00 in0.0 mm 0.00 in0.0 mm 0.00 in0.0 mm
01:25 PM 46.2°F7.9°C 26.6°F-3.0°C 46% 5.8 mph W9.3 kmh W 9.4 mph15.1 kmh 30.24 in1024.0 mb 0.00 in0.0 mm 0.00 in0.0 mm 0.00 in0.0 mm
01:26 PM 46.0°F7.8°C 26.4°F-3.1°C 46% 2.2 mph SSE3.5 kmh SSE 9.4 mph15.1 kmh 30.24 in1024.0 mb 0.00 in0.0 mm 0.00 in0.0 mm 0.00 in0.0 mm
01:27 PM 45.9°F7.7°C 26.3°F-3.2°C 46% 4.2 mph NNW6.8 kmh NNW 9.4 mph15.1 kmh 30.24 in1024.0 mb 0.00 in0.0 mm 0.00 in0.0 mm 0.00 in0.0 mm
01:28 PM 46.0°F7.8°C 25.9°F-3.4°C 45% 2.2 mph W3.5 kmh W 7.3 mph11.7 kmh 30.24 in1024.0 mb 0.00 in0.0 mm 0.00 in0.0 mm 0.00 in0.0 mm
01:29 PM 46.0°F7.8°C 26.4°F-3.1°C 46% 2.2 mph WNW3.5 kmh WNW 7.3 mph11.7 kmh 30.24 in1024.0 mb 0.00 in0.0 mm 0.00 in0.0 mm 0.00 in0.0 mm
01:30 PM 46.4°F8.0°C 26.8°F-2.9°C 46% 2.7 mph W4.3 kmh W 7.3 mph11.7 kmh 30.24 in1024.0 mb 0.00 in0.0 mm 0.00 in0.0 mm 0.00 in0.0 mm
01:31 PM 46.6°F8.1°C 26.9°F-2.8°C 46% 6.8 mph W10.9 kmh W 7.3 mph11.7 kmh 30.24 in1024.0 mb 0.00 in0.0 mm 0.00 in0.0 mm 0.00 in0.0 mm
01:32 PM 46.8°F8.2°C 27.1°F-2.7°C 46% 2.7 mph W4.3 kmh W 7.8 mph12.6 kmh 30.24 in1024.0 mb 0.00 in0.0 mm 0.00 in0.0 mm 0.00 in0.0 mm
01:33 PM 46.6°F8.1°C 26.9°F-2.8°C 46% 4.2 mph W6.8 kmh W 7.8 mph12.6 kmh 30.24 in1024.0 mb 0.00 in0.0 mm 0.00 in0.0 mm 0.00 in0.0 mm
01:34 PM 46.4°F8.0°C 27.3°F-2.6°C 47% 9.4 mph WNW15.1 kmh WNW 9.9 mph15.9 kmh 30.24 in1024.0 mb 0.00 in0.0 mm 0.00 in0.0 mm 0.00 in0.0 mm
01:35 PM 46.6°F8.1°C 27.5°F-2.5°C 47% 2.7 mph WNW4.3 kmh WNW 9.9 mph15.9 kmh 30.24 in1024.0 mb 0.00 in0.0 mm 0.00 in0.0 mm 0.00 in0.0 mm
01:36 PM 46.8°F8.2°C 27.6°F-2.4°C 47% 9.9 mph WNW15.9 kmh WNW 9.9 mph15.9 kmh 30.24 in1024.0 mb 0.00 in0.0 mm 0.00 in0.0 mm 0.00 in0.0 mm
01:37 PM 46.8°F8.2°C 27.6°F-2.4°C 47% 7.8 mph SW12.6 kmh SW 9.9 mph15.9 kmh 30.24 in1024.0 mb 0.00 in0.0 mm 0.00 in0.0 mm 0.00 in0.0 mm
01:38 PM 46.6°F8.1°C 27.5°F-2.5°C 47% 3.7 mph NE6.0 kmh NE 9.9 mph15.9 kmh 30.24 in1024.0 mb 0.00 in0.0 mm 0.00 in0.0 mm 0.00 in0.0 mm
01:39 PM 47.1°F8.4°C 27.4°F-2.6°C 46% 2.7 mph W4.3 kmh W 9.9 mph15.9 kmh 30.24 in1024.0 mb 0.00 in0.0 mm 0.00 in0.0 mm 0.00 in0.0 mm
01:40 PM 46.9°F8.3°C 27.2°F-2.7°C 46% 1.1 mph W1.8 kmh W 9.9 mph15.9 kmh 30.24 in1024.0 mb 0.00 in0.0 mm 0.00 in0.0 mm 0.00 in0.0 mm
01:41 PM 47.3°F8.5°C 27.6°F-2.4°C 46% 3.2 mph S5.1 kmh S 9.9 mph15.9 kmh 30.23 in1023.7 mb 0.00 in0.0 mm 0.00 in0.0 mm 0.00 in0.0 mm
01:42 PM 47.3°F8.5°C 27.0°F-2.8°C 45% 5.8 mph W9.3 kmh W 9.9 mph15.9 kmh 30.23 in1023.7 mb 0.00 in0.0 mm 0.00 in0.0 mm 0.00 in0.0 mm
01:43 PM 47.3°F8.5°C 27.0°F-2.8°C 45% 5.8 mph W9.3 kmh W 9.9 mph15.9 kmh 30.23 in1023.7 mb 0.00 in0.0 mm 0.00 in0.0 mm 0.00 in0.0 mm
01:44 PM 46.9°F8.3°C 27.2°F-2.7°C 46% 5.3 mph WNW8.5 kmh WNW 9.9 mph15.9 kmh 30.23 in1023.7 mb 0.00 in0.0 mm 0.00 in0.0 mm 0.00 in0.0 mm
01:45 PM 47.5°F8.6°C 27.8°F-2.3°C 46% 3.2 mph W5.1 kmh W 9.9 mph15.9 kmh 30.23 in1023.7 mb 0.00 in0.0 mm 0.00 in0.0 mm 0.00 in0.0 mm
01:46 PM 47.3°F8.5°C 27.6°F-2.4°C 46% 5.3 mph S8.5 kmh S 9.9 mph15.9 kmh 30.23 in1023.7 mb 0.00 in0.0 mm 0.00 in0.0 mm 0.00 in0.0 mm
01:47 PM 47.1°F8.4°C 27.4°F-2.6°C 46% 4.7 mph W7.6 kmh W 9.4 mph15.1 kmh 30.23 in1023.7 mb 0.00 in0.0 mm 0.00 in0.0 mm 0.00 in0.0 mm
01:48 PM 46.9°F8.3°C 27.2°F-2.7°C 46% 6.8 mph SW10.9 kmh SW 9.4 mph15.1 kmh 30.23 in1023.7 mb 0.00 in0.0 mm 0.00 in0.0 mm 0.00 in0.0 mm
01:49 PM 46.9°F8.3°C 27.2°F-2.7°C 46% 5.8 mph S9.3 kmh S 9.4 mph15.1 kmh 30.23 in1023.7 mb 0.00 in0.0 mm 0.00 in0.0 mm 0.00 in0.0 mm
01:50 PM 47.5°F8.6°C 27.8°F-2.3°C 46% 3.7 mph WNW6.0 kmh WNW 9.4 mph15.1 kmh 30.23 in1023.7 mb 0.00 in0.0 mm 0.00 in0.0 mm 0.00 in0.0 mm
01:51 PM 47.5°F8.6°C 27.8°F-2.3°C 46% 4.7 mph W7.6 kmh W 9.4 mph15.1 kmh 30.23 in1023.7 mb 0.00 in0.0 mm 0.00 in0.0 mm 0.00 in0.0 mm
01:52 PM 47.5°F8.6°C 27.8°F-2.3°C 46% 7.3 mph W11.7 kmh W 9.4 mph15.1 kmh 30.23 in1023.7 mb 0.00 in0.0 mm 0.00 in0.0 mm 0.00 in0.0 mm
01:53 PM 47.7°F8.7°C 27.9°F-2.3°C 46% 5.8 mph NNE9.3 kmh NNE 9.4 mph15.1 kmh 30.23 in1023.7 mb 0.00 in0.0 mm 0.00 in0.0 mm 0.00 in0.0 mm
01:54 PM 47.8°F8.8°C 28.0°F-2.2°C 46% 6.3 mph W10.1 kmh W 9.4 mph15.1 kmh 30.23 in1023.7 mb 0.00 in0.0 mm 0.00 in0.0 mm 0.00 in0.0 mm
01:55 PM 47.7°F8.7°C 27.9°F-2.3°C 46% 5.8 mph W9.3 kmh W 9.9 mph15.9 kmh 30.23 in1023.7 mb 0.00 in0.0 mm 0.00 in0.0 mm 0.00 in0.0 mm
01:56 PM 47.3°F8.5°C 28.1°F-2.2°C 47% 6.3 mph W10.1 kmh W 9.9 mph15.9 kmh 30.23 in1023.7 mb 0.00 in0.0 mm 0.00 in0.0 mm 0.00 in0.0 mm
01:57 PM 47.3°F8.5°C 28.1°F-2.2°C 47% 8.9 mph WSW14.3 kmh WSW 9.9 mph15.9 kmh 30.23 in1023.7 mb 0.00 in0.0 mm 0.00 in0.0 mm 0.00 in0.0 mm
01:58 PM 47.3°F8.5°C 28.1°F-2.2°C 47% 6.8 mph W10.9 kmh W 9.9 mph15.9 kmh 30.23 in1023.7 mb 0.00 in0.0 mm 0.00 in0.0 mm 0.00 in0.0 mm
01:59 PM 47.1°F8.4°C 27.9°F-2.3°C 47% 5.3 mph ESE8.5 kmh ESE 9.9 mph15.9 kmh 30.23 in1023.7 mb 0.00 in0.0 mm 0.00 in0.0 mm 0.00 in0.0 mm
02:00 PM 46.9°F8.3°C 27.7°F-2.4°C 47% 6.3 mph SSW10.1 kmh SSW 9.9 mph15.9 kmh 30.23 in1023.7 mb 0.00 in0.0 mm 0.00 in0.0 mm 0.00 in0.0 mm
02:01 PM 46.6°F8.1°C 28.0°F-2.2°C 48% 12.5 mph W20.1 kmh W 12.5 mph20.1 kmh 30.23 in1023.7 mb 0.00 in0.0 mm 0.00 in0.0 mm 0.00 in0.0 mm
02:02 PM 46.6°F8.1°C 28.0°F-2.2°C 48% 8.3 mph NNW13.4 kmh NNW 12.5 mph20.1 kmh 30.23 in1023.7 mb 0.00 in0.0 mm 0.00 in0.0 mm 0.00 in0.0 mm
02:03 PM 46.6°F8.1°C 28.0°F-2.2°C 48% 2.7 mph W4.3 kmh W 12.5 mph20.1 kmh 30.23 in1023.7 mb 0.00 in0.0 mm 0.00 in0.0 mm 0.00 in0.0 mm
02:04 PM 46.4°F8.0°C 27.8°F-2.3°C 48% 7.3 mph W11.7 kmh W 12.5 mph20.1 kmh 30.23 in1023.7 mb 0.00 in0.0 mm 0.00 in0.0 mm 0.00 in0.0 mm
02:05 PM 46.2°F7.9°C 27.6°F-2.4°C 48% 4.7 mph NE7.6 kmh NE 12.5 mph20.1 kmh 30.22 in1023.4 mb 0.00 in0.0 mm 0.00 in0.0 mm 0.00 in0.0 mm
02:06 PM 46.2°F7.9°C 27.6°F-2.4°C 48% 7.3 mph E11.7 kmh E 12.5 mph20.1 kmh 30.22 in1023.4 mb 0.00 in0.0 mm 0.00 in0.0 mm 0.00 in0.0 mm
02:07 PM 46.4°F8.0°C 27.8°F-2.3°C 48% 1.7 mph W2.7 kmh W 12.5 mph20.1 kmh 30.22 in1023.4 mb 0.00 in0.0 mm 0.00 in0.0 mm 0.00 in0.0 mm
02:08 PM 46.4°F8.0°C 27.8°F-2.3°C 48% 2.2 mph NNE3.5 kmh NNE 12.5 mph20.1 kmh 30.22 in1023.4 mb 0.00 in0.0 mm 0.00 in0.0 mm 0.00 in0.0 mm
02:09 PM 46.4°F8.0°C 27.8°F-2.3°C 48% 4.2 mph S6.8 kmh S 12.5 mph20.1 kmh 30.22 in1023.4 mb 0.00 in0.0 mm 0.00 in0.0 mm 0.00 in0.0 mm
02:10 PM 46.4°F8.0°C 27.8°F-2.3°C 48% 3.2 mph SSW5.1 kmh SSW 12.5 mph20.1 kmh 30.22 in1023.4 mb 0.00 in0.0 mm 0.00 in0.0 mm 0.00 in0.0 mm
02:11 PM 46.2°F7.9°C 27.6°F-2.4°C 48% 4.2 mph W6.8 kmh W 12.5 mph20.1 kmh 30.22 in1023.4 mb 0.00 in0.0 mm 0.00 in0.0 mm 0.00 in0.0 mm
02:12 PM 46.2°F7.9°C 27.6°F-2.4°C 48% 3.2 mph SE5.1 kmh SE 7.8 mph12.6 kmh 30.22 in1023.4 mb 0.00 in0.0 mm 0.00 in0.0 mm 0.00 in0.0 mm
02:13 PM 46.4°F8.0°C 27.8°F-2.3°C 48% 6.3 mph SW10.1 kmh SW 7.8 mph12.6 kmh 30.22 in1023.4 mb 0.00 in0.0 mm 0.00 in0.0 mm 0.00 in0.0 mm
02:14 PM 46.4°F8.0°C 27.8°F-2.3°C 48% 7.3 mph W11.7 kmh W 7.8 mph12.6 kmh 30.22 in1023.4 mb 0.00 in0.0 mm 0.00 in0.0 mm 0.00 in0.0 mm
02:15 PM 46.4°F8.0°C 27.8°F-2.3°C 48% 6.8 mph W10.9 kmh W 7.8 mph12.6 kmh 30.22 in1023.4 mb 0.00 in0.0 mm 0.00 in0.0 mm 0.00 in0.0 mm
02:16 PM 46.4°F8.0°C 28.3°F-2.1°C 49% 2.7 mph SW4.3 kmh SW 7.3 mph11.7 kmh 30.22 in1023.4 mb 0.00 in0.0 mm 0.00 in0.0 mm 0.00 in0.0 mm
02:17 PM 46.4°F8.0°C 28.3°F-2.1°C 49% 1.1 mph E1.8 kmh E 7.3 mph11.7 kmh 30.22 in1023.4 mb 0.00 in0.0 mm 0.00 in0.0 mm 0.00 in0.0 mm
02:18 PM 46.6°F8.1°C 28.5°F-1.9°C 49% 3.7 mph NE6.0 kmh NE 7.3 mph11.7 kmh 30.22 in1023.4 mb 0.00 in0.0 mm 0.00 in0.0 mm 0.00 in0.0 mm
02:19 PM 46.6°F8.1°C 28.0°F-2.2°C 48% 4.7 mph W7.6 kmh W 7.3 mph11.7 kmh 30.22 in1023.4 mb 0.00 in0.0 mm 0.00 in0.0 mm 0.00 in0.0 mm
02:20 PM 46.8°F8.2°C 28.2°F-2.1°C 48% 6.3 mph W10.1 kmh W 8.3 mph13.4 kmh 30.22 in1023.4 mb 0.00 in0.0 mm 0.00 in0.0 mm 0.00 in0.0 mm
02:21 PM 46.8°F8.2°C 28.2°F-2.1°C 48% 10.4 mph SW16.7 kmh SW 10.9 mph17.5 kmh 30.22 in1023.4 mb 0.00 in0.0 mm 0.00 in0.0 mm 0.00 in0.0 mm
02:22 PM 46.8°F8.2°C 28.2°F-2.1°C 48% 5.3 mph ESE8.5 kmh ESE 10.9 mph17.5 kmh 30.22 in1023.4 mb 0.00 in0.0 mm 0.00 in0.0 mm 0.00 in0.0 mm
02:23 PM 46.8°F8.2°C 28.7°F-1.8°C 49% 1.7 mph NNW2.7 kmh NNW 10.9 mph17.5 kmh 30.22 in1023.4 mb 0.00 in0.0 mm 0.00 in0.0 mm 0.00 in0.0 mm
02:24 PM 46.8°F8.2°C 28.7°F-1.8°C 49% 2.7 mph WNW4.3 kmh WNW 10.9 mph17.5 kmh 30.22 in1023.4 mb 0.00 in0.0 mm 0.00 in0.0 mm 0.00 in0.0 mm
02:25 PM 46.9°F8.3°C 28.8°F-1.8°C 49% 6.8 mph W10.9 kmh W 10.9 mph17.5 kmh 30.22 in1023.4 mb 0.00 in0.0 mm 0.00 in0.0 mm 0.00 in0.0 mm
02:26 PM 47.3°F8.5°C 28.6°F-1.9°C 48% 2.7 mph NNW4.3 kmh NNW 10.9 mph17.5 kmh 30.22 in1023.4 mb 0.00 in0.0 mm 0.00 in0.0 mm 0.00 in0.0 mm
02:27 PM 47.1°F8.4°C 28.4°F-2.0°C 48% 3.2 mph WSW5.1 kmh WSW 10.9 mph17.5 kmh 30.22 in1023.4 mb 0.00 in0.0 mm 0.00 in0.0 mm 0.00 in0.0 mm
02:28 PM 46.9°F8.3°C 28.8°F-1.8°C 49% 5.3 mph W8.5 kmh W 10.9 mph17.5 kmh 30.22 in1023.4 mb 0.00 in0.0 mm 0.00 in0.0 mm 0.00 in0.0 mm
02:29 PM 46.8°F8.2°C 29.2°F-1.6°C 50% 3.2 mph W5.1 kmh W 10.9 mph17.5 kmh 30.21 in1023.0 mb 0.00 in0.0 mm 0.00 in0.0 mm 0.00 in0.0 mm
02:30 PM 46.9°F8.3°C 29.2°F-1.6°C 50% 2.2 mph NNW3.5 kmh NNW 10.9 mph17.5 kmh 30.21 in1023.0 mb 0.00 in0.0 mm 0.00 in0.0 mm 0.00 in0.0 mm
02:31 PM 47.1°F8.4°C 28.9°F-1.7°C 49% 5.3 mph SSW8.5 kmh SSW 6.8 mph10.9 kmh 30.21 in1023.0 mb 0.00 in0.0 mm 0.00 in0.0 mm 0.00 in0.0 mm
02:32 PM 46.9°F8.3°C 29.2°F-1.6°C 50% 4.7 mph SSW7.6 kmh SSW 6.8 mph10.9 kmh 30.21 in1023.0 mb 0.00 in0.0 mm 0.00 in0.0 mm 0.00 in0.0 mm
02:33 PM 46.9°F8.3°C 28.8°F-1.8°C 49% 6.8 mph WNW10.9 kmh WNW 6.8 mph10.9 kmh 30.21 in1023.0 mb 0.00 in0.0 mm 0.00 in0.0 mm 0.00 in0.0 mm
02:34 PM 46.9°F8.3°C 28.8°F-1.8°C 49% 4.2 mph SSE6.8 kmh SSE 8.3 mph13.4 kmh 30.21 in1023.0 mb 0.00 in0.0 mm 0.00 in0.0 mm 0.00 in0.0 mm
02:35 PM 46.8°F8.2°C 29.2°F-1.6°C 50% 5.8 mph W9.3 kmh W 8.3 mph13.4 kmh 30.21 in1023.0 mb 0.00 in0.0 mm 0.00 in0.0 mm 0.00 in0.0 mm
02:36 PM 46.9°F8.3°C 29.2°F-1.6°C 50% 5.8 mph W9.3 kmh W 9.9 mph15.9 kmh 30.21 in1023.0 mb 0.00 in0.0 mm 0.00 in0.0 mm 0.00 in0.0 mm
02:37 PM 46.9°F8.3°C 29.2°F-1.6°C 50% 6.8 mph S10.9 kmh S 9.9 mph15.9 kmh 30.21 in1023.0 mb 0.00 in0.0 mm 0.00 in0.0 mm 0.00 in0.0 mm
02:38 PM 46.9°F8.3°C 29.2°F-1.6°C 50% 3.7 mph WSW6.0 kmh WSW 9.9 mph15.9 kmh 30.21 in1023.0 mb 0.00 in0.0 mm 0.00 in0.0 mm 0.00 in0.0 mm
02:39 PM 46.9°F8.3°C 29.2°F-1.6°C 50% 5.3 mph N8.5 kmh N 9.9 mph15.9 kmh 30.21 in1023.0 mb 0.00 in0.0 mm 0.00 in0.0 mm 0.00 in0.0 mm
02:40 PM 46.9°F8.3°C 28.8°F-1.8°C 49% 4.7 mph S7.6 kmh S 9.9 mph15.9 kmh 30.21 in1023.0 mb 0.00 in0.0 mm 0.00 in0.0 mm 0.00 in0.0 mm
02:41 PM 46.9°F8.3°C 28.8°F-1.8°C 49% 3.2 mph ENE5.1 kmh ENE 9.9 mph15.9 kmh 30.22 in1023.4 mb 0.00 in0.0 mm 0.00 in0.0 mm 0.00 in0.0 mm
02:42 PM 46.9°F8.3°C 28.8°F-1.8°C 49% 4.2 mph SSW6.8 kmh SSW 9.9 mph15.9 kmh 30.22 in1023.4 mb 0.00 in0.0 mm 0.00 in0.0 mm 0.00 in0.0 mm
02:43 PM 46.8°F8.2°C 28.7°F-1.8°C 49% 5.3 mph WSW8.5 kmh WSW 9.9 mph15.9 kmh 30.22 in1023.4 mb 0.00 in0.0 mm 0.00 in0.0 mm 0.00 in0.0 mm
02:44 PM 46.8°F8.2°C 28.7°F-1.8°C 49% 4.2 mph W6.8 kmh W 9.9 mph15.9 kmh 30.22 in1023.4 mb 0.00 in0.0 mm 0.00 in0.0 mm 0.00 in0.0 mm
02:45 PM 46.6°F8.1°C 28.5°F-1.9°C 49% 4.7 mph E7.6 kmh E 9.9 mph15.9 kmh 30.22 in1023.4 mb 0.00 in0.0 mm 0.00 in0.0 mm 0.00 in0.0 mm
02:46 PM 46.6°F8.1°C 28.5°F-1.9°C 49% 3.7 mph NW6.0 kmh NW 6.8 mph10.9 kmh 30.22 in1023.4 mb 0.00 in0.0 mm 0.00 in0.0 mm 0.00 in0.0 mm
02:47 PM 46.6°F8.1°C 28.5°F-1.9°C 49% 2.7 mph NW4.3 kmh NW 6.8 mph10.9 kmh 30.22 in1023.4 mb 0.00 in0.0 mm 0.00 in0.0 mm 0.00 in0.0 mm
02:48 PM 46.6°F8.1°C 28.5°F-1.9°C 49% 5.3 mph S8.5 kmh S 6.8 mph10.9 kmh 30.22 in1023.4 mb 0.00 in0.0 mm 0.00 in0.0 mm 0.00 in0.0 mm
02:49 PM 46.4°F8.0°C 28.3°F-2.1°C 49% 4.2 mph W6.8 kmh W 6.8 mph10.9 kmh 30.22 in1023.4 mb 0.00 in0.0 mm 0.00 in0.0 mm 0.00 in0.0 mm
02:50 PM 46.4°F8.0°C 28.3°F-2.1°C 49% 2.7 mph W4.3 kmh W 6.8 mph10.9 kmh 30.22 in1023.4 mb 0.00 in0.0 mm 0.00 in0.0 mm 0.00 in0.0 mm
02:51 PM 46.6°F8.1°C 28.5°F-1.9°C 49% 2.7 mph ESE4.3 kmh ESE 6.8 mph10.9 kmh 30.22 in1023.4 mb 0.00 in0.0 mm 0.00 in0.0 mm 0.00 in0.0 mm
02:52 PM 46.6°F8.1°C 28.5°F-1.9°C 49% 3.7 mph NNW6.0 kmh NNW 6.8 mph10.9 kmh 30.22 in1023.4 mb 0.00 in0.0 mm 0.00 in0.0 mm 0.00 in0.0 mm
02:53 PM 46.6°F8.1°C 28.5°F-1.9°C 49% 7.8 mph WSW12.6 kmh WSW 7.8 mph12.6 kmh 30.21 in1023.0 mb 0.00 in0.0 mm 0.00 in0.0 mm 0.00 in0.0 mm
02:54 PM 46.4°F8.0°C 28.3°F-2.1°C 49% 4.2 mph NW6.8 kmh NW 12.5 mph20.1 kmh 30.21 in1023.0 mb 0.00 in0.0 mm 0.00 in0.0 mm 0.00 in0.0 mm
02:55 PM 46.4°F8.0°C 28.3°F-2.1°C 49% 7.8 mph NW12.6 kmh NW 12.5 mph20.1 kmh 30.21 in1023.0 mb 0.00 in0.0 mm 0.00 in0.0 mm 0.00 in0.0 mm
02:56 PM 46.2°F7.9°C 28.1°F-2.2°C 49% 4.7 mph SSW7.6 kmh SSW 12.5 mph20.1 kmh 30.21 in1023.0 mb 0.00 in0.0 mm 0.00 in0.0 mm 0.00 in0.0 mm
02:57 PM 46.2°F7.9°C 28.1°F-2.2°C 49% 3.7 mph ENE6.0 kmh ENE 12.5 mph20.1 kmh 30.21 in1023.0 mb 0.00 in0.0 mm 0.00 in0.0 mm 0.00 in0.0 mm
02:58 PM 46.2°F7.9°C 28.1°F-2.2°C 49% 2.7 mph W4.3 kmh W 12.5 mph20.1 kmh 30.21 in1023.0 mb 0.00 in0.0 mm 0.00 in0.0 mm 0.00 in0.0 mm
02:59 PM 46.2°F7.9°C 28.1°F-2.2°C 49% 5.8 mph W9.3 kmh W 12.5 mph20.1 kmh 30.21 in1023.0 mb 0.00 in0.0 mm 0.00 in0.0 mm 0.00 in0.0 mm
03:00 PM 46.2°F7.9°C 28.1°F-2.2°C 49% 2.2 mph W3.5 kmh W 12.5 mph20.1 kmh 30.21 in1023.0 mb 0.00 in0.0 mm 0.00 in0.0 mm 0.00 in0.0 mm
03:01 PM 46.2°F7.9°C 28.1°F-2.2°C 49% 2.2 mph WNW3.5 kmh WNW 12.5 mph20.1 kmh 30.21 in1023.0 mb 0.00 in0.0 mm 0.00 in0.0 mm 0.00 in0.0 mm
03:02 PM 46.4°F8.0°C 28.3°F-2.1°C 49% 2.2 mph NNW3.5 kmh NNW 12.5 mph20.1 kmh 30.21 in1023.0 mb 0.00 in0.0 mm 0.00 in0.0 mm 0.00 in0.0 mm
03:03 PM 46.6°F8.1°C 28.0°F-2.2°C 48% 7.8 mph W12.6 kmh W 12.5 mph20.1 kmh 30.21 in1023.0 mb 0.00 in0.0 mm 0.00 in0.0 mm 0.00 in0.0 mm
03:04 PM 46.6°F8.1°C 28.0°F-2.2°C 48% 3.7 mph N6.0 kmh N 8.3 mph13.4 kmh 30.21 in1023.0 mb 0.00 in0.0 mm 0.00 in0.0 mm 0.00 in0.0 mm
03:05 PM 46.6°F8.1°C 28.0°F-2.2°C 48% 2.7 mph N4.3 kmh N 8.3 mph13.4 kmh 30.21 in1023.0 mb 0.00 in0.0 mm 0.00 in0.0 mm 0.00 in0.0 mm
03:06 PM 46.4°F8.0°C 27.8°F-2.3°C 48% 6.8 mph NNW10.9 kmh NNW 8.3 mph13.4 kmh 30.21 in1023.0 mb 0.00 in0.0 mm 0.00 in0.0 mm 0.00 in0.0 mm
03:07 PM 46.4°F8.0°C 27.8°F-2.3°C 48% 2.7 mph W4.3 kmh W 8.3 mph13.4 kmh 30.21 in1023.0 mb 0.00 in0.0 mm 0.00 in0.0 mm 0.00 in0.0 mm
03:08 PM 46.4°F8.0°C 27.8°F-2.3°C 48% 4.7 mph SW7.6 kmh SW 8.3 mph13.4 kmh 30.21 in1023.0 mb 0.00 in0.0 mm 0.00 in0.0 mm 0.00 in0.0 mm
03:09 PM 46.8°F8.2°C 27.6°F-2.4°C 47% 2.7 mph W4.3 kmh W 8.3 mph13.4 kmh 30.21 in1023.0 mb 0.00 in0.0 mm 0.00 in0.0 mm 0.00 in0.0 mm
03:10 PM 46.8°F8.2°C 27.6°F-2.4°C 47% 6.3 mph N10.1 kmh N 8.3 mph13.4 kmh 30.21 in1023.0 mb 0.00 in0.0 mm 0.00 in0.0 mm 0.00 in0.0 mm
03:11 PM 46.6°F8.1°C 27.5°F-2.5°C 47% 3.7 mph W6.0 kmh W 8.3 mph13.4 kmh 30.21 in1023.0 mb 0.00 in0.0 mm 0.00 in0.0 mm 0.00 in0.0 mm
03:12 PM 46.6°F8.1°C 27.5°F-2.5°C 47% 5.8 mph NNE9.3 kmh NNE 8.3 mph13.4 kmh 30.21 in1023.0 mb 0.00 in0.0 mm 0.00 in0.0 mm 0.00 in0.0 mm
03:13 PM 46.4°F8.0°C 27.3°F-2.6°C 47% 4.2 mph N6.8 kmh N 8.3 mph13.4 kmh 30.21 in1023.0 mb 0.00 in0.0 mm 0.00 in0.0 mm 0.00 in0.0 mm
03:14 PM 46.2°F7.9°C 27.1°F-2.7°C 47% 4.2 mph N6.8 kmh N 8.3 mph13.4 kmh 30.21 in1023.0 mb 0.00 in0.0 mm 0.00 in0.0 mm 0.00 in0.0 mm
03:15 PM 46.4°F8.0°C 27.3°F-2.6°C 47% 3.7 mph WNW6.0 kmh WNW 8.3 mph13.4 kmh 30.21 in1023.0 mb 0.00 in0.0 mm 0.00 in0.0 mm 0.00 in0.0 mm
03:16 PM 46.4°F8.0°C 27.3°F-2.6°C 47% 2.7 mph NNW4.3 kmh NNW 8.3 mph13.4 kmh 30.21 in1023.0 mb 0.00 in0.0 mm 0.00 in0.0 mm 0.00 in0.0 mm
03:17 PM 46.4°F8.0°C 27.3°F-2.6°C 47% 4.7 mph W7.6 kmh W 8.3 mph13.4 kmh 30.21 in1023.0 mb 0.00 in0.0 mm 0.00 in0.0 mm 0.00 in0.0 mm
03:18 PM 46.6°F8.1°C 26.9°F-2.8°C 46% 4.7 mph WSW7.6 kmh WSW 8.3 mph13.4 kmh 30.21 in1023.0 mb 0.00 in0.0 mm 0.00 in0.0 mm 0.00 in0.0 mm
03:19 PM 46.4°F8.0°C 26.8°F-2.9°C 46% 7.8 mph W12.6 kmh W 8.3 mph13.4 kmh 30.21 in1023.0 mb 0.00 in0.0 mm 0.00 in0.0 mm 0.00 in0.0 mm
03:20 PM 46.2°F7.9°C 26.6°F-3.0°C 46% 6.8 mph NNE10.9 kmh NNE 8.3 mph13.4 kmh 30.21 in1023.0 mb 0.00 in0.0 mm 0.00 in0.0 mm 0.00 in0.0 mm
03:21 PM 46.2°F7.9°C 26.6°F-3.0°C 46% 5.8 mph WNW9.3 kmh WNW 8.3 mph13.4 kmh 30.21 in1023.0 mb 0.00 in0.0 mm 0.00 in0.0 mm 0.00 in0.0 mm
03:22 PM 46.0°F7.8°C 26.9°F-2.8°C 47% 4.7 mph SSW7.6 kmh SSW 8.3 mph13.4 kmh 30.21 in1023.0 mb 0.00 in0.0 mm 0.00 in0.0 mm 0.00 in0.0 mm
03:23 PM 46.0°F7.8°C 26.9°F-2.8°C 47% 3.2 mph WNW5.1 kmh WNW 7.8 mph12.6 kmh 30.21 in1023.0 mb 0.00 in0.0 mm 0.00 in0.0 mm 0.00 in0.0 mm
03:24 PM 46.0°F7.8°C 26.9°F-2.8°C 47% 4.2 mph NNE6.8 kmh NNE 7.8 mph12.6 kmh 30.21 in1023.0 mb 0.00 in0.0 mm 0.00 in0.0 mm 0.00 in0.0 mm
03:25 PM 46.0°F7.8°C 26.9°F-2.8°C 47% 3.7 mph W6.0 kmh W 7.8 mph12.6 kmh 30.21 in1023.0 mb 0.00 in0.0 mm 0.00 in0.0 mm 0.00 in0.0 mm
03:26 PM 46.0°F7.8°C 26.9°F-2.8°C 47% 3.2 mph SW5.1 kmh SW 7.8 mph12.6 kmh 30.21 in1023.0 mb 0.00 in0.0 mm 0.00 in0.0 mm 0.00 in0.0 mm
03:27 PM 45.9°F7.7°C 26.8°F-2.9°C 47% 3.7 mph SE6.0 kmh SE 7.8 mph12.6 kmh 30.21 in1023.0 mb 0.00 in0.0 mm 0.00 in0.0 mm 0.00 in0.0 mm
03:28 PM 45.9°F7.7°C 26.8°F-2.9°C 47% 5.3 mph W8.5 kmh W 7.8 mph12.6 kmh 30.21 in1023.0 mb 0.00 in0.0 mm 0.00 in0.0 mm 0.00 in0.0 mm
03:29 PM 45.7°F7.6°C 26.6°F-3.0°C 47% 2.2 mph S3.5 kmh S 7.8 mph12.6 kmh 30.21 in1023.0 mb 0.00 in0.0 mm 0.00 in0.0 mm 0.00 in0.0 mm
03:30 PM 45.9°F7.7°C 26.8°F-2.9°C 47% 1.7 mph WNW2.7 kmh WNW 7.8 mph12.6 kmh 30.21 in1023.0 mb 0.00 in0.0 mm 0.00 in0.0 mm 0.00 in0.0 mm
03:31 PM 46.0°F7.8°C 26.9°F-2.8°C 47% 4.7 mph W7.6 kmh W 7.8 mph12.6 kmh 30.21 in1023.0 mb 0.00 in0.0 mm 0.00 in0.0 mm 0.00 in0.0 mm
03:32 PM 45.9°F7.7°C 26.8°F-2.9°C 47% 7.3 mph W11.7 kmh W 7.8 mph12.6 kmh 30.21 in1023.0 mb 0.00 in0.0 mm 0.00 in0.0 mm 0.00 in0.0 mm
03:33 PM 45.7°F7.6°C 26.6°F-3.0°C 47% 4.7 mph W7.6 kmh W 7.8 mph12.6 kmh 30.21 in1023.0 mb 0.00 in0.0 mm 0.00 in0.0 mm 0.00 in0.0 mm
03:34 PM 45.7°F7.6°C 26.6°F-3.0°C 47% 2.2 mph ESE3.5 kmh ESE 7.3 mph11.7 kmh 30.21 in1023.0 mb 0.00 in0.0 mm 0.00 in0.0 mm 0.00 in0.0 mm
03:35 PM 45.7°F7.6°C 26.6°F-3.0°C 47% 3.7 mph WNW6.0 kmh WNW 7.3 mph11.7 kmh 30.21 in1023.0 mb 0.00 in0.0 mm 0.00 in0.0 mm 0.00 in0.0 mm
03:36 PM 45.5°F7.5°C 26.5°F-3.1°C 47% 3.2 mph W5.1 kmh W 7.3 mph11.7 kmh 30.21 in1023.0 mb 0.00 in0.0 mm 0.00 in0.0 mm 0.00 in0.0 mm
03:37 PM 45.5°F7.5°C 26.5°F-3.1°C 47% 6.3 mph SW10.1 kmh SW 7.3 mph11.7 kmh 30.21 in1023.0 mb 0.00 in0.0 mm 0.00 in0.0 mm 0.00 in0.0 mm
03:38 PM 45.5°F7.5°C 26.5°F-3.1°C 47% 2.7 mph SE4.3 kmh SE 7.3 mph11.7 kmh 30.21 in1023.0 mb 0.00 in0.0 mm 0.00 in0.0 mm 0.00 in0.0 mm
03:39 PM 45.5°F7.5°C 26.5°F-3.1°C 47% 3.7 mph W6.0 kmh W 7.3 mph11.7 kmh 30.21 in1023.0 mb 0.00 in0.0 mm 0.00 in0.0 mm 0.00 in0.0 mm
03:40 PM 45.5°F7.5°C 26.5°F-3.1°C 47% 3.2 mph SSW5.1 kmh SSW 7.3 mph11.7 kmh 30.21 in1023.0 mb 0.00 in0.0 mm 0.00 in0.0 mm 0.00 in0.0 mm
03:41 PM 45.5°F7.5°C 26.5°F-3.1°C 47% 5.3 mph NW8.5 kmh NW 7.3 mph11.7 kmh 30.22 in1023.4 mb 0.00 in0.0 mm 0.00 in0.0 mm 0.00 in0.0 mm
03:42 PM 45.5°F7.5°C 26.5°F-3.1°C 47% 5.3 mph ESE8.5 kmh ESE 7.3 mph11.7 kmh 30.22 in1023.4 mb 0.00 in0.0 mm 0.00 in0.0 mm 0.00 in0.0 mm
03:43 PM 45.5°F7.5°C 26.5°F-3.1°C 47% 2.7 mph ESE4.3 kmh ESE 6.8 mph10.9 kmh 30.22 in1023.4 mb 0.00 in0.0 mm 0.00 in0.0 mm 0.00 in0.0 mm
03:44 PM 45.5°F7.5°C 26.5°F-3.1°C 47% 1.7 mph ENE2.7 kmh ENE 6.8 mph10.9 kmh 30.22 in1023.4 mb 0.00 in0.0 mm 0.00 in0.0 mm 0.00 in0.0 mm
03:45 PM 45.3°F7.4°C 26.3°F-3.2°C 47% 2.2 mph SW3.5 kmh SW 6.8 mph10.9 kmh 30.22 in1023.4 mb 0.00 in0.0 mm 0.00 in0.0 mm 0.00 in0.0 mm
03:46 PM 45.3°F7.4°C 26.3°F-3.2°C 47% 1.1 mph NNW1.8 kmh NNW 6.8 mph10.9 kmh 30.22 in1023.4 mb 0.00 in0.0 mm 0.00 in0.0 mm 0.00 in0.0 mm
03:47 PM 45.3°F7.4°C 26.3°F-3.2°C 47% 1.1 mph NNW1.8 kmh NNW 6.3 mph10.1 kmh 30.22 in1023.4 mb 0.00 in0.0 mm 0.00 in0.0 mm 0.00 in0.0 mm
03:48 PM 45.3°F7.4°C 26.8°F-2.9°C 48% 4.7 mph N7.6 kmh N 6.3 mph10.1 kmh 30.22 in1023.4 mb 0.00 in0.0 mm 0.00 in0.0 mm 0.00 in0.0 mm
03:49 PM 45.3°F7.4°C 26.8°F-2.9°C 48% 5.3 mph W8.5 kmh W 6.3 mph10.1 kmh 30.22 in1023.4 mb 0.00 in0.0 mm 0.00 in0.0 mm 0.00 in0.0 mm
03:50 PM 45.0°F7.2°C 27.0°F-2.8°C 49% 2.2 mph S3.5 kmh S 6.3 mph10.1 kmh 30.22 in1023.4 mb 0.00 in0.0 mm 0.00 in0.0 mm 0.00 in0.0 mm
03:51 PM 45.0°F7.2°C 27.0°F-2.8°C 49% 2.7 mph W4.3 kmh W 6.3 mph10.1 kmh 30.22 in1023.4 mb 0.00 in0.0 mm 0.00 in0.0 mm 0.00 in0.0 mm
03:52 PM 45.1°F7.3°C 26.6°F-3.0°C 48% 3.2 mph SW5.1 kmh SW 6.3 mph10.1 kmh 30.22 in1023.4 mb 0.00 in0.0 mm 0.00 in0.0 mm 0.00 in0.0 mm
03:53 PM 45.0°F7.2°C 26.5°F-3.1°C 48% 1.7 mph NNE2.7 kmh NNE 6.3 mph10.1 kmh 30.22 in1023.4 mb 0.00 in0.0 mm 0.00 in0.0 mm 0.00 in0.0 mm
03:54 PM 45.0°F7.2°C 26.5°F-3.1°C 48% 4.7 mph W7.6 kmh W 6.3 mph10.1 kmh 30.22 in1023.4 mb 0.00 in0.0 mm 0.00 in0.0 mm 0.00 in0.0 mm
03:55 PM 45.0°F7.2°C 27.0°F-2.8°C 49% 1.7 mph WNW2.7 kmh WNW 5.3 mph8.5 kmh 30.22 in1023.4 mb 0.00 in0.0 mm 0.00 in0.0 mm 0.00 in0.0 mm
03:56 PM 44.8°F7.1°C 26.8°F-2.9°C 49% 1.1 mph NNE1.8 kmh NNE 5.3 mph8.5 kmh 30.22 in1023.4 mb 0.00 in0.0 mm 0.00 in0.0 mm 0.00 in0.0 mm
03:57 PM 44.8°F7.1°C 26.8°F-2.9°C 49% 2.7 mph NE4.3 kmh NE 5.3 mph8.5 kmh 30.22 in1023.4 mb 0.00 in0.0 mm 0.00 in0.0 mm 0.00 in0.0 mm
03:58 PM 45.0°F7.2°C 27.0°F-2.8°C 49% 1.7 mph ESE2.7 kmh ESE 5.3 mph8.5 kmh 30.22 in1023.4 mb 0.00 in0.0 mm 0.00 in0.0 mm 0.00 in0.0 mm
03:59 PM 44.8°F7.1°C 26.8°F-2.9°C 49% 2.7 mph W4.3 kmh W 5.3 mph8.5 kmh 30.22 in1023.4 mb 0.00 in0.0 mm 0.00 in0.0 mm 0.00 in0.0 mm
04:00 PM 44.8°F7.1°C 26.8°F-2.9°C 49% 3.7 mph W6.0 kmh W 4.7 mph7.6 kmh 30.22 in1023.4 mb 0.00 in0.0 mm 0.00 in0.0 mm 0.00 in0.0 mm
04:01 PM 44.8°F7.1°C 27.3°F-2.6°C 50% 2.7 mph W4.3 kmh W 4.7 mph7.6 kmh 30.22 in1023.4 mb 0.00 in0.0 mm 0.00 in0.0 mm 0.00 in0.0 mm
04:02 PM 44.6°F7.0°C 27.1°F-2.7°C 50% 2.2 mph W3.5 kmh W 4.7 mph7.6 kmh 30.22 in1023.4 mb 0.00 in0.0 mm 0.00 in0.0 mm 0.00 in0.0 mm
04:03 PM 44.6°F7.0°C 27.6°F-2.4°C 51% 3.7 mph NNW6.0 kmh NNW 4.7 mph7.6 kmh 30.22 in1023.4 mb 0.00 in0.0 mm 0.00 in0.0 mm 0.00 in0.0 mm
04:04 PM 44.4°F6.9°C 27.4°F-2.6°C 51% 2.7 mph W4.3 kmh W 4.7 mph7.6 kmh 30.22 in1023.4 mb 0.00 in0.0 mm 0.00 in0.0 mm 0.00 in0.0 mm
04:05 PM 44.4°F6.9°C 28.4°F-2.0°C 53% 3.2 mph WSW5.1 kmh WSW 4.2 mph6.8 kmh 30.22 in1023.4 mb 0.00 in0.0 mm 0.00 in0.0 mm 0.00 in0.0 mm
04:06 PM 44.2°F6.8°C 28.2°F-2.1°C 53% 4.2 mph S6.8 kmh S 4.2 mph6.8 kmh 30.22 in1023.4 mb 0.00 in0.0 mm 0.00 in0.0 mm 0.00 in0.0 mm
04:07 PM 44.2°F6.8°C 28.6°F-1.9°C 54% 3.2 mph S5.1 kmh S 4.2 mph6.8 kmh 30.22 in1023.4 mb 0.00 in0.0 mm 0.00 in0.0 mm 0.00 in0.0 mm
04:08 PM 43.9°F6.6°C 29.2°F-1.6°C 56% 1.7 mph NW2.7 kmh NW 4.2 mph6.8 kmh 30.22 in1023.4 mb 0.00 in0.0 mm 0.00 in0.0 mm 0.00 in0.0 mm
04:09 PM 43.9°F6.6°C 29.7°F-1.3°C 57% 3.2 mph ESE5.1 kmh ESE 4.2 mph6.8 kmh 30.22 in1023.4 mb 0.00 in0.0 mm 0.00 in0.0 mm 0.00 in0.0 mm
04:10 PM 43.9°F6.6°C 29.7°F-1.3°C 57% 3.7 mph WNW6.0 kmh WNW 4.2 mph6.8 kmh 30.22 in1023.4 mb 0.00 in0.0 mm 0.00 in0.0 mm 0.00 in0.0 mm
04:11 PM 43.5°F6.4°C 30.1°F-1.1°C 59% 3.7 mph SW6.0 kmh SW 5.8 mph9.3 kmh 30.22 in1023.4 mb 0.00 in0.0 mm 0.00 in0.0 mm 0.00 in0.0 mm
04:12 PM 43.3°F6.3°C 30.4°F-0.9°C 60% 2.2 mph W3.5 kmh W 5.8 mph9.3 kmh 30.22 in1023.4 mb 0.00 in0.0 mm 0.00 in0.0 mm 0.00 in0.0 mm
04:13 PM 43.2°F6.2°C 30.3°F-0.9°C 60% 3.2 mph W5.1 kmh W 5.8 mph9.3 kmh 30.22 in1023.4 mb 0.00 in0.0 mm 0.00 in0.0 mm 0.00 in0.0 mm
04:14 PM 43.0°F6.1°C 30.5°F-0.8°C 61% 1.1 mph SSE1.8 kmh SSE 5.8 mph9.3 kmh 30.22 in1023.4 mb 0.00 in0.0 mm 0.00 in0.0 mm 0.00 in0.0 mm
04:15 PM 43.0°F6.1°C 31.3°F-0.4°C 63% 7.3 mph SSW11.7 kmh SSW 7.3 mph11.7 kmh 30.22 in1023.4 mb 0.00 in0.0 mm 0.00 in0.0 mm 0.00 in0.0 mm
04:16 PM 42.8°F6.0°C 31.5°F-0.3°C 64% 3.2 mph W5.1 kmh W 7.3 mph11.7 kmh 30.22 in1023.4 mb 0.00 in0.0 mm 0.00 in0.0 mm 0.00 in0.0 mm
04:17 PM 42.4°F5.8°C 31.5°F-0.3°C 65% 3.2 mph W5.1 kmh W 7.3 mph11.7 kmh 30.23 in1023.7 mb 0.00 in0.0 mm 0.00 in0.0 mm 0.00 in0.0 mm
04:18 PM 42.4°F5.8°C 31.9°F-0.1°C 66% 2.7 mph SSW4.3 kmh SSW 7.3 mph11.7 kmh 30.23 in1023.7 mb 0.00 in0.0 mm 0.00 in0.0 mm 0.00 in0.0 mm
04:19 PM 42.4°F5.8°C 31.9°F-0.1°C 66% 2.2 mph W3.5 kmh W 7.3 mph11.7 kmh 30.23 in1023.7 mb 0.00 in0.0 mm 0.00 in0.0 mm 0.00 in0.0 mm
04:20 PM 42.3°F5.7°C 32.1°F0.1°C 67% 1.7 mph WNW2.7 kmh WNW 7.3 mph11.7 kmh 30.23 in1023.7 mb 0.00 in0.0 mm 0.00 in0.0 mm 0.00 in0.0 mm
04:21 PM 42.1°F5.6°C 32.3°F0.2°C 68% 1.7 mph WNW2.7 kmh WNW 7.3 mph11.7 kmh 30.23 in1023.7 mb 0.00 in0.0 mm 0.00 in0.0 mm 0.00 in0.0 mm
04:22 PM 42.1°F5.6°C 32.3°F0.2°C 68% 2.2 mph W3.5 kmh W 7.3 mph11.7 kmh 30.23 in1023.7 mb 0.00 in0.0 mm 0.00 in0.0 mm 0.00 in0.0 mm
04:23 PM 41.9°F5.5°C 32.8°F0.4°C 70% 2.7 mph W4.3 kmh W 7.3 mph11.7 kmh 30.23 in1023.7 mb 0.00 in0.0 mm 0.00 in0.0 mm 0.00 in0.0 mm
04:24 PM 41.7°F5.4°C 33.0°F0.6°C 71% 1.7 mph NW2.7 kmh NW 7.3 mph11.7 kmh 30.23 in1023.7 mb 0.00 in0.0 mm 0.00 in0.0 mm 0.00 in0.0 mm
04:25 PM 41.5°F5.3°C 32.8°F0.4°C 71% 1.7 mph W2.7 kmh W 7.3 mph11.7 kmh 30.23 in1023.7 mb 0.00 in0.0 mm 0.00 in0.0 mm 0.00 in0.0 mm
04:26 PM 41.5°F5.3°C 33.5°F0.8°C 73% Calm Calm 4.2 mph6.8 kmh 30.23 in1023.7 mb 0.00 in0.0 mm 0.00 in0.0 mm 0.00 in0.0 mm
04:27 PM 41.5°F5.3°C 33.2°F0.7°C 72% Calm Calm 2.7 mph4.3 kmh 30.23 in1023.7 mb 0.00 in0.0 mm 0.00 in0.0 mm 0.00 in0.0 mm
04:28 PM 41.5°F5.3°C 33.5°F0.8°C 73% Calm Calm 2.7 mph4.3 kmh 30.23 in1023.7 mb 0.00 in0.0 mm 0.00 in0.0 mm 0.00 in0.0 mm
04:29 PM 41.4°F5.2°C 34.1°F1.2°C 75% 1.1 mph W1.8 kmh W 2.7 mph4.3 kmh 30.23 in1023.7 mb 0.00 in0.0 mm 0.00 in0.0 mm 0.00 in0.0 mm
04:30 PM 41.4°F5.2°C 33.7°F0.9°C 74% 1.7 mph W2.7 kmh W 2.7 mph4.3 kmh 30.23 in1023.7 mb 0.01 in0.3 mm 0.60 in15.2 mm 0.01 in0.3 mm
04:31 PM 41.2°F5.1°C 33.9°F1.1°C 75% Calm Calm 2.7 mph4.3 kmh 30.23 in1023.7 mb 0.01 in0.3 mm 0.00 in0.0 mm 0.01 in0.3 mm
04:32 PM 41.0°F5.0°C 34.0°F1.1°C 76% Calm Calm 2.7 mph4.3 kmh 30.23 in1023.7 mb 0.01 in0.3 mm 0.00 in0.0 mm 0.01 in0.3 mm
04:33 PM 41.0°F5.0°C 34.0°F1.1°C 76% 1.7 mph W2.7 kmh W 2.7 mph4.3 kmh 30.23 in1023.7 mb 0.01 in0.3 mm 0.00 in0.0 mm 0.01 in0.3 mm
04:34 PM 40.8°F4.9°C 33.8°F1.0°C 76% 1.7 mph W2.7 kmh W 1.7 mph2.7 kmh 30.23 in1023.7 mb 0.01 in0.3 mm 0.00 in0.0 mm 0.01 in0.3 mm
04:35 PM 40.8°F4.9°C 34.2°F1.2°C 77% 1.1 mph NW1.8 kmh NW 1.7 mph2.7 kmh 30.23 in1023.7 mb 0.01 in0.3 mm 0.00 in0.0 mm 0.01 in0.3 mm
04:36 PM 40.6°F4.8°C 34.0°F1.1°C 77% Calm Calm 1.7 mph2.7 kmh 30.23 in1023.7 mb 0.01 in0.3 mm 0.00 in0.0 mm 0.01 in0.3 mm
04:37 PM 40.5°F4.7°C 34.5°F1.4°C 79% 1.7 mph W2.7 kmh W 1.7 mph2.7 kmh 30.23 in1023.7 mb 0.01 in0.3 mm 0.00 in0.0 mm 0.01 in0.3 mm
04:38 PM 40.5°F4.7°C 34.5°F1.4°C 79% 1.1 mph W1.8 kmh W 1.7 mph2.7 kmh 30.23 in1023.7 mb 0.01 in0.3 mm 0.00 in0.0 mm 0.01 in0.3 mm
04:39 PM 40.5°F4.7°C 34.5°F1.4°C 79% 1.1 mph WSW1.8 kmh WSW 1.7 mph2.7 kmh 30.23 in1023.7 mb 0.01 in0.3 mm 0.00 in0.0 mm 0.01 in0.3 mm
04:40 PM 40.3°F4.6°C 34.6°F1.4°C 80% Calm Calm 1.7 mph2.7 kmh 30.23 in1023.7 mb 0.01 in0.3 mm 0.00 in0.0 mm 0.01 in0.3 mm
04:41 PM 40.3°F4.6°C 34.6°F1.4°C 80% 1.1 mph W1.8 kmh W 1.7 mph2.7 kmh 30.23 in1023.7 mb 0.01 in0.3 mm 0.00 in0.0 mm 0.01 in0.3 mm
04:42 PM 40.3°F4.6°C 34.6°F1.4°C 80% Calm Calm 1.7 mph2.7 kmh 30.23 in1023.7 mb 0.02 in0.5 mm 0.60 in15.2 mm 0.02 in0.5 mm
04:43 PM 40.1°F4.5°C 34.4°F1.3°C 80% 1.7 mph W2.7 kmh W 2.2 mph3.5 kmh 30.23 in1023.7 mb 0.02 in0.5 mm 0.00 in0.0 mm 0.02 in0.5 mm
04:44 PM 39.9°F4.4°C 34.2°F1.2°C 80% 1.7 mph W2.7 kmh W 2.2 mph3.5 kmh 30.23 in1023.7 mb 0.02 in0.5 mm 0.00 in0.0 mm 0.02 in0.5 mm
04:45 PM 39.7°F4.3°C 34.4°F1.3°C 81% 1.1 mph W1.8 kmh W 2.2 mph3.5 kmh 30.23 in1023.7 mb 0.02 in0.5 mm 0.00 in0.0 mm 0.02 in0.5 mm
04:46 PM 39.7°F4.3°C 34.4°F1.3°C 81% 1.1 mph NW1.8 kmh NW 2.2 mph3.5 kmh 30.23 in1023.7 mb 0.02 in0.5 mm 0.00 in0.0 mm 0.02 in0.5 mm
04:47 PM 39.6°F4.2°C 34.3°F1.3°C 81% 1.7 mph NW2.7 kmh NW 2.2 mph3.5 kmh 30.23 in1023.7 mb 0.02 in0.5 mm 0.00 in0.0 mm 0.02 in0.5 mm
04:48 PM 39.6°F4.2°C 34.3°F1.3°C 81% 1.1 mph W1.8 kmh W 2.2 mph3.5 kmh 30.23 in1023.7 mb 0.02 in0.5 mm 0.00 in0.0 mm 0.02 in0.5 mm
04:49 PM 39.4°F4.1°C 34.4°F1.3°C 82% Calm Calm 2.7 mph4.3 kmh 30.23 in1023.7 mb 0.02 in0.5 mm 0.00 in0.0 mm 0.02 in0.5 mm
04:50 PM 39.4°F4.1°C 34.4°F1.3°C 82% 1.1 mph N1.8 kmh N 2.7 mph4.3 kmh 30.23 in1023.7 mb 0.03 in0.8 mm 0.60 in15.2 mm 0.03 in0.8 mm
04:51 PM 39.4°F4.1°C 34.4°F1.3°C 82% 2.7 mph SSE4.3 kmh SSE 2.7 mph4.3 kmh 30.23 in1023.7 mb 0.03 in0.8 mm 0.00 in0.0 mm 0.03 in0.8 mm
04:52 PM 39.2°F4.0°C 34.2°F1.2°C 82% 2.7 mph W4.3 kmh W 3.2 mph5.1 kmh 30.23 in1023.7 mb 0.03 in0.8 mm 0.00 in0.0 mm 0.03 in0.8 mm
04:53 PM 39.2°F4.0°C 34.5°F1.4°C 83% 1.7 mph W2.7 kmh W 3.2 mph5.1 kmh 30.23 in1023.7 mb 0.03 in0.8 mm 0.00 in0.0 mm 0.03 in0.8 mm
04:54 PM 39.2°F4.0°C 34.5°F1.4°C 83% 1.1 mph S1.8 kmh S 3.2 mph5.1 kmh 30.23 in1023.7 mb 0.03 in0.8 mm 0.00 in0.0 mm 0.03 in0.8 mm
04:55 PM 39.2°F4.0°C 34.5°F1.4°C 83% Calm Calm 3.2 mph5.1 kmh 30.23 in1023.7 mb 0.03 in0.8 mm 0.00 in0.0 mm 0.03 in0.8 mm
04:56 PM 39.2°F4.0°C 34.5°F1.4°C 83% Calm Calm 3.2 mph5.1 kmh 30.23 in1023.7 mb 0.03 in0.8 mm 0.00 in0.0 mm 0.03 in0.8 mm
04:57 PM 39.2°F4.0°C 34.5°F1.4°C 83% 1.7 mph W2.7 kmh W 3.2 mph5.1 kmh 30.23 in1023.7 mb 0.03 in0.8 mm 0.00 in0.0 mm 0.03 in0.8 mm
04:58 PM 39.0°F3.9°C 34.6°F1.4°C 84% Calm Calm 3.2 mph5.1 kmh 30.23 in1023.7 mb 0.04 in1.0 mm 0.60 in15.2 mm 0.04 in1.0 mm
04:59 PM 39.0°F3.9°C 34.6°F1.4°C 84% Calm Calm 3.2 mph5.1 kmh 30.23 in1023.7 mb 0.04 in1.0 mm 0.00 in0.0 mm 0.04 in1.0 mm
05:00 PM 39.0°F3.9°C 34.6°F1.4°C 84% Calm Calm 3.2 mph5.1 kmh 30.23 in1023.7 mb 0.04 in1.0 mm 0.00 in0.0 mm 0.04 in1.0 mm
05:01 PM 39.0°F3.9°C 34.6°F1.4°C 84% Calm Calm 3.2 mph5.1 kmh 30.23 in1023.7 mb 0.04 in1.0 mm 0.00 in0.0 mm 0.04 in1.0 mm
05:02 PM 38.8°F3.8°C 34.4°F1.3°C 84% Calm Calm 2.7 mph4.3 kmh 30.23 in1023.7 mb 0.04 in1.0 mm 0.00 in0.0 mm 0.04 in1.0 mm
05:03 PM 38.8°F3.8°C 34.4°F1.3°C 84% Calm Calm 2.2 mph3.5 kmh 30.23 in1023.7 mb 0.04 in1.0 mm 0.00 in0.0 mm 0.04 in1.0 mm
05:04 PM 38.8°F3.8°C 34.4°F1.3°C 84% Calm Calm 1.7 mph2.7 kmh 30.23 in1023.7 mb 0.04 in1.0 mm 0.00 in0.0 mm 0.04 in1.0 mm
05:05 PM 38.8°F3.8°C 34.4°F1.3°C 84% Calm Calm 1.7 mph2.7 kmh 30.22 in1023.4 mb 0.04 in1.0 mm 0.00 in0.0 mm 0.04 in1.0 mm
05:06 PM 38.8°F3.8°C 34.4°F1.3°C 84% Calm Calm 1.7 mph2.7 kmh 30.22 in1023.4 mb 0.04 in1.0 mm 0.00 in0.0 mm 0.04 in1.0 mm
05:07 PM 38.7°F3.7°C 34.3°F1.3°C 84% Calm Calm 1.1 mph1.8 kmh 30.22 in1023.4 mb 0.04 in1.0 mm 0.00 in0.0 mm 0.04 in1.0 mm
05:08 PM 38.7°F3.7°C 34.3°F1.3°C 84% Calm Calm 1.1 mph1.8 kmh 30.22 in1023.4 mb 0.04 in1.0 mm 0.00 in0.0 mm 0.04 in1.0 mm
05:09 PM 38.7°F3.7°C 34.3°F1.3°C 84% Calm Calm 1.1 mph1.8 kmh 30.22 in1023.4 mb 0.04 in1.0 mm 0.00 in0.0 mm 0.04 in1.0 mm
05:10 PM 38.7°F3.7°C 34.6°F1.4°C 85% Calm Calm 1.1 mph1.8 kmh 30.22 in1023.4 mb 0.05 in1.3 mm 0.60 in15.2 mm 0.05 in1.3 mm
05:11 PM 38.5°F3.6°C 34.7°F1.5°C 86% Calm Calm 1.1 mph1.8 kmh 30.22 in1023.4 mb 0.05 in1.3 mm 0.00 in0.0 mm 0.05 in1.3 mm
05:12 PM 38.5°F3.6°C 34.7°F1.5°C 86% Calm Calm -- 30.22 in1023.4 mb 0.05 in1.3 mm 0.00 in0.0 mm 0.05 in1.3 mm
05:13 PM 38.3°F3.5°C 34.8°F1.6°C 87% Calm Calm -- 30.22 in1023.4 mb 0.05 in1.3 mm 0.00 in0.0 mm 0.05 in1.3 mm
05:14 PM 38.3°F3.5°C 34.8°F1.6°C 87% Calm Calm -- 30.22 in1023.4 mb 0.05 in1.3 mm 0.00 in0.0 mm 0.05 in1.3 mm
05:15 PM 38.3°F3.5°C 34.8°F1.6°C 87% Calm Calm -- 30.22 in1023.4 mb 0.05 in1.3 mm 0.00 in0.0 mm 0.05 in1.3 mm
05:16 PM 38.3°F3.5°C 34.5°F1.4°C 86% Calm Calm -- 30.22 in1023.4 mb 0.05 in1.3 mm 0.00 in0.0 mm 0.05 in1.3 mm
05:17 PM 38.1°F3.4°C 34.6°F1.4°C 87% Calm Calm -- 30.22 in1023.4 mb 0.05 in1.3 mm 0.00 in0.0 mm 0.05 in1.3 mm
05:18 PM 38.1°F3.4°C 34.6°F1.4°C 87% Calm Calm -- 30.22 in1023.4 mb 0.05 in1.3 mm 0.00 in0.0 mm 0.05 in1.3 mm
05:19 PM 38.1°F3.4°C 34.9°F1.6°C 88% Calm Calm -- 30.22 in1023.4 mb 0.05 in1.3 mm 0.00 in0.0 mm 0.05 in1.3 mm
05:20 PM 37.9°F3.3°C 34.7°F1.5°C 88% Calm Calm -- 30.22 in1023.4 mb 0.05 in1.3 mm 0.00 in0.0 mm 0.05 in1.3 mm
05:21 PM 37.9°F3.3°C 34.7°F1.5°C 88% Calm Calm -- 30.22 in1023.4 mb 0.05 in1.3 mm 0.00 in0.0 mm 0.05 in1.3 mm
05:22 PM 37.9°F3.3°C 34.4°F1.3°C 87% Calm Calm -- 30.22 in1023.4 mb 0.05 in1.3 mm 0.00 in0.0 mm 0.05 in1.3 mm
05:23 PM 37.9°F3.3°C 34.4°F1.3°C 87% Calm Calm -- 30.22 in1023.4 mb 0.05 in1.3 mm 0.00 in0.0 mm 0.05 in1.3 mm
05:24 PM 37.9°F3.3°C 34.7°F1.5°C 88% Calm Calm -- 30.22 in1023.4 mb 0.05 in1.3 mm 0.00 in0.0 mm 0.05 in1.3 mm
05:25 PM 37.8°F3.2°C 34.6°F1.4°C 88% Calm Calm -- 30.22 in1023.4 mb 0.06 in1.5 mm 0.60 in15.2 mm 0.06 in1.5 mm
05:26 PM 37.8°F3.2°C 34.9°F1.6°C 89% Calm Calm -- 30.22 in1023.4 mb 0.06 in1.5 mm 0.00 in0.0 mm 0.06 in1.5 mm
05:27 PM 37.8°F3.2°C 34.9°F1.6°C 89% Calm Calm -- 30.22 in1023.4 mb 0.06 in1.5 mm 0.00 in0.0 mm 0.06 in1.5 mm
05:28 PM 37.8°F3.2°C 34.9°F1.6°C 89% Calm Calm -- 30.22 in1023.4 mb 0.06 in1.5 mm 0.00 in0.0 mm 0.06 in1.5 mm
05:29 PM 37.6°F3.1°C 34.7°F1.5°C 89% Calm Calm -- 30.21 in1023.0 mb 0.05 in1.3 mm 0.00 in0.0 mm 0.06 in1.5 mm
05:30 PM 37.6°F3.1°C 34.4°F1.3°C 88% Calm Calm -- 30.21 in1023.0 mb 0.05 in1.3 mm 0.00 in0.0 mm 0.06 in1.5 mm
05:31 PM 37.6°F3.1°C 34.4°F1.3°C 88% Calm Calm -- 30.21 in1023.0 mb 0.05 in1.3 mm 0.00 in0.0 mm 0.06 in1.5 mm
05:32 PM 37.6°F3.1°C 34.4°F1.3°C 88% Calm Calm -- 30.21 in1023.0 mb 0.05 in1.3 mm 0.00 in0.0 mm 0.06 in1.5 mm
05:33 PM 37.6°F3.1°C 34.4°F1.3°C 88% Calm Calm -- 30.21 in1023.0 mb 0.05 in1.3 mm 0.00 in0.0 mm 0.06 in1.5 mm
05:34 PM 37.6°F3.1°C 34.4°F1.3°C 88% Calm Calm -- 30.21 in1023.0 mb 0.05 in1.3 mm 0.00 in0.0 mm 0.06 in1.5 mm
05:35 PM 37.6°F3.1°C 34.4°F1.3°C 88% Calm Calm -- 30.21 in1023.0 mb 0.05 in1.3 mm 0.00 in0.0 mm 0.06 in1.5 mm
05:36 PM 37.6°F3.1°C 34.4°F1.3°C 88% Calm Calm -- 30.21 in1023.0 mb 0.05 in1.3 mm 0.00 in0.0 mm 0.06 in1.5 mm
05:37 PM 37.6°F3.1°C 34.4°F1.3°C 88% Calm Calm -- 30.21 in1023.0 mb 0.05 in1.3 mm 0.00 in0.0 mm 0.06 in1.5 mm
05:38 PM 37.4°F3.0°C 34.5°F1.4°C 89% Calm Calm -- 30.21 in1023.0 mb 0.05 in1.3 mm 0.00 in0.0 mm 0.06 in1.5 mm
05:39 PM 37.4°F3.0°C 34.5°F1.4°C 89% Calm Calm -- 30.21 in1023.0 mb 0.05 in1.3 mm 0.00 in0.0 mm 0.06 in1.5 mm
05:40 PM 37.4°F3.0°C 34.5°F1.4°C 89% Calm Calm -- 30.21 in1023.0 mb 0.05 in1.3 mm 0.00 in0.0 mm 0.06 in1.5 mm
05:41 PM 37.4°F3.0°C 34.5°F1.4°C 89% Calm Calm -- 30.21 in1023.0 mb 0.05 in1.3 mm 0.00 in0.0 mm 0.06 in1.5 mm
05:42 PM 37.4°F3.0°C 34.5°F1.4°C 89% Calm Calm -- 30.21 in1023.0 mb 0.04 in1.0 mm 0.00 in0.0 mm 0.06 in1.5 mm
05:43 PM 37.4°F3.0°C 34.5°F1.4°C 89% Calm Calm -- 30.21 in1023.0 mb 0.04 in1.0 mm 0.00 in0.0 mm 0.06 in1.5 mm
05:44 PM 37.2°F2.9°C 34.5°F1.4°C 90% Calm Calm -- 30.21 in1023.0 mb 0.04 in1.0 mm 0.00 in0.0 mm 0.06 in1.5 mm
05:45 PM 37.2°F2.9°C 34.5°F1.4°C 90% Calm Calm -- 30.21 in1023.0 mb 0.04 in1.0 mm 0.00 in0.0 mm 0.06 in1.5 mm
05:46 PM 37.2°F2.9°C 34.5°F1.4°C 90% Calm Calm -- 30.21 in1023.0 mb 0.04 in1.0 mm 0.00 in0.0 mm 0.06 in1.5 mm
05:47 PM 37.0°F2.8°C 34.3°F1.3°C 90% Calm Calm -- 30.21 in1023.0 mb 0.04 in1.0 mm 0.00 in0.0 mm 0.06 in1.5 mm
05:48 PM 37.0°F2.8°C 34.6°F1.4°C 91% Calm Calm -- 30.21 in1023.0 mb 0.04 in1.0 mm 0.00 in0.0 mm 0.06 in1.5 mm
05:49 PM 37.0°F2.8°C 34.6°F1.4°C 91% Calm Calm -- 30.21 in1023.0 mb 0.04 in1.0 mm 0.00 in0.0 mm 0.06 in1.5 mm
05:50 PM 37.0°F2.8°C 34.6°F1.4°C 91% Calm Calm -- 30.21 in1023.0 mb 0.03 in0.8 mm 0.00 in0.0 mm 0.06 in1.5 mm
05:51 PM 37.0°F2.8°C 34.3°F1.3°C 90% Calm Calm -- 30.21 in1023.0 mb 0.03 in0.8 mm 0.00 in0.0 mm 0.06 in1.5 mm
05:52 PM 37.0°F2.8°C 34.3°F1.3°C 90% Calm Calm -- 30.22 in1023.4 mb 0.03 in0.8 mm 0.00 in0.0 mm 0.06 in1.5 mm
05:53 PM 37.0°F2.8°C 34.6°F1.4°C 91% Calm Calm -- 30.22 in1023.4 mb 0.03 in0.8 mm 0.00 in0.0 mm 0.06 in1.5 mm
05:54 PM 37.0°F2.8°C 34.6°F1.4°C 91% Calm Calm -- 30.22 in1023.4 mb 0.03 in0.8 mm 0.00 in0.0 mm 0.06 in1.5 mm
05:55 PM 37.0°F2.8°C 34.6°F1.4°C 91% Calm Calm -- 30.22 in1023.4 mb 0.03 in0.8 mm 0.00 in0.0 mm 0.06 in1.5 mm
05:56 PM 36.9°F2.7°C 34.5°F1.4°C 91% 1.1 mph W1.8 kmh W 1.1 mph1.8 kmh 30.22 in1023.4 mb 0.03 in0.8 mm 0.00 in0.0 mm 0.06 in1.5 mm
05:57 PM 36.9°F2.7°C 34.8°F1.6°C 92% Calm Calm 1.7 mph2.7 kmh 30.22 in1023.4 mb 0.03 in0.8 mm 0.00 in0.0 mm 0.06 in1.5 mm
05:58 PM 36.9°F2.7°C 34.8°F1.6°C 92% Calm Calm 1.7 mph2.7 kmh 30.22 in1023.4 mb 0.02 in0.5 mm 0.00 in0.0 mm 0.06 in1.5 mm
05:59 PM 36.9°F2.7°C 34.8°F1.6°C 92% Calm Calm 1.7 mph2.7 kmh 30.22 in1023.4 mb 0.02 in0.5 mm 0.00 in0.0 mm 0.06 in1.5 mm
06:00 PM 36.9°F2.7°C 34.8°F1.6°C 92% Calm Calm 1.7 mph2.7 kmh 30.22 in1023.4 mb 0.02 in0.5 mm 0.00 in0.0 mm 0.06 in1.5 mm
06:01 PM 36.9°F2.7°C 34.8°F1.6°C 92% Calm Calm 1.7 mph2.7 kmh 30.22 in1023.4 mb 0.02 in0.5 mm 0.00 in0.0 mm 0.06 in1.5 mm
06:02 PM 36.9°F2.7°C 34.8°F1.6°C 92% Calm Calm 1.7 mph2.7 kmh 30.22 in1023.4 mb 0.02 in0.5 mm 0.00 in0.0 mm 0.06 in1.5 mm
06:03 PM 36.9°F2.7°C 34.8°F1.6°C 92% Calm Calm 1.7 mph2.7 kmh 30.22 in1023.4 mb 0.02 in0.5 mm 0.00 in0.0 mm 0.06 in1.5 mm
06:04 PM 36.7°F2.6°C 34.6°F1.4°C 92% Calm Calm 1.7 mph2.7 kmh 30.21 in1023.0 mb 0.02 in0.5 mm 0.00 in0.0 mm 0.06 in1.5 mm
06:05 PM 36.7°F2.6°C 34.6°F1.4°C 92% Calm Calm 1.7 mph2.7 kmh 30.21 in1023.0 mb 0.02 in0.5 mm 0.00 in0.0 mm 0.06 in1.5 mm
06:06 PM 36.7°F2.6°C 34.6°F1.4°C 92% Calm Calm 1.7 mph2.7 kmh 30.21 in1023.0 mb 0.02 in0.5 mm 0.00 in0.0 mm 0.06 in1.5 mm
06:07 PM 36.7°F2.6°C 34.6°F1.4°C 92% Calm Calm 1.1 mph1.8 kmh 30.21 in1023.0 mb 0.02 in0.5 mm 0.00 in0.0 mm 0.06 in1.5 mm
06:08 PM 36.7°F2.6°C 34.6°F1.4°C 92% Calm Calm -- 30.21 in1023.0 mb 0.02 in0.5 mm 0.00 in0.0 mm 0.06 in1.5 mm
06:09 PM 36.7°F2.6°C 34.6°F1.4°C 92% Calm Calm -- 30.21 in1023.0 mb 0.02 in0.5 mm 0.00 in0.0 mm 0.06 in1.5 mm
06:10 PM 36.7°F2.6°C 34.6°F1.4°C 92% Calm Calm -- 30.21 in1023.0 mb 0.01 in0.3 mm 0.00 in0.0 mm 0.06 in1.5 mm
06:11 PM 36.7°F2.6°C 34.6°F1.4°C 92% Calm Calm -- 30.21 in1023.0 mb 0.01 in0.3 mm 0.00 in0.0 mm 0.06 in1.5 mm
06:12 PM 36.5°F2.5°C 34.4°F1.3°C 92% Calm Calm -- 30.21 in1023.0 mb 0.01 in0.3 mm 0.00 in0.0 mm 0.06 in1.5 mm
06:13 PM 36.5°F2.5°C 34.4°F1.3°C 92% Calm Calm -- 30.21 in1023.0 mb 0.01 in0.3 mm 0.00 in0.0 mm 0.06 in1.5 mm
06:14 PM 36.5°F2.5°C 34.4°F1.3°C 92% Calm Calm -- 30.21 in1023.0 mb 0.01 in0.3 mm 0.00 in0.0 mm 0.06 in1.5 mm
06:15 PM 36.5°F2.5°C 34.4°F1.3°C 92% Calm Calm -- 30.21 in1023.0 mb 0.01 in0.3 mm 0.00 in0.0 mm 0.06 in1.5 mm
06:16 PM 36.5°F2.5°C 34.4°F1.3°C 92% Calm Calm -- 30.21 in1023.0 mb 0.01 in0.3 mm 0.00 in0.0 mm 0.06 in1.5 mm
06:17 PM 36.5°F2.5°C 34.4°F1.3°C 92% Calm Calm -- 30.21 in1023.0 mb 0.01 in0.3 mm 0.00 in0.0 mm 0.06 in1.5 mm
06:18 PM 36.5°F2.5°C 34.4°F1.3°C 92% Calm Calm -- 30.21 in1023.0 mb 0.01 in0.3 mm 0.00 in0.0 mm 0.06 in1.5 mm
06:19 PM 36.5°F2.5°C 34.1°F1.2°C 91% Calm Calm -- 30.21 in1023.0 mb 0.01 in0.3 mm 0.00 in0.0 mm 0.06 in1.5 mm
06:20 PM 36.5°F2.5°C 34.1°F1.2°C 91% Calm Calm -- 30.21 in1023.0 mb 0.01 in0.3 mm 0.00 in0.0 mm 0.06 in1.5 mm
06:21 PM 36.5°F2.5°C 34.1°F1.2°C 91% Calm Calm -- 30.21 in1023.0 mb 0.01 in0.3 mm 0.00 in0.0 mm 0.06 in1.5 mm
06:22 PM 36.5°F2.5°C 34.4°F1.3°C 92% Calm Calm -- 30.21 in1023.0 mb 0.01 in0.3 mm 0.00 in0.0 mm 0.06 in1.5 mm
06:23 PM 36.5°F2.5°C 34.4°F1.3°C 92% Calm Calm -- 30.21 in1023.0 mb 0.01 in0.3 mm 0.00 in0.0 mm 0.06 in1.5 mm
06:24 PM 36.5°F2.5°C 34.4°F1.3°C 92% Calm Calm -- 30.21 in1023.0 mb 0.01 in0.3 mm 0.00 in0.0 mm 0.06 in1.5 mm
06:25 PM 36.5°F2.5°C 34.4°F1.3°C 92% Calm Calm -- 30.21 in1023.0 mb 0.00 in0.0 mm 0.00 in0.0 mm 0.06 in1.5 mm
06:26 PM 36.5°F2.5°C 34.4°F1.3°C 92% Calm Calm -- 30.21 in1023.0 mb 0.00 in0.0 mm 0.00 in0.0 mm 0.06 in1.5 mm
06:27 PM 36.5°F2.5°C 34.4°F1.3°C 92% Calm Calm -- 30.21 in1023.0 mb 0.00 in0.0 mm 0.00 in0.0 mm 0.06 in1.5 mm
06:28 PM 36.5°F2.5°C 34.4°F1.3°C 92% Calm Calm -- 30.21 in1023.0 mb 0.00 in0.0 mm 0.00 in0.0 mm 0.06 in1.5 mm
06:29 PM 36.5°F2.5°C 34.4°F1.3°C 92% Calm Calm -- 30.21 in1023.0 mb 0.00 in0.0 mm 0.00 in0.0 mm 0.06 in1.5 mm
06:30 PM 36.3°F2.4°C 34.5°F1.4°C 93% Calm Calm -- 30.21 in1023.0 mb 0.00 in0.0 mm 0.00 in0.0 mm 0.06 in1.5 mm
06:31 PM 36.3°F2.4°C 34.5°F1.4°C 93% Calm Calm -- 30.21 in1023.0 mb 0.00 in0.0 mm 0.00 in0.0 mm 0.06 in1.5 mm
06:32 PM 36.3°F2.4°C 34.5°F1.4°C 93% Calm Calm -- 30.21 in1023.0 mb 0.00 in0.0 mm 0.00 in0.0 mm 0.06 in1.5 mm
06:33 PM 36.3°F2.4°C 34.5°F1.4°C 93% Calm Calm -- 30.21 in1023.0 mb 0.00 in0.0 mm 0.00 in0.0 mm 0.06 in1.5 mm
06:34 PM 36.3°F2.4°C 34.5°F1.4°C 93% Calm Calm -- 30.21 in1023.0 mb 0.00 in0.0 mm 0.00 in0.0 mm 0.06 in1.5 mm
06:35 PM 36.3°F2.4°C 34.5°F1.4°C 93% Calm Calm -- 30.21 in1023.0 mb 0.00 in0.0 mm 0.00 in0.0 mm 0.06 in1.5 mm
06:36 PM 36.3°F2.4°C 34.5°F1.4°C 93% Calm Calm -- 30.21 in1023.0 mb 0.00 in0.0 mm 0.00 in0.0 mm 0.06 in1.5 mm
06:37 PM 36.3°F2.4°C 34.5°F1.4°C 93% Calm Calm -- 30.21 in1023.0 mb 0.00 in0.0 mm 0.00 in0.0 mm 0.06 in1.5 mm
06:38 PM 36.3°F2.4°C 34.5°F1.4°C 93% Calm Calm -- 30.21 in1023.0 mb 0.00 in0.0 mm 0.00 in0.0 mm 0.06 in1.5 mm
06:39 PM 36.3°F2.4°C 34.7°F1.5°C 94% Calm Calm -- 30.21 in1023.0 mb 0.00 in0.0 mm 0.00 in0.0 mm 0.06 in1.5 mm
06:40 PM 36.3°F2.4°C 34.7°F1.5°C 94% Calm Calm -- 30.21 in1023.0 mb 0.00 in0.0 mm 0.00 in0.0 mm 0.06 in1.5 mm
06:41 PM 36.1°F2.3°C 34.5°F1.4°C 94% Calm Calm -- 30.21 in1023.0 mb 0.00 in0.0 mm 0.00 in0.0 mm 0.06 in1.5 mm
06:42 PM 36.1°F2.3°C 34.5°F1.4°C 94% Calm Calm -- 30.21 in1023.0 mb 0.00 in0.0 mm 0.00 in0.0 mm 0.06 in1.5 mm
06:43 PM 36.1°F2.3°C 34.5°F1.4°C 94% Calm Calm -- 30.21 in1023.0 mb 0.00 in0.0 mm 0.00 in0.0 mm 0.06 in1.5 mm
06:44 PM 36.1°F2.3°C 34.3°F1.3°C 93% Calm Calm -- 30.21 in1023.0 mb 0.00 in0.0 mm 0.00 in0.0 mm 0.06 in1.5 mm
06:45 PM 36.1°F2.3°C 34.3°F1.3°C 93% Calm Calm -- 30.21 in1023.0 mb 0.00 in0.0 mm 0.00 in0.0 mm 0.06 in1.5 mm
06:46 PM 36.1°F2.3°C 34.3°F1.3°C 93% Calm Calm -- 30.21 in1023.0 mb 0.00 in0.0 mm 0.00 in0.0 mm 0.06 in1.5 mm
06:47 PM 36.1°F2.3°C 34.3°F1.3°C 93% Calm Calm -- 30.21 in1023.0 mb 0.00 in0.0 mm 0.00 in0.0 mm 0.06 in1.5 mm
06:48 PM 36.1°F2.3°C 34.3°F1.3°C 93% Calm Calm -- 30.21 in1023.0 mb 0.00 in0.0 mm 0.00 in0.0 mm 0.06 in1.5 mm
06:49 PM 36.1°F2.3°C 34.3°F1.3°C 93% Calm Calm -- 30.21 in1023.0 mb 0.00 in0.0 mm 0.00 in0.0 mm 0.06 in1.5 mm
06:50 PM 36.1°F2.3°C 34.3°F1.3°C 93% Calm Calm -- 30.21 in1023.0 mb 0.00 in0.0 mm 0.00 in0.0 mm 0.06 in1.5 mm
06:51 PM 36.1°F2.3°C 34.5°F1.4°C 94% Calm Calm -- 30.21 in1023.0 mb 0.00 in0.0 mm 0.00 in0.0 mm 0.06 in1.5 mm
06:52 PM 36.1°F2.3°C 34.5°F1.4°C 94% Calm Calm -- 30.21 in1023.0 mb 0.00 in0.0 mm 0.00 in0.0 mm 0.06 in1.5 mm
06:53 PM 36.1°F2.3°C 34.5°F1.4°C 94% Calm Calm -- 30.22 in1023.4 mb 0.00 in0.0 mm 0.00 in0.0 mm 0.06 in1.5 mm
06:54 PM 36.1°F2.3°C 34.5°F1.4°C 94% Calm Calm -- 30.22 in1023.4 mb 0.00 in0.0 mm 0.00 in0.0 mm 0.06 in1.5 mm
06:55 PM 36.1°F2.3°C 34.5°F1.4°C 94% Calm Calm -- 30.22 in1023.4 mb 0.00 in0.0 mm 0.00 in0.0 mm 0.06 in1.5 mm
06:56 PM 36.1°F2.3°C 34.5°F1.4°C 94% Calm Calm -- 30.22 in1023.4 mb 0.00 in0.0 mm 0.00 in0.0 mm 0.06 in1.5 mm
06:57 PM 36.1°F2.3°C 34.5°F1.4°C 94% Calm Calm -- 30.22 in1023.4 mb 0.00 in0.0 mm 0.00 in0.0 mm 0.06 in1.5 mm
06:58 PM 36.1°F2.3°C 34.5°F1.4°C 94% Calm Calm -- 30.22 in1023.4 mb 0.00 in0.0 mm 0.00 in0.0 mm 0.06 in1.5 mm
06:59 PM 36.1°F2.3°C 34.5°F1.4°C 94% Calm Calm -- 30.22 in1023.4 mb 0.00 in0.0 mm 0.00 in0.0 mm 0.06 in1.5 mm
07:00 PM 36.0°F2.2°C 34.4°F1.3°C 94% Calm Calm -- 30.22 in1023.4 mb 0.00 in0.0 mm 0.00 in0.0 mm 0.06 in1.5 mm
07:01 PM 36.0°F2.2°C 34.4°F1.3°C 94% Calm Calm -- 30.22 in1023.4 mb 0.00 in0.0 mm 0.00 in0.0 mm 0.06 in1.5 mm
07:02 PM 36.0°F2.2°C 34.4°F1.3°C 94% Calm Calm -- 30.22 in1023.4 mb 0.00 in0.0 mm 0.00 in0.0 mm 0.06 in1.5 mm
07:03 PM 36.0°F2.2°C 34.4°F1.3°C 94% Calm Calm -- 30.22 in1023.4 mb 0.00 in0.0 mm 0.00 in0.0 mm 0.06 in1.5 mm
07:04 PM 36.0°F2.2°C 34.4°F1.3°C 94% Calm Calm -- 30.22 in1023.4 mb 0.01 in0.3 mm 0.60 in15.2 mm 0.07 in1.8 mm
07:05 PM 36.0°F2.2°C 34.7°F1.5°C 95% Calm Calm -- 30.22 in1023.4 mb 0.01 in0.3 mm 0.00 in0.0 mm 0.07 in1.8 mm
07:06 PM 36.0°F2.2°C 34.7°F1.5°C 95% 1.1 mph W1.8 kmh W 1.7 mph2.7 kmh 30.22 in1023.4 mb 0.01 in0.3 mm 0.00 in0.0 mm 0.07 in1.8 mm
07:07 PM 36.0°F2.2°C 34.7°F1.5°C 95% 1.1 mph W1.8 kmh W 1.7 mph2.7 kmh 30.22 in1023.4 mb 0.01 in0.3 mm 0.00 in0.0 mm 0.07 in1.8 mm
07:08 PM 36.0°F2.2°C 34.7°F1.5°C 95% 1.7 mph W2.7 kmh W 1.7 mph2.7 kmh 30.22 in1023.4 mb 0.01 in0.3 mm 0.00 in0.0 mm 0.07 in1.8 mm
07:09 PM 36.0°F2.2°C 34.7°F1.5°C 95% 1.7 mph W2.7 kmh W 1.7 mph2.7 kmh 30.22 in1023.4 mb 0.01 in0.3 mm 0.00 in0.0 mm 0.07 in1.8 mm
07:10 PM 36.0°F2.2°C 34.7°F1.5°C 95% 1.1 mph W1.8 kmh W 1.7 mph2.7 kmh 30.22 in1023.4 mb 0.01 in0.3 mm 0.00 in0.0 mm 0.07 in1.8 mm
07:11 PM 36.0°F2.2°C 34.7°F1.5°C 95% Calm Calm 1.7 mph2.7 kmh 30.22 in1023.4 mb 0.01 in0.3 mm 0.00 in0.0 mm 0.07 in1.8 mm
07:12 PM 36.0°F2.2°C 34.7°F1.5°C 95% Calm Calm 1.7 mph2.7 kmh 30.22 in1023.4 mb 0.01 in0.3 mm 0.00 in0.0 mm 0.07 in1.8 mm
07:13 PM 36.0°F2.2°C 34.7°F1.5°C 95% Calm Calm 1.7 mph2.7 kmh 30.22 in1023.4 mb 0.01 in0.3 mm 0.00 in0.0 mm 0.07 in1.8 mm
07:14 PM 36.0°F2.2°C 34.7°F1.5°C 95% Calm Calm 1.7 mph2.7 kmh 30.22 in1023.4 mb 0.01 in0.3 mm 0.00 in0.0 mm 0.07 in1.8 mm
07:15 PM 35.8°F2.1°C 34.5°F1.4°C 95% Calm Calm 1.7 mph2.7 kmh 30.22 in1023.4 mb 0.01 in0.3 mm 0.00 in0.0 mm 0.07 in1.8 mm
07:16 PM 35.8°F2.1°C 34.5°F1.4°C 95% Calm Calm 1.7 mph2.7 kmh 30.22 in1023.4 mb 0.01 in0.3 mm 0.00 in0.0 mm 0.07 in1.8 mm
07:17 PM 35.8°F2.1°C 34.5°F1.4°C 95% Calm Calm 1.7 mph2.7 kmh 30.22 in1023.4 mb 0.01 in0.3 mm 0.00 in0.0 mm 0.07 in1.8 mm
07:18 PM 35.8°F2.1°C 34.5°F1.4°C 95% Calm Calm 1.7 mph2.7 kmh 30.22 in1023.4 mb 0.01 in0.3 mm 0.00 in0.0 mm 0.07 in1.8 mm
07:19 PM 35.8°F2.1°C 34.5°F1.4°C 95% Calm Calm 1.1 mph1.8 kmh 30.22 in1023.4 mb 0.01 in0.3 mm 0.00 in0.0 mm 0.07 in1.8 mm
07:20 PM 35.8°F2.1°C 34.5°F1.4°C 95% Calm Calm 1.1 mph1.8 kmh 30.22 in1023.4 mb 0.01 in0.3 mm 0.00 in0.0 mm 0.07 in1.8 mm
07:21 PM 35.8°F2.1°C 34.5°F1.4°C 95% Calm Calm -- 30.22 in1023.4 mb 0.01 in0.3 mm 0.00 in0.0 mm 0.07 in1.8 mm
07:22 PM 35.8°F2.1°C 34.5°F1.4°C 95% Calm Calm -- 30.22 in1023.4 mb 0.01 in0.3 mm 0.00 in0.0 mm 0.07 in1.8 mm
07:23 PM 35.8°F2.1°C 34.5°F1.4°C 95% Calm Calm -- 30.22 in1023.4 mb 0.01 in0.3 mm 0.00 in0.0 mm 0.07 in1.8 mm
07:24 PM 35.8°F2.1°C 34.5°F1.4°C 95% Calm Calm -- 30.22 in1023.4 mb 0.01 in0.3 mm 0.00 in0.0 mm 0.07 in1.8 mm
07:25 PM 35.8°F2.1°C 34.5°F1.4°C 95% Calm Calm -- 30.22 in1023.4 mb 0.01 in0.3 mm 0.00 in0.0 mm 0.07 in1.8 mm
07:26 PM 35.8°F2.1°C 34.5°F1.4°C 95% Calm Calm -- 30.22 in1023.4 mb 0.01 in0.3 mm 0.00 in0.0 mm 0.07 in1.8 mm
07:27 PM 35.8°F2.1°C 34.5°F1.4°C 95% Calm Calm -- 30.22 in1023.4 mb 0.01 in0.3 mm 0.00 in0.0 mm 0.07 in1.8 mm
07:28 PM 35.8°F2.1°C 34.5°F1.4°C 95% Calm Calm -- 30.22 in1023.4 mb 0.01 in0.3 mm 0.00 in0.0 mm 0.07 in1.8 mm
07:29 PM 35.8°F2.1°C 34.5°F1.4°C 95% Calm Calm -- 30.22 in1023.4 mb 0.01 in0.3 mm 0.00 in0.0 mm 0.07 in1.8 mm
07:30 PM 35.8°F2.1°C 34.5°F1.4°C 95% Calm Calm -- 30.22 in1023.4 mb 0.01 in0.3 mm 0.00 in0.0 mm 0.07 in1.8 mm
07:31 PM 35.8°F2.1°C 34.5°F1.4°C 95% Calm Calm -- 30.22 in1023.4 mb 0.01 in0.3 mm 0.00 in0.0 mm 0.07 in1.8 mm
07:32 PM 35.8°F2.1°C 34.5°F1.4°C 95% Calm Calm 1.1 mph1.8 kmh 30.22 in1023.4 mb 0.01 in0.3 mm 0.00 in0.0 mm 0.07 in1.8 mm
07:33 PM 35.8°F2.1°C 34.5°F1.4°C 95% Calm Calm 1.1 mph1.8 kmh 30.22 in1023.4 mb 0.01 in0.3 mm 0.00 in0.0 mm 0.07 in1.8 mm
07:34 PM 35.8°F2.1°C 34.5°F1.4°C 95% Calm Calm 1.1 mph1.8 kmh 30.22 in1023.4 mb 0.01 in0.3 mm 0.00 in0.0 mm 0.07 in1.8 mm
07:35 PM 35.8°F2.1°C 34.5°F1.4°C 95% Calm Calm 1.1 mph1.8 kmh 30.22 in1023.4 mb 0.01 in0.3 mm 0.00 in0.0 mm 0.07 in1.8 mm
07:36 PM 35.8°F2.1°C 34.5°F1.4°C 95% Calm Calm 1.1 mph1.8 kmh 30.22 in1023.4 mb 0.01 in0.3 mm 0.00 in0.0 mm 0.07 in1.8 mm
07:37 PM 35.6°F2.0°C 34.3°F1.3°C 95% Calm Calm 1.1 mph1.8 kmh 30.22 in1023.4 mb 0.01 in0.3 mm 0.00 in0.0 mm 0.07 in1.8 mm
07:38 PM 35.6°F2.0°C 34.3°F1.3°C 95% Calm Calm 1.1 mph1.8 kmh 30.22 in1023.4 mb 0.01 in0.3 mm 0.00 in0.0 mm 0.07 in1.8 mm
07:39 PM 35.6°F2.0°C 34.3°F1.3°C 95% Calm Calm 1.1 mph1.8 kmh 30.22 in1023.4 mb 0.01 in0.3 mm 0.00 in0.0 mm 0.07 in1.8 mm
07:40 PM 35.6°F2.0°C 34.3°F1.3°C 95% Calm Calm 1.1 mph1.8 kmh 30.22 in1023.4 mb 0.01 in0.3 mm 0.00 in0.0 mm 0.07 in1.8 mm
07:41 PM 35.6°F2.0°C 34.3°F1.3°C 95% Calm Calm 1.1 mph1.8 kmh 30.22 in1023.4 mb 0.01 in0.3 mm 0.00 in0.0 mm 0.07 in1.8 mm
07:42 PM 35.6°F2.0°C 34.3°F1.3°C 95% Calm Calm 1.1 mph1.8 kmh 30.22 in1023.4 mb 0.01 in0.3 mm 0.00 in0.0 mm 0.07 in1.8 mm
07:43 PM 35.6°F2.0°C 34.3°F1.3°C 95% Calm Calm 1.1 mph1.8 kmh 30.22 in1023.4 mb 0.01 in0.3 mm 0.00 in0.0 mm 0.07 in1.8 mm
07:44 PM 35.6°F2.0°C 34.3°F1.3°C 95% 1.1 mph N1.8 kmh N 1.1 mph1.8 kmh 30.22 in1023.4 mb 0.01 in0.3 mm 0.00 in0.0 mm 0.07 in1.8 mm
07:45 PM 35.6°F2.0°C 34.3°F1.3°C 95% Calm Calm 1.1 mph1.8 kmh 30.22 in1023.4 mb 0.01 in0.3 mm 0.00 in0.0 mm 0.07 in1.8 mm
07:46 PM 35.6°F2.0°C 34.3°F1.3°C 95% 1.1 mph W1.8 kmh W 1.1 mph1.8 kmh 30.22 in1023.4 mb 0.01 in0.3 mm 0.00 in0.0 mm 0.07 in1.8 mm
07:47 PM 35.6°F2